Provisional Data: Snake Creek near Lawsville Center, PA


Please select a monitoring station.
Please select start date.
Please select start date.

Toggle Unit: C/F Toggle Unit: C/F
Sample Time Temperature (C) Temperature (F) Specific Conductivity (mS/cm) pH   Turbidity (NTU+) DO (mg/L)
12/4/2020 12:00:00 AM 3.87 38.966 0.103 7.08 2.83 12.39
12/4/2020 12:15:00 AM 3.87 38.966 0.103 7.08 2.83 12.39
12/4/2020 12:30:00 AM 3.86 38.948 0.103 7.08 2.84 12.39
12/4/2020 12:45:00 AM 3.86 38.948 0.103 7.07 2.77 12.39
12/4/2020 1:00:00 AM 3.86 38.948 0.103 7.07 2.83 12.38
12/4/2020 1:15:00 AM 3.86 38.948 0.103 7.07 2.81 12.38
12/4/2020 1:30:00 AM 3.86 38.948 0.103 7.07 2.83 12.38
12/4/2020 1:45:00 AM 3.85 38.93 0.103 7.07 2.82 12.38
12/4/2020 2:00:00 AM 3.85 38.93 0.103 7.07 2.79 12.37
12/4/2020 2:15:00 AM 3.85 38.93 0.103 7.07 2.83 12.37
12/4/2020 2:30:00 AM 3.85 38.93 0.103 7.07 2.81 12.37
12/4/2020 2:45:00 AM 3.85 38.93 0.103 7.07 2.78 12.36
12/4/2020 3:00:00 AM 3.85 38.93 0.103 7.07 2.85 12.38
12/4/2020 3:15:00 AM 3.85 38.93 0.103 7.07 2.75 12.37
12/4/2020 3:30:00 AM 3.85 38.93 0.103 7.07 2.91 12.37
12/4/2020 3:45:00 AM 3.85 38.93 0.103 7.07 2.88 12.37
12/4/2020 4:00:00 AM 3.85 38.93 0.103 7.07 2.88 12.37
12/4/2020 4:15:00 AM 3.84 38.912 0.103 7.07 2.8 12.36
12/4/2020 4:30:00 AM 3.84 38.912 0.103 7.07 2.82 12.35
12/4/2020 4:45:00 AM 3.85 38.93 0.103 7.07 2.78 12.36
12/4/2020 5:00:00 AM 3.86 38.948 0.103 7.07 2.8 12.35
12/4/2020 5:15:00 AM 3.87 38.966 0.103 7.07 2.78 12.35
12/4/2020 5:30:00 AM 3.88 38.984 0.103 7.07 2.86 12.34
12/4/2020 5:45:00 AM 3.89 39.002 0.103 7.07 2.89 12.33
12/4/2020 6:00:00 AM 3.88 38.984 0.103 7.07 2.82 12.34
12/4/2020 6:15:00 AM 3.89 39.002 0.103 7.07 2.83 12.33
12/4/2020 6:30:00 AM 3.9 39.02 0.103 7.07 2.87 12.33
12/4/2020 6:45:00 AM 3.91 39.038 0.103 7.07 2.78 12.33
12/4/2020 7:00:00 AM 3.93 39.074 0.103 7.06 2.62 12.32
12/4/2020 7:15:00 AM 3.94 39.092 0.103 7.07 2.78 12.33
12/4/2020 7:30:00 AM 3.94 39.092 0.103 7.07 2.82 12.34
12/4/2020 7:45:00 AM 3.95 39.11 0.103 7.08 2.79 12.39
12/4/2020 8:00:00 AM 3.97 39.146 0.103 7.1 2.78 12.48
12/4/2020 8:15:00 AM 3.98 39.164 0.103 7.12 2.77 12.59
12/4/2020 8:30:00 AM 3.99 39.182 0.103 7.15 2.91 12.73
12/4/2020 8:45:00 AM 4.01 39.218 0.103 7.19 2.77 12.91
12/4/2020 9:00:00 AM 4.03 39.254 0.103 7.23 2.74 13.1
12/4/2020 9:15:00 AM 4.06 39.308 0.102 7.29 2.77 13.31
12/4/2020 9:30:00 AM 4.09 39.362 0.102 7.36 2.82 13.52
12/4/2020 9:45:00 AM 4.14 39.452 0.102 7.42 2.76 13.69
12/4/2020 10:00:00 AM 4.19 39.542 0.102 7.5 2.68 13.84
12/4/2020 10:15:00 AM 4.23 39.614 0.102 7.54 2.75 13.91
12/4/2020 10:30:00 AM 4.29 39.722 0.101 7.6 2.68 13.98
12/4/2020 10:45:00 AM 4.35 39.83 0.101 7.67 2.71 14.03
12/4/2020 11:00:00 AM 4.4 39.92 0.101 7.7 2.7 14.04
12/4/2020 11:15:00 AM 4.45 40.01 0.101 7.74 2.77 14.06
12/4/2020 11:30:00 AM 4.53 40.154 0.101 7.78 2.77 14.08
12/4/2020 11:45:00 AM 4.63 40.334 0.1 7.85 2.69 14.12
12/4/2020 12:00:00 PM 4.76 40.568 0.1 7.9 2.8 14.12
12/4/2020 12:15:00 PM 4.89 40.802 0.1 7.96 2.82 14.13
12/4/2020 12:30:00 PM 5.01 41.018 0.1 8.02 2.82 14.12
12/4/2020 12:45:00 PM 5.18 41.324 0.1 8.06 2.81 14.11
12/4/2020 1:00:00 PM 5.4 41.72 0.099 8.1 2.74 14.09
12/4/2020 1:15:00 PM 5.55 41.99 0.099 8.13 2.7 14.02
12/4/2020 1:30:00 PM 5.68 42.224 0.099 8.16 2.78 13.95
12/4/2020 1:45:00 PM 5.76 42.368 0.099 8.17 2.78 13.88
12/4/2020 2:00:00 PM 5.83 42.494 0.099 8.18 2.75 13.81
12/4/2020 2:15:00 PM 5.87 42.566 0.099 8.15 2.65 13.76
12/4/2020 2:30:00 PM 5.88 42.584 0.099 8.15 2.69 13.69
12/4/2020 2:45:00 PM 5.88 42.584 0.099 8.14 2.76 13.65
12/4/2020 3:00:00 PM 5.84 42.512 0.099 8.08 2.75 13.58
12/4/2020 3:15:00 PM 5.79 42.422 0.099 8.01 2.76 13.5
12/4/2020 3:30:00 PM 5.74 42.332 0.099 7.93 2.7 13.41
12/4/2020 3:45:00 PM 5.69 42.242 0.099 7.82 2.71 13.28
12/4/2020 4:00:00 PM 5.65 42.17 0.1 7.69 2.72 13.12
12/4/2020 4:15:00 PM 5.61 42.098 0.1 7.57 2.79 12.94
12/4/2020 4:30:00 PM 5.57 42.026 0.1 7.47 2.73 12.73
12/4/2020 4:45:00 PM 5.54 41.972 0.1 7.37 2.71 12.53
12/4/2020 5:00:00 PM 5.5 41.9 0.1 7.31 4.82 12.37
12/4/2020 5:15:00 PM 5.45 41.81 0.101 7.26 2.88 12.22
12/4/2020 5:30:00 PM 5.4 41.72 0.101 7.22 2.87 12.13
12/4/2020 5:45:00 PM 5.35 41.63 0.101 7.19 2.81 12.05
12/4/2020 6:00:00 PM 5.3 41.54 0.101 7.17 2.78 12
12/4/2020 6:15:00 PM 5.24 41.432 0.101 7.14 2.58 11.96
12/4/2020 6:30:00 PM 5.2 41.36 0.101 7.13 2.74 11.93
12/4/2020 6:45:00 PM 5.15 41.27 0.101 7.12 2.68 11.91
12/4/2020 7:00:00 PM 5.11 41.198 0.101 7.11 2.49 11.9
12/4/2020 7:15:00 PM 5.09 41.162 0.101 7.1 2.47 11.89
12/4/2020 7:30:00 PM 5.07 41.126 0.101 7.09 2.56 11.89
12/4/2020 7:45:00 PM 5.05 41.09 0.102 7.09 2.51 11.9
12/4/2020 8:00:00 PM 5.04 41.072 0.102 7.08 2.54 11.89
12/4/2020 8:15:00 PM 5.03 41.054 0.102 7.08 2.61 11.89
12/4/2020 8:30:00 PM 5.02 41.036 0.102 7.08 2.47 11.89
12/4/2020 8:45:00 PM 5.01 41.018 0.102 7.07 2.44 11.9
12/4/2020 9:00:00 PM 5 41 0.102 7.07 2.45 11.89
12/4/2020 9:15:00 PM 4.99 40.982 0.102 7.07 2.37 11.9
12/4/2020 9:30:00 PM 4.97 40.946 0.102 7.07 2.48 11.91
12/4/2020 9:45:00 PM 4.96 40.928 0.102 7.07 2.45 11.91
12/4/2020 10:00:00 PM 4.95 40.91 0.102 7.07 2.4 11.93
12/4/2020 10:15:00 PM 4.95 40.91 0.102 7.06 2.39 11.91
12/4/2020 10:30:00 PM 4.94 40.892 0.102 7.06 2.37 11.92
12/4/2020 10:45:00 PM 4.93 40.874 0.102 7.06 2.46 11.92
12/4/2020 11:00:00 PM 4.93 40.874 0.102 7.06 2.45 11.92
12/4/2020 11:15:00 PM 4.92 40.856 0.102 7.06 2.58 11.93
12/4/2020 11:30:00 PM 4.92 40.856 0.102 7.06 2.45 11.92
12/4/2020 11:45:00 PM 4.92 40.856 0.102 7.06 2.52 11.92
12/5/2020 12:00:00 AM 4.91 40.838 0.102 7.05 2.49 11.91
12/5/2020 12:15:00 AM 4.91 40.838 0.102 7.05 2.45 11.92
12/5/2020 12:30:00 AM 4.9 40.82 0.102 7.05 2.48 11.91
12/5/2020 12:45:00 AM 4.89 40.802 0.102 7.05 2.53 11.9
12/5/2020 1:00:00 AM 4.88 40.784 0.102 7.05 2.44 11.91
12/5/2020 1:15:00 AM 4.87 40.766 0.102 7.05 2.43 11.9
12/5/2020 1:30:00 AM 4.85 40.73 0.102 7.05 2.43 11.9
12/5/2020 1:45:00 AM 4.83 40.694 0.102 7.04 2.39 11.91
12/5/2020 2:00:00 AM 4.81 40.658 0.102 7.04 2.49 11.91
12/5/2020 2:15:00 AM 4.79 40.622 0.102 7.04 2.51 11.91
12/5/2020 2:30:00 AM 4.76 40.568 0.102 7.04 2.46 11.93
12/5/2020 2:45:00 AM 4.74 40.532 0.103 7.04 2.39 11.92
12/5/2020 3:00:00 AM 4.72 40.496 0.103 7.04 2.4 11.93
12/5/2020 3:15:00 AM 4.71 40.478 0.103 7.04 2.42 11.93
12/5/2020 3:30:00 AM 4.69 40.442 0.103 7.04 2.52 11.93
12/5/2020 3:45:00 AM 4.68 40.424 0.103 7.04 2.42 11.93
12/5/2020 4:00:00 AM 4.66 40.388 0.103 7.03 2.39 11.94
12/5/2020 4:15:00 AM 4.64 40.352 0.103 7.04 2.37 11.93
12/5/2020 4:30:00 AM 4.62 40.316 0.103 7.03 2.61 11.95
12/5/2020 4:45:00 AM 4.61 40.298 0.103 7.04 2.32 11.94
12/5/2020 5:00:00 AM 4.6 40.28 0.103 7.03 2.48 11.95
12/5/2020 5:15:00 AM 4.59 40.262 0.103 7.04 2.39 11.96
12/5/2020 5:30:00 AM 4.59 40.262 0.103 7.04 2.46 11.96
12/5/2020 5:45:00 AM 4.58 40.244 0.103 7.04 2.43 11.96
12/5/2020 6:00:00 AM 4.58 40.244 0.103 7.04 2.49 11.96
12/5/2020 6:15:00 AM 4.57 40.226 0.103 7.04 2.45 11.97
12/5/2020 6:30:00 AM 4.57 40.226 0.103 7.05 2.41 11.97
12/5/2020 6:45:00 AM 4.57 40.226 0.103 7.05 2.46 11.99
12/5/2020 7:00:00 AM 4.57 40.226 0.103 7.05 2.48 11.98
12/5/2020 7:15:00 AM 4.57 40.226 0.103 7.05 2.48 11.98
12/5/2020 7:30:00 AM 4.57 40.226 0.103 7.05 2.43 11.98
12/5/2020 7:45:00 AM 4.56 40.208 0.103 7.06 2.33 12.01
12/5/2020 8:00:00 AM 4.56 40.208 0.103 7.07 2.44 12.06
12/5/2020 8:15:00 AM 4.56 40.208 0.103 7.08 2.43 12.13
12/5/2020 8:30:00 AM 4.56 40.208 0.103 7.1 2.43 12.21
12/5/2020 8:45:00 AM 4.56 40.208 0.103 7.12 2.41 12.33
12/5/2020 9:00:00 AM 4.57 40.226 0.103 7.14 2.48 12.45
12/5/2020 9:15:00 AM 4.58 40.244 0.102 7.17 2.34 12.57
12/5/2020 9:30:00 AM 4.59 40.262 0.102 7.2 2.41 12.72
12/5/2020 9:45:00 AM 4.6 40.28 0.102 7.23 2.76 12.82
12/5/2020 10:00:00 AM 4.6 40.28 0.102 7.25 2.54 12.89
12/5/2020 10:15:00 AM 4.61 40.298 0.102 7.26 2.49 12.92
12/5/2020 10:30:00 AM 4.62 40.316 0.102 7.29 2.41 13.03
12/5/2020 10:45:00 AM 4.63 40.334 0.102 7.33 2.49 13.14
12/5/2020 11:00:00 AM 4.66 40.388 0.102 7.4 2.52 13.38
12/5/2020 11:15:00 AM 4.7 40.46 0.101 7.46 2.35 13.53
12/5/2020 11:30:00 AM 4.75 40.55 0.101 7.55 3.5 13.72
12/5/2020 11:45:00 AM 4.78 40.604 0.101 7.62 2.33 13.8
12/5/2020 12:00:00 PM 4.8 40.64 0.101 7.66 2.51 13.84
12/5/2020 12:15:00 PM 4.79 40.622 0.101 7.66 2.45 13.78
12/5/2020 12:30:00 PM 4.83 40.694 0.101 7.71 2.49 13.84
12/5/2020 12:45:00 PM 4.89 40.802 0.1 7.76 2.51 13.89
12/5/2020 1:00:00 PM 4.91 40.838 0.1 7.76 2.49 13.85
12/5/2020 1:15:00 PM 4.9 40.82 0.1 7.75 2.45 13.78
12/5/2020 1:30:00 PM 4.89 40.802 0.1 7.77 2.45 13.77
12/5/2020 1:45:00 PM 4.88 40.784 0.1 7.73 2.53 13.66
12/5/2020 2:00:00 PM 4.88 40.784 0.1 7.71 2.45 13.63
12/5/2020 2:15:00 PM 4.88 40.784 0.1 7.72 2.48 13.64
12/5/2020 2:30:00 PM 4.87 40.766 0.1 7.7 2.51 13.58
12/5/2020 2:45:00 PM 4.86 40.748 0.1 7.69 2.63 13.6
12/5/2020 3:00:00 PM 4.84 40.712 0.1 7.69 2.34 13.58
12/5/2020 3:15:00 PM 4.82 40.676 0.1 7.64 2.38 13.48
12/5/2020 3:30:00 PM 4.79 40.622 0.1 7.54 2.45 13.26
12/5/2020 3:45:00 PM 4.76 40.568 0.1 7.46 2.43 13.11
12/5/2020 4:00:00 PM 4.71 40.478 0.1 7.4 2.5 12.95
12/5/2020 4:15:00 PM 4.68 40.424 0.1 7.33 2.51 12.78
12/5/2020 4:30:00 PM 4.65 40.37 0.1 7.28 2.51 12.63
12/5/2020 4:45:00 PM 4.61 40.298 0.101 7.24 2.52 12.52
12/5/2020 5:00:00 PM 4.58 40.244 0.101 7.2 2.51 12.4
12/5/2020 5:15:00 PM 4.55 40.19 0.101 7.18 2.57 12.32
12/5/2020 5:30:00 PM 4.52 40.136 0.101 7.16 2.41 12.28
12/5/2020 5:45:00 PM 4.49 40.082 0.101 7.15 2.55 12.22
12/5/2020 6:00:00 PM 4.47 40.046 0.101 7.13 2.54 12.19
12/5/2020 6:15:00 PM 4.44 39.992 0.102 7.12 2.44 12.17
12/5/2020 6:30:00 PM 4.41 39.938 0.102 7.11 2.53 12.15
12/5/2020 6:45:00 PM 4.38 39.884 0.102 7.11 2.59 12.15
12/5/2020 7:00:00 PM 4.35 39.83 0.102 7.1 2.57 12.14
12/5/2020 7:15:00 PM 4.31 39.758 0.102 7.09 2.6 12.15
12/5/2020 7:30:00 PM 4.28 39.704 0.102 7.09 2.51 12.15
12/5/2020 7:45:00 PM 4.26 39.668 0.101 7.09 2.48 12.15
12/5/2020 8:00:00 PM 4.23 39.614 0.101 7.08 2.73 12.16
12/5/2020 8:15:00 PM 4.2 39.56 0.101 7.08 2.64 12.17
12/5/2020 8:30:00 PM 4.18 39.524 0.101 7.08 2.76 12.17
12/5/2020 8:45:00 PM 4.15 39.47 0.101 7.08 2.72 12.18
12/5/2020 9:00:00 PM 4.13 39.434 0.101 7.07 2.64 12.18
12/5/2020 9:15:00 PM 4.11 39.398 0.101 7.07 2.57 12.17
12/5/2020 9:30:00 PM 4.07 39.326 0.101 7.07 2.64 12.2
12/5/2020 9:45:00 PM 4.05 39.29 0.101 7.07 2.68 12.2
12/5/2020 10:00:00 PM 4.04 39.272 0.101 7.06 2.63 12.2
12/5/2020 10:15:00 PM 4.03 39.254 0.101 7.06 2.65 12.2
12/5/2020 10:30:00 PM 4.02 39.236 0.101 7.06 2.69 12.21
12/5/2020 10:45:00 PM 4.01 39.218 0.101 7.06 2.64 12.2
12/5/2020 11:00:00 PM 4 39.2 0.101 7.06 2.71 12.21
12/5/2020 11:15:00 PM 3.98 39.164 0.101 7.06 2.7 12.21
12/5/2020 11:30:00 PM 3.97 39.146 0.101 7.05 2.69 12.21
12/5/2020 11:45:00 PM 3.95 39.11 0.101 7.05 2.68 12.22
12/6/2020 12:00:00 AM 3.94 39.092 0.101 7.05 2.62 12.22
12/6/2020 12:15:00 AM 3.91 39.038 0.101 7.05 2.64 12.22
12/6/2020 12:30:00 AM 3.88 38.984 0.101 7.05 2.52 12.24
12/6/2020 12:45:00 AM 3.86 38.948 0.101 7.06 2.61 12.24
12/6/2020 1:00:00 AM 3.83 38.894 0.101 7.05 2.61 12.25
12/6/2020 1:15:00 AM 3.8 38.84 0.101 7.05 2.57 12.26
12/6/2020 1:30:00 AM 3.77 38.786 0.101 7.05 2.6 12.26
12/6/2020 1:45:00 AM 3.75 38.75 0.102 7.05 2.58 12.27
12/6/2020 2:00:00 AM 3.72 38.696 0.102 7.05 2.51 12.27
12/6/2020 2:15:00 AM 3.68 38.624 0.102 7.05 2.54 12.3
12/6/2020 2:30:00 AM 3.65 38.57 0.102 7.05 2.58 12.3
12/6/2020 2:45:00 AM 3.62 38.516 0.102 7.05 2.45 12.31
12/6/2020 3:00:00 AM 3.61 38.498 0.102 7.05 2.5 12.32
12/6/2020 3:15:00 AM 3.58 38.444 0.102 7.05 2.55 12.33
12/6/2020 3:30:00 AM 3.56 38.408 0.102 7.05 2.54 12.34
12/6/2020 3:45:00 AM 3.53 38.354 0.102 7.05 2.53 12.34
12/6/2020 4:00:00 AM 3.51 38.318 0.102 7.05 2.58 12.35
12/6/2020 4:15:00 AM 3.48 38.264 0.102 7.05 2.46 12.37
12/6/2020 4:30:00 AM 3.46 38.228 0.102 7.05 2.43 12.38
12/6/2020 4:45:00 AM 3.44 38.192 0.102 7.05 2.49 12.37
12/6/2020 5:00:00 AM 3.41 38.138 0.102 7.05 2.51 12.38
12/6/2020 5:15:00 AM 3.39 38.102 0.102 7.05 2.48 12.39
12/6/2020 5:30:00 AM 3.36 38.048 0.102 7.05 2.46 12.4
12/6/2020 5:45:00 AM 3.33 37.994 0.102 7.05 2.44 12.41
12/6/2020 6:00:00 AM 3.29 37.922 0.103 7.05 2.42 12.43
12/6/2020 6:15:00 AM 3.26 37.868 0.102 7.05 2.51 12.45
12/6/2020 6:30:00 AM 3.22 37.796 0.103 7.05 2.39 12.46
12/6/2020 6:45:00 AM 3.2 37.76 0.103 7.05 2.45 12.46
12/6/2020 7:00:00 AM 3.17 37.706 0.103 7.05 2.49 12.48
12/6/2020 7:15:00 AM 3.15 37.67 0.103 7.05 2.43 12.49
12/6/2020 7:30:00 AM 3.12 37.616 0.103 7.05 2.41 12.51
12/6/2020 7:45:00 AM 3.09 37.562 0.103 7.05 2.46 12.51
12/6/2020 8:00:00 AM 3.06 37.508 0.103 7.06 2.46 12.6
12/6/2020 8:15:00 AM 3.03 37.454 0.103 7.08 2.41 12.69
12/6/2020 8:30:00 AM 3.01 37.418 0.103 7.1 2.29 12.82
12/6/2020 8:45:00 AM 2.99 37.382 0.103 7.13 2.39 12.99
12/6/2020 9:00:00 AM 2.98 37.364 0.103 7.17 2.41 13.18
12/6/2020 9:15:00 AM 2.98 37.364 0.102 7.21 2.38 13.4
12/6/2020 9:30:00 AM 2.99 37.382 0.102 7.27 2.38 13.64
12/6/2020 9:45:00 AM 3.01 37.418 0.102 7.32 2.35 13.82
12/6/2020 10:00:00 AM 3.02 37.436 0.102 7.39 2.39 14.02
12/6/2020 10:15:00 AM 3.03 37.454 0.102 7.44 2.43 14.16
12/6/2020 10:30:00 AM 3.04 37.472 0.102 7.48 2.38 14.22
12/6/2020 10:45:00 AM 3.04 37.472 0.102 7.51 2.37 14.26
12/6/2020 11:00:00 AM 3.04 37.472 0.101 7.53 2.44 14.27
12/6/2020 11:15:00 AM 3.06 37.508 0.101 7.56 2.36 14.33
12/6/2020 11:30:00 AM 3.08 37.544 0.101 7.62 2.36 14.42
12/6/2020 11:45:00 AM 3.11 37.598 0.101 7.65 2.34 14.46
12/6/2020 12:00:00 PM 3.13 37.634 0.101 7.69 2.35 14.48
12/6/2020 12:15:00 PM 3.15 37.67 0.101 7.71 2.4 14.47
12/6/2020 12:30:00 PM 3.15 37.67 0.101 7.72 2.4 14.46
12/6/2020 12:45:00 PM 3.15 37.67 0.101 7.73 2.36 14.43
12/6/2020 1:00:00 PM 3.16 37.688 0.1 7.73 2.37 14.41
12/6/2020 1:15:00 PM 3.16 37.688 0.1 7.75 2.35 14.41
12/6/2020 1:30:00 PM 3.17 37.706 0.1 7.75 2.41 14.39
12/6/2020 1:45:00 PM 3.17 37.706 0.1 7.74 2.32 14.36
12/6/2020 2:00:00 PM 3.16 37.688 0.1 7.73 2.35 14.32
12/6/2020 2:15:00 PM 3.15 37.67 0.1 7.71 2.35 14.29
12/6/2020 2:30:00 PM 3.14 37.652 0.1 7.7 2.37 14.26
12/6/2020 2:45:00 PM 3.14 37.652 0.1 7.7 2.36 14.27
12/6/2020 3:00:00 PM 3.14 37.652 0.1 7.7 2.25 14.28
12/6/2020 3:15:00 PM 3.13 37.634 0.1 7.69 2.32 14.25
12/6/2020 3:30:00 PM 3.12 37.616 0.1 7.67 2.31 14.24
12/6/2020 3:45:00 PM 3.1 37.58 0.1 7.65 2.34 14.17
12/6/2020 4:00:00 PM 3.09 37.562 0.1 7.61 2.31 14.12
12/6/2020 4:15:00 PM 3.06 37.508 0.1 7.57 2.34 14.03
12/6/2020 4:30:00 PM 3.02 37.436 0.1 7.5 2.29 13.88
12/6/2020 4:45:00 PM 2.98 37.364 0.101 7.42 2.32 13.7
12/6/2020 5:00:00 PM 2.96 37.328 0.101 7.34 2.35 13.48
12/6/2020 5:15:00 PM 2.94 37.292 0.101 7.28 2.35 13.28
12/6/2020 5:30:00 PM 2.92 37.256 0.101 7.24 2.22 13.16
12/6/2020 5:45:00 PM 2.89 37.202 0.101 7.21 2.29 13.05
12/6/2020 6:00:00 PM 2.86 37.148 0.101 7.19 2.26 12.99
12/6/2020 6:15:00 PM 2.81 37.058 0.101 7.17 2.27 12.93
12/6/2020 6:30:00 PM 2.75 36.95 0.102 7.15 2.28 12.88
12/6/2020 6:45:00 PM 2.73 36.914 0.102 7.14 2.28 12.85
12/6/2020 7:00:00 PM 2.72 36.896 0.102 7.13 2.3 12.82
12/6/2020 7:15:00 PM 2.7 36.86 0.102 7.12 2.27 12.8
12/6/2020 7:30:00 PM 2.69 36.842 0.102 7.12 2.35 12.79
12/6/2020 7:45:00 PM 2.67 36.806 0.103 7.11 2.29 12.79
12/6/2020 8:00:00 PM 2.65 36.77 0.103 7.11 2.27 12.78
12/6/2020 8:15:00 PM 2.63 36.734 0.103 7.1 2.28 12.78
12/6/2020 8:30:00 PM 2.62 36.716 0.103 7.1 2.27 12.78
12/6/2020 8:45:00 PM 2.6 36.68 0.103 7.1 2.27 12.78
12/6/2020 9:00:00 PM 2.59 36.662 0.103 7.1 2.27 12.78
12/6/2020 9:15:00 PM 2.58 36.644 0.103 7.09 2.25 12.78
12/6/2020 9:30:00 PM 2.57 36.626 0.103 7.09 2.24 12.79
12/6/2020 9:45:00 PM 2.55 36.59 0.103 7.09 2.22 12.79
12/6/2020 10:00:00 PM 2.54 36.572 0.103 7.09 2.3 12.79
12/6/2020 10:15:00 PM 2.53 36.554 0.103 7.09 2.32 12.78
12/6/2020 10:30:00 PM 2.52 36.536 0.103 7.09 2.28 12.79
12/6/2020 10:45:00 PM 2.51 36.518 0.104 7.09 2.25 12.8
12/6/2020 11:00:00 PM 2.5 36.5 0.104 7.08 2.26 12.79
12/6/2020 11:15:00 PM 2.49 36.482 0.104 7.08 2.28 12.8
12/6/2020 11:30:00 PM 2.48 36.464 0.104 7.08 2.33 12.8
12/6/2020 11:45:00 PM 2.47 36.446 0.104 7.08 2.28 12.8
12/7/2020 12:00:00 AM 2.45 36.41 0.104 7.08 2.31 12.8
12/7/2020 12:15:00 AM 2.44 36.392 0.104 7.08 2.29 12.81
12/7/2020 12:30:00 AM 2.43 36.374 0.105 7.08 2.26 12.8
12/7/2020 12:45:00 AM 2.42 36.356 0.105 7.08 2.27 12.8
12/7/2020 1:00:00 AM 2.4 36.32 0.105 7.08 2.3 12.82
12/7/2020 1:15:00 AM 2.38 36.284 0.105 7.08 2.29 12.82
12/7/2020 1:30:00 AM 2.37 36.266 0.105 7.08 2.27 12.81
12/7/2020 1:45:00 AM 2.35 36.23 0.105 7.07 2.31 12.82
12/7/2020 2:00:00 AM 2.34 36.212 0.105 7.07 2.31 12.81
12/7/2020 2:15:00 AM 2.32 36.176 0.105 7.08 2.3 12.82
12/7/2020 2:30:00 AM 2.31 36.158 0.105 7.07 2.3 12.82
12/7/2020 2:45:00 AM 2.31 36.158 0.105 7.07 2.35 12.82
12/7/2020 3:00:00 AM 2.3 36.14 0.105 7.07 2.33 12.83
12/7/2020 3:15:00 AM 2.3 36.14 0.105 7.07 2.47 12.83
12/7/2020 3:30:00 AM 2.29 36.122 0.106 7.08 2.35 12.84
12/7/2020 3:45:00 AM 2.28 36.104 0.106 7.07 2.29 12.85
12/7/2020 4:00:00 AM 2.27 36.086 0.106 7.07 2.27 12.85
12/7/2020 4:15:00 AM 2.26 36.068 0.106 7.07 2.29 12.84
12/7/2020 4:30:00 AM 2.24 36.032 0.106 7.07 2.29 12.83
12/7/2020 4:45:00 AM 2.23 36.014 0.106 7.07 2.32 12.85
12/7/2020 5:00:00 AM 2.22 35.996 0.106 7.07 2.25 12.85
12/7/2020 5:15:00 AM 2.2 35.96 0.106 7.07 2.29 12.83
12/7/2020 5:30:00 AM 2.19 35.942 0.106 7.07 2.27 12.84
12/7/2020 5:45:00 AM 2.18 35.924 0.106 7.07 2.27 12.84
12/7/2020 6:00:00 AM 2.17 35.906 0.106 7.07 2.23 12.85
12/7/2020 6:15:00 AM 2.16 35.888 0.106 7.07 2.27 12.85
12/7/2020 6:30:00 AM 2.14 35.852 0.106 7.07 2.23 12.86
12/7/2020 6:45:00 AM 2.12 35.816 0.106 7.07 2.3 12.87
12/7/2020 7:00:00 AM 2.11 35.798 0.106 7.06 2.22 12.88
12/7/2020 7:15:00 AM 2.1 35.78 0.106 7.07 2.28 12.88
12/7/2020 7:30:00 AM 2.09 35.762 0.106 7.07 2.32 12.88
12/7/2020 7:45:00 AM 2.09 35.762 0.106 7.07 2.31 12.92
12/7/2020 8:00:00 AM 2.08 35.744 0.106 7.09 2.26 13.01
12/7/2020 8:15:00 AM 2.08 35.744 0.106 7.11 2.26 13.18
12/7/2020 8:30:00 AM 2.08 35.744 0.105 7.15 2.22 13.4
12/7/2020 8:45:00 AM 2.09 35.762 0.105 7.21 2.3 13.68
12/7/2020 9:00:00 AM 2.1 35.78 0.105 7.25 2.32 13.89
12/7/2020 9:15:00 AM 2.11 35.798 0.105 7.34 2.21 14.19
12/7/2020 9:30:00 AM 2.12 35.816 0.105 7.38 2.23 14.31
12/7/2020 9:45:00 AM 2.14 35.852 0.105 7.43 2.24 14.45
12/7/2020 10:00:00 AM 2.18 35.924 0.104 7.5 2.25 14.61
12/7/2020 10:15:00 AM 2.23 36.014 0.104 7.55 2.26 14.74
12/7/2020 10:30:00 AM 2.29 36.122 0.104 7.6 2.2 14.79
12/7/2020 10:45:00 AM 2.35 36.23 0.104 7.64 2.22 14.85
12/7/2020 11:00:00 AM 2.4 36.32 0.103 7.7 2.34 14.88
12/7/2020 11:15:00 AM 2.39 36.302 0.103 7.71 2.26 14.86
12/7/2020 11:30:00 AM 2.36 36.248 0.103 7.7 2.22 14.82
12/7/2020 11:45:00 AM 2.37 36.266 0.103 7.72 2.21 14.81
12/7/2020 12:00:00 PM 2.4 36.32 0.103 7.75 2.21 14.81
12/7/2020 12:15:00 PM 2.45 36.41 0.103 7.78 2.26 14.8
12/7/2020 12:30:00 PM 2.51 36.518 0.103 7.82 2.25 14.8
12/7/2020 12:45:00 PM 2.56 36.608 0.102 7.86 2.22 14.8
12/7/2020 1:00:00 PM 2.6 36.68 0.102 7.88 2.25 14.79
12/7/2020 1:15:00 PM 2.64 36.752 0.102 7.9 2.22 14.8
12/7/2020 1:30:00 PM 2.67 36.806 0.102 7.91 2.23 14.78
12/7/2020 1:45:00 PM 2.69 36.842 0.102 7.92 2.23 14.74
12/7/2020 2:00:00 PM 2.7 36.86 0.102 7.92 2.22 14.71
12/7/2020 2:15:00 PM 2.74 36.932 0.102 7.94 2.2 14.71
12/7/2020 2:30:00 PM 2.77 36.986 0.101 7.96 2.19 14.7
12/7/2020 2:45:00 PM 2.78 37.004 0.101 7.94 2.22 14.67
12/7/2020 3:00:00 PM 2.79 37.022 0.101 7.94 2.23 14.6
12/7/2020 3:15:00 PM 2.78 37.004 0.101 7.89 2.23 14.53
12/7/2020 3:30:00 PM 2.76 36.968 0.102 7.83 2.22 14.43
12/7/2020 3:45:00 PM 2.73 36.914 0.102 7.75 2.23 14.3
12/7/2020 4:00:00 PM 2.69 36.842 0.102 7.65 2.23 14.14
12/7/2020 4:15:00 PM 2.66 36.788 0.102 7.55 2.22 13.96
12/7/2020 4:30:00 PM 2.63 36.734 0.102 7.46 2.26 13.76
12/7/2020 4:45:00 PM 2.59 36.662 0.102 7.37 2.25 13.55
12/7/2020 5:00:00 PM 2.56 36.608 0.102 7.31 2.24 13.4
12/7/2020 5:15:00 PM 2.52 36.536 0.103 7.26 2.28 13.26
12/7/2020 5:30:00 PM 2.49 36.482 0.103 7.23 2.26 13.16
12/7/2020 5:45:00 PM 2.45 36.41 0.103 7.2 2.3 13.09
12/7/2020 6:00:00 PM 2.41 36.338 0.103 7.18 2.22 13.03
12/7/2020 6:15:00 PM 2.37 36.266 0.103 7.16 2.31 12.98
12/7/2020 6:30:00 PM 2.34 36.212 0.103 7.14 2.26 12.94
12/7/2020 6:45:00 PM 2.31 36.158 0.103 7.13 2.28 12.92
12/7/2020 7:00:00 PM 2.29 36.122 0.103 7.12 2.29 12.9
12/7/2020 7:15:00 PM 2.26 36.068 0.103 7.11 2.22 12.89
12/7/2020 7:30:00 PM 2.23 36.014 0.104 7.11 2.26 12.88
12/7/2020 7:45:00 PM 2.21 35.978 0.104 7.1 2.28 12.87
12/7/2020 8:00:00 PM 2.19 35.942 0.104 7.1 2.3 12.87
12/7/2020 8:15:00 PM 2.17 35.906 0.104 7.09 2.28 12.87
12/7/2020 8:30:00 PM 2.14 35.852 0.104 7.09 2.29 12.87
12/7/2020 8:45:00 PM 2.12 35.816 0.104 7.09 2.28 12.88
12/7/2020 9:00:00 PM 2.09 35.762 0.104 7.09 2.27 12.89
12/7/2020 9:15:00 PM 2.08 35.744 0.104 7.08 2.28 12.87
12/7/2020 9:30:00 PM 2.06 35.708 0.104 7.08 2.25 12.88
12/7/2020 9:45:00 PM 2.04 35.672 0.104 7.08 2.29 12.89
12/7/2020 10:00:00 PM 2.02 35.636 0.104 7.08 2.16 12.87
12/7/2020 10:15:00 PM 2 35.6 0.104 7.08 2.3 12.91
12/7/2020 10:30:00 PM 1.99 35.582 0.104 7.08 2.24 12.89
12/7/2020 10:45:00 PM 1.98 35.564 0.104 7.07 2.27 12.9
12/7/2020 11:00:00 PM 1.97 35.546 0.104 7.07 2.27 12.91
12/7/2020 11:15:00 PM 1.96 35.528 0.104 7.07 2.29 12.91
12/7/2020 11:30:00 PM 1.95 35.51 0.104 7.07 2.3 12.91
12/7/2020 11:45:00 PM 1.94 35.492 0.104 7.07 2.26 12.91
12/8/2020 12:00:00 AM 1.93 35.474 0.104 7.07 2.27 12.9
12/8/2020 12:15:00 AM 1.93 35.474 0.104 7.07 2.3 12.91
12/8/2020 12:30:00 AM 1.92 35.456 0.104 7.07 2.22 12.92
12/8/2020 12:45:00 AM 1.91 35.438 0.104 7.07 2.24 12.91
12/8/2020 1:00:00 AM 1.9 35.42 0.104 7.07 2.25 12.92
12/8/2020 1:15:00 AM 1.89 35.402 0.104 7.07 2.27 12.92
12/8/2020 1:30:00 AM 1.88 35.384 0.104 7.07 2.25 12.92
12/8/2020 1:45:00 AM 1.86 35.348 0.104 7.07 2.24 12.92
12/8/2020 2:00:00 AM 1.85 35.33 0.104 7.07 2.21 12.93
12/8/2020 2:15:00 AM 1.83 35.294 0.104 7.07 2.27 12.94
12/8/2020 2:30:00 AM 1.81 35.258 0.104 7.06 2.23 12.94
12/8/2020 2:45:00 AM 1.8 35.24 0.104 7.06 2.21 12.94
12/8/2020 3:00:00 AM 1.79 35.222 0.104 7.06 2.25 12.94
12/8/2020 3:15:00 AM 1.78 35.204 0.104 7.06 2.24 12.94
12/8/2020 3:30:00 AM 1.76 35.168 0.104 7.06 2.27 12.95
12/8/2020 3:45:00 AM 1.76 35.168 0.104 7.06 2.26 12.96
12/8/2020 4:00:00 AM 1.73 35.114 0.104 7.06 2.22 12.96
12/8/2020 4:15:00 AM 1.71 35.078 0.104 7.06 2.25 12.97
12/8/2020 4:30:00 AM 1.69 35.042 0.105 7.06 2.49 12.96
12/8/2020 4:45:00 AM 1.67 35.006 0.105 7.06 2.23 12.98
12/8/2020 5:00:00 AM 1.65 34.97 0.105 7.06 2.23 12.97
12/8/2020 5:15:00 AM 1.64 34.952 0.105 7.06 2.29 12.99
12/8/2020 5:30:00 AM 1.63 34.934 0.105 7.06 2.25 12.99
12/8/2020 5:45:00 AM 1.61 34.898 0.105 7.06 2.24 13
12/8/2020 6:00:00 AM 1.6 34.88 0.105 7.06 2.21 12.99
12/8/2020 6:15:00 AM 1.58 34.844 0.105 7.06 2.23 13.01
12/8/2020 6:30:00 AM 1.56 34.808 0.105 7.06 2.2 13.02
12/8/2020 6:45:00 AM 1.55 34.79 0.105 7.06 2.22 13.01
12/8/2020 7:00:00 AM 1.53 34.754 0.105 7.06 2.2 13.02
12/8/2020 7:15:00 AM 1.52 34.736 0.105 7.06 2.22 13.04
12/8/2020 7:30:00 AM 1.52 34.736 0.105 7.06 2.23 13.04
12/8/2020 7:45:00 AM 1.5 34.7 0.105 7.06 2.25 13.08
12/8/2020 8:00:00 AM 1.49 34.682 0.105 7.08 2.21 13.16
12/8/2020 8:15:00 AM 1.48 34.664 0.105 7.09 2.23 13.26
12/8/2020 8:30:00 AM 1.48 34.664 0.105 7.11 2.23 13.37
12/8/2020 8:45:00 AM 1.48 34.664 0.105 7.14 2.23 13.52
12/8/2020 9:00:00 AM 1.48 34.664 0.105 7.18 2.24 13.73
12/8/2020 9:15:00 AM 1.49 34.682 0.104 7.22 2.22 13.95
12/8/2020 9:30:00 AM 1.51 34.718 0.104 7.27 2.19 14.18
12/8/2020 9:45:00 AM 1.53 34.754 0.104 7.33 2.2 14.39
12/8/2020 10:00:00 AM 1.55 34.79 0.104 7.39 2.22 14.57
12/8/2020 10:15:00 AM 1.58 34.844 0.104 7.43 2.22 14.7
12/8/2020 10:30:00 AM 1.62 34.916 0.104 7.48 2.18 14.83
12/8/2020 10:45:00 AM 1.69 35.042 0.103 7.56 2.24 14.98
12/8/2020 11:00:00 AM 1.76 35.168 0.103 7.61 2.23 15.05
12/8/2020 11:15:00 AM 1.83 35.294 0.103 7.65 2.22 15.09
12/8/2020 11:30:00 AM 1.87 35.366 0.103 7.7 2.2 15.12
12/8/2020 11:45:00 AM 1.92 35.456 0.103 7.72 2.16 15.11
12/8/2020 12:00:00 PM 1.96 35.528 0.102 7.73 2.2 15.09
12/8/2020 12:15:00 PM 2 35.6 0.102 7.76 2.25 15.08
12/8/2020 12:30:00 PM 2.06 35.708 0.102 7.8 2.21 15.08
12/8/2020 12:45:00 PM 2.12 35.816 0.102 7.84 2.19 15.07
12/8/2020 1:00:00 PM 2.18 35.924 0.102 7.85 2.21 15.06
12/8/2020 1:15:00 PM 2.27 36.086 0.102 7.9 2.19 15.04
12/8/2020 1:30:00 PM 2.38 36.284 0.102 7.91 2.21 15.02
12/8/2020 1:45:00 PM 2.47 36.446 0.101 7.92 2.21 14.97
12/8/2020 2:00:00 PM 2.55 36.59 0.101 7.91 2.25 14.88
12/8/2020 2:15:00 PM 2.59 36.662 0.101 7.91 2.14 14.86
12/8/2020 2:30:00 PM 2.62 36.716 0.101 7.91 2.19 14.81
12/8/2020 2:45:00 PM 2.66 36.788 0.101 7.91 2.16 14.75
12/8/2020 3:00:00 PM 2.68 36.824 0.101 7.9 2.18 14.68
12/8/2020 3:15:00 PM 2.67 36.806 0.101 7.87 2.18 14.63
12/8/2020 3:30:00 PM 2.63 36.734 0.101 7.82 2.18 14.55
12/8/2020 3:45:00 PM 2.57 36.626 0.101 7.77 2.24 14.46
12/8/2020 4:00:00 PM 2.49 36.482 0.101 7.71 2.2 14.38
12/8/2020 4:15:00 PM 2.4 36.32 0.101 7.64 2.29 14.3
12/8/2020 4:30:00 PM 2.28 36.104 0.102 7.55 2.19 14.16
12/8/2020 4:45:00 PM 2.17 35.906 0.102 7.46 2.23 13.98
12/8/2020 5:00:00 PM 2.06 35.708 0.102 7.38 2.25 13.8
12/8/2020 5:15:00 PM 1.95 35.51 0.103 7.31 2.27 13.65
12/8/2020 5:30:00 PM 1.85 35.33 0.103 7.26 2.22 13.53
12/8/2020 5:45:00 PM 1.77 35.186 0.103 7.22 2.25 13.45
12/8/2020 6:00:00 PM 1.69 35.042 0.103 7.19 2.22 13.38
12/8/2020 6:15:00 PM 1.62 34.916 0.103 7.16 2.22 13.34
12/8/2020 6:30:00 PM 1.54 34.772 0.103 7.14 2.21 13.29
12/8/2020 6:45:00 PM 1.51 34.718 0.104 7.13 2.2 13.27
12/8/2020 7:00:00 PM 1.44 34.592 0.104 7.11 2.2 13.24
12/8/2020 7:15:00 PM 1.39 34.502 0.104 7.1 2.24 13.23
12/8/2020 7:30:00 PM 1.35 34.43 0.104 7.09 2.23 13.22
12/8/2020 7:45:00 PM 1.31 34.358 0.104 7.09 2.21 13.22
12/8/2020 8:00:00 PM 1.27 34.286 0.104 7.08 2.22 13.23
12/8/2020 8:15:00 PM 1.24 34.232 0.104 7.07 2.24 13.22
12/8/2020 8:30:00 PM 1.2 34.16 0.104 7.07 2.2 13.23
12/8/2020 8:45:00 PM 1.15 34.07 0.104 7.07 2.21 13.24
12/8/2020 9:00:00 PM 1.11 33.998 0.104 7.06 2.23 13.25
12/8/2020 9:15:00 PM 1.06 33.908 0.104 7.06 2.19 13.27
12/8/2020 9:30:00 PM 1.02 33.836 0.104 7.06 2.23 13.28
12/8/2020 9:45:00 PM 1 33.8 0.104 7.05 2.21 13.28
12/8/2020 10:00:00 PM 0.97 33.746 0.104 7.05 2.23 13.29
12/8/2020 10:15:00 PM 0.95 33.71 0.105 7.05 2.19 13.31
12/8/2020 10:30:00 PM 0.94 33.692 0.105 7.05 2.19 13.32
12/8/2020 10:45:00 PM 0.93 33.674 0.105 7.05 2.19 13.32
12/8/2020 11:00:00 PM 0.93 33.674 0.105 7.04 2.34 13.32
12/8/2020 11:15:00 PM 0.93 33.674 0.105 7.04 2.23 13.33
12/8/2020 11:30:00 PM 0.92 33.656 0.105 7.04 2.26 13.32
12/8/2020 11:45:00 PM 0.92 33.656 0.105 7.04 2.2 13.33
12/9/2020 12:00:00 AM 0.92 33.656 0.105 7.04 2.19 13.33
12/9/2020 12:15:00 AM 0.92 33.656 0.105 7.04 2.27 13.33
12/9/2020 12:30:00 AM 0.92 33.656 0.105 7.04 2.21 13.33
12/9/2020 12:45:00 AM 0.92 33.656 0.105 7.04 2.16 13.33
12/9/2020 1:00:00 AM 0.93 33.674 0.105 7.04 2.26 13.33
12/9/2020 1:15:00 AM 0.94 33.692 0.105 7.04 2.23 13.32
12/9/2020 1:30:00 AM 0.94 33.692 0.105 7.04 2.26 13.32
12/9/2020 1:45:00 AM 0.95 33.71 0.105 7.04 2.23 13.31
12/9/2020 2:00:00 AM 0.95 33.71 0.105 7.04 2.21 13.3
12/9/2020 2:15:00 AM 0.96 33.728 0.105 7.03 2.24 13.29
12/9/2020 2:30:00 AM 0.97 33.746 0.105 7.03 2.18 13.28
12/9/2020 2:45:00 AM 0.99 33.782 0.105 7.03 2.22 13.27
12/9/2020 3:00:00 AM 1 33.8 0.105 7.03 2.2 13.27
12/9/2020 3:15:00 AM 1.02 33.836 0.105 7.03 2.21 13.26
12/9/2020 3:30:00 AM 1.03 33.854 0.105 7.03 2.21 13.25
12/9/2020 3:45:00 AM 1.05 33.89 0.105 7.03 2.2 13.25
12/9/2020 4:00:00 AM 1.04 33.872 0.105 7.04 2.29 13.23
12/9/2020 4:15:00 AM 1.05 33.89 0.105 7.04 2.2 13.24
12/9/2020 4:30:00 AM 1.06 33.908 0.106 7.04 2.22 13.23
12/9/2020 4:45:00 AM 1.07 33.926 0.105 7.04 2.21 13.24
12/9/2020 5:00:00 AM 1.08 33.944 0.105 7.04 2.23 13.24
12/9/2020 5:15:00 AM 1.09 33.962 0.106 7.05 2.19 13.24
12/9/2020 5:30:00 AM 1.1 33.98 0.106 7.05 2.21 13.24
12/9/2020 5:45:00 AM 1.11 33.998 0.106 7.05 2.26 13.23
12/9/2020 6:00:00 AM 1.12 34.016 0.106 7.05 2.21 13.23
12/9/2020 6:15:00 AM 1.13 34.034 0.106 7.05 2.16 13.21
12/9/2020 6:30:00 AM 1.14 34.052 0.106 7.06 2.21 13.23
12/9/2020 6:45:00 AM 1.15 34.07 0.106 7.05 2.2 13.22
12/9/2020 7:00:00 AM 1.15 34.07 0.106 7.06 2.18 13.21
12/9/2020 7:15:00 AM 1.16 34.088 0.106 7.06 2.19 13.22
12/9/2020 7:30:00 AM 1.17 34.106 0.106 7.06 2.21 13.21
12/9/2020 7:45:00 AM 1.18 34.124 0.106 7.06 2.19 13.22
12/9/2020 8:00:00 AM 1.18 34.124 0.106 7.06 2.19 13.24
12/9/2020 8:15:00 AM 1.17 34.106 0.105 7.08 2.23 13.3
12/9/2020 8:30:00 AM 1.12 34.016 0.105 7.09 2.21 13.41
12/9/2020 8:45:00 AM 1.06 33.908 0.105 7.11 2.23 13.51
12/9/2020 9:00:00 AM 0.98 33.764 0.105 7.12 2.19 13.57
12/9/2020 9:15:00 AM 0.87 33.566 0.105 7.14 2.18 13.69
12/9/2020 9:30:00 AM 0.76 33.368 0.104 7.16 2.24 13.81
12/9/2020 9:45:00 AM 0.7 33.26 0.104 7.18 2.2 13.94
12/9/2020 10:00:00 AM 0.68 33.224 0.104 7.21 2.25 14.09
12/9/2020 10:15:00 AM 0.67 33.206 0.104 7.24 2.18 14.23
12/9/2020 10:30:00 AM 0.66 33.188 0.104 7.3 2.18 14.48
12/9/2020 10:45:00 AM 0.67 33.206 0.103 7.34 2.19 14.63
12/9/2020 11:00:00 AM 0.71 33.278 0.103 7.4 2.23 14.84
12/9/2020 11:15:00 AM 0.75 33.35 0.103 7.44 2.2 14.98
12/9/2020 11:30:00 AM 0.8 33.44 0.103 7.48 2.17 15.07
12/9/2020 11:45:00 AM 0.85 33.53 0.102 7.53 2.21 15.18
12/9/2020 12:00:00 PM 0.89 33.602 0.102 7.57 2.23 15.23
12/9/2020 12:15:00 PM 0.92 33.656 0.102 7.59 2.16 15.26
12/9/2020 12:30:00 PM 0.95 33.71 0.102 7.63 2.2 15.28
12/9/2020 12:45:00 PM 0.97 33.746 0.102 7.64 2.2 15.27
12/9/2020 1:00:00 PM 1 33.8 0.102 7.66 2.21 15.25
12/9/2020 1:15:00 PM 1.04 33.872 0.102 7.68 2.22 15.25
12/9/2020 1:30:00 PM 1.1 33.98 0.101 7.69 2.19 15.23
12/9/2020 1:45:00 PM 1.15 34.07 0.101 7.7 2.21 15.21
12/9/2020 2:00:00 PM 1.21 34.178 0.101 7.71 2.51 15.19
12/9/2020 2:15:00 PM 1.24 34.232 0.101 7.72 2.25 15.17
12/9/2020 2:30:00 PM 1.28 34.304 0.101 7.73 2.17 15.14
12/9/2020 2:45:00 PM 1.3 34.34 0.101 7.71 2.23 15.09
12/9/2020 3:00:00 PM 1.32 34.376 0.101 7.67 2.21 14.98
12/9/2020 3:15:00 PM 1.35 34.43 0.101 7.61 2.2 14.84
12/9/2020 3:30:00 PM 1.36 34.448 0.101 7.56 2.23 14.69
12/9/2020 3:45:00 PM 1.38 34.484 0.101 7.49 2.24 14.53
12/9/2020 4:00:00 PM 1.4 34.52 0.101 7.44 2.22 14.37
12/9/2020 4:15:00 PM 1.42 34.556 0.102 7.38 2.24 14.2
12/9/2020 4:30:00 PM 1.43 34.574 0.102 7.33 2.22 14.03
12/9/2020 4:45:00 PM 1.44 34.592 0.102 7.3 2.21 13.9
12/9/2020 5:00:00 PM 1.46 34.628 0.102 7.25 2.26 13.74
12/9/2020 5:15:00 PM 1.47 34.646 0.102 7.22 2.22 13.63
12/9/2020 5:30:00 PM 1.48 34.664 0.102 7.2 2.21 13.53
12/9/2020 5:45:00 PM 1.49 34.682 0.102 7.18 2.22 13.45
12/9/2020 6:00:00 PM 1.51 34.718 0.102 7.16 2.25 13.37
12/9/2020 6:15:00 PM 1.52 34.736 0.103 7.15 2.24 13.32
12/9/2020 6:30:00 PM 1.54 34.772 0.103 7.14 2.25 13.27
12/9/2020 6:45:00 PM 1.55 34.79 0.103 7.13 2.23 13.25
12/9/2020 7:00:00 PM 1.56 34.808 0.103 7.12 2.28 13.21
12/9/2020 7:15:00 PM 1.57 34.826 0.103 7.12 2.22 13.18
12/9/2020 7:30:00 PM 1.6 34.88 0.103 7.11 2.23 13.17
12/9/2020 7:45:00 PM 1.61 34.898 0.103 7.11 2.28 13.15
12/9/2020 8:00:00 PM 1.62 34.916 0.103 7.1 2.26 13.13
12/9/2020 8:15:00 PM 1.63 34.934 0.103 7.1 2.23 13.11
12/9/2020 8:30:00 PM 1.65 34.97 0.103 7.09 2.25 13.11
12/9/2020 8:45:00 PM 1.66 34.988 0.103 7.09 2.22 13.1
12/9/2020 9:00:00 PM 1.67 35.006 0.103 7.09 2.26 13.08
12/9/2020 9:15:00 PM 1.68 35.024 0.103 7.09 2.25 13.08
12/9/2020 9:30:00 PM 1.69 35.042 0.103 7.09 2.27 13.07
12/9/2020 9:45:00 PM 1.7 35.06 0.103 7.09 2.26 13.07
12/9/2020 10:00:00 PM 1.72 35.096 0.103 7.09 2.33 13.06
12/9/2020 10:15:00 PM 1.73 35.114 0.103 7.08 2.2 13.06
12/9/2020 10:30:00 PM 1.75 35.15 0.103 7.08 2.19 13.05
12/9/2020 10:45:00 PM 1.76 35.168 0.103 7.08 2.18 13.04
12/9/2020 11:00:00 PM 1.78 35.204 0.103 7.08 2.17 13.04
12/9/2020 11:15:00 PM 1.79 35.222 0.103 7.08 2.2 13.03
12/9/2020 11:30:00 PM 1.81 35.258 0.103 7.08 2.19 13.02
12/9/2020 11:45:00 PM 1.84 35.312 0.103 7.08 2.18 13.02
12/10/2020 12:00:00 AM 1.84 35.312 0.103 7.08 2.18 13.01
12/10/2020 12:15:00 AM 1.87 35.366 0.103 7.08 2.18 13.01
12/10/2020 12:30:00 AM 1.89 35.402 0.103 7.08 2.22 13.01
12/10/2020 12:45:00 AM 1.9 35.42 0.103 7.08 2.17 13
12/10/2020 1:00:00 AM 1.92 35.456 0.103 7.08 2.21 12.99
12/10/2020 1:15:00 AM 1.93 35.474 0.103 7.08 2.33 12.99
12/10/2020 1:30:00 AM 1.95 35.51 0.103 7.08 2.35 12.98
12/10/2020 1:45:00 AM 1.95 35.51 0.103 7.08 2.38 12.98
12/10/2020 2:00:00 AM 1.97 35.546 0.103 7.08 2.37 12.96
12/10/2020 2:15:00 AM 1.99 35.582 0.103 7.07 2.35 12.97
12/10/2020 2:30:00 AM 2 35.6 0.103 7.08 2.29 12.96
12/10/2020 2:45:00 AM 2.01 35.618 0.103 7.07 2.34 12.96
12/10/2020 3:00:00 AM 2.02 35.636 0.103 7.07 2.37 12.96
12/10/2020 3:15:00 AM 2.03 35.654 0.103 7.07 2.29 12.95
12/10/2020 3:30:00 AM 2.04 35.672 0.103 7.07 2.3 12.95
12/10/2020 3:45:00 AM 2.05 35.69 0.103 7.07 2.3 12.94
12/10/2020 4:00:00 AM 2.06 35.708 0.103 7.07 2.31 12.93
12/10/2020 4:15:00 AM 2.07 35.726 0.103 7.07 2.32 12.95
12/10/2020 4:30:00 AM 2.08 35.744 0.103 7.07 2.27 12.93
12/10/2020 4:45:00 AM 2.09 35.762 0.103 7.07 2.29 12.94
12/10/2020 5:00:00 AM 2.09 35.762 0.103 7.07 2.29 12.93
12/10/2020 5:15:00 AM 2.11 35.798 0.103 7.07 2.31 12.94
12/10/2020 5:30:00 AM 2.11 35.798 0.103 7.07 2.32 12.93
12/10/2020 5:45:00 AM 2.13 35.834 0.103 7.07 2.33 12.92
12/10/2020 6:00:00 AM 2.14 35.852 0.103 7.07 2.26 12.94
12/10/2020 6:15:00 AM 2.14 35.852 0.103 7.07 2.35 12.93
12/10/2020 6:30:00 AM 2.15 35.87 0.103 7.07 2.29 12.93
12/10/2020 6:45:00 AM 2.17 35.906 0.103 7.07 2.33 12.92
12/10/2020 7:00:00 AM 2.17 35.906 0.103 7.07 2.31 12.92
12/10/2020 7:15:00 AM 2.18 35.924 0.103 7.07 2.34 12.93
12/10/2020 7:30:00 AM 2.19 35.942 0.103 7.07 2.32 12.93
12/10/2020 7:45:00 AM 2.19 35.942 0.103 7.08 2.32 12.98
12/10/2020 8:00:00 AM 2.21 35.978 0.103 7.09 2.33 13.05
12/10/2020 8:15:00 AM 2.22 35.996 0.103 7.11 2.32 13.16
12/10/2020 8:30:00 AM 2.24 36.032 0.103 7.15 2.32 13.35
12/10/2020 8:45:00 AM 2.27 36.086 0.103 7.18 2.31 13.55
12/10/2020 9:00:00 AM 2.3 36.14 0.103 7.25 2.29 13.87
12/10/2020 9:15:00 AM 2.34 36.212 0.102 7.3 2.34 14.08
12/10/2020 9:30:00 AM 2.39 36.302 0.102 7.4 2.33 14.41
12/10/2020 9:45:00 AM 2.44 36.392 0.102 7.47 2.34 14.58
12/10/2020 10:00:00 AM 2.49 36.482 0.102 7.52 2.37 14.68
12/10/2020 10:15:00 AM 2.55 36.59 0.102 7.56 2.33 14.75
12/10/2020 10:30:00 AM 2.62 36.716 0.101 7.64 2.34 14.86
12/10/2020 10:45:00 AM 2.69 36.842 0.101 7.68 2.35 14.91
12/10/2020 11:00:00 AM 2.77 36.986 0.101 7.74 2.39 14.95
12/10/2020 11:15:00 AM 2.85 37.13 0.101 7.81 2.35 14.97
12/10/2020 11:30:00 AM 2.91 37.238 0.101 7.83 2.36 14.96
12/10/2020 11:45:00 AM 3.04 37.472 0.1 7.92 2.4 14.98
12/10/2020 12:00:00 PM 3.09 37.562 0.1 7.92 2.38 14.94
12/10/2020 12:15:00 PM 3.16 37.688 0.1 7.98 2.35 14.9
12/10/2020 12:30:00 PM 3.2 37.76 0.1 8.01 2.39 14.85
12/10/2020 12:45:00 PM 3.23 37.814 0.1 7.98 2.38 14.79
12/10/2020 1:00:00 PM 3.28 37.904 0.1 8.02 2.46 14.76
12/10/2020 1:15:00 PM 3.32 37.976 0.1 8.03 2.44 14.71
12/10/2020 1:30:00 PM 3.35 38.03 0.1 8.02 2.57 14.67
12/10/2020 1:45:00 PM 3.41 38.138 0.1 8.07 2.53 14.66
12/10/2020 2:00:00 PM 3.46 38.228 0.1 8.08 2.6 14.65
12/10/2020 2:15:00 PM 3.51 38.318 0.099 8.13 2.62 14.65
12/10/2020 2:30:00 PM 3.53 38.354 0.099 8.11 2.58 14.61
12/10/2020 2:45:00 PM 3.54 38.372 0.099 8.1 2.59 14.58
12/10/2020 3:00:00 PM 3.58 38.444 0.099 8.13 2.59 14.53
12/10/2020 3:15:00 PM 3.59 38.462 0.099 8.1 2.55 14.49
12/10/2020 3:30:00 PM 3.61 38.498 0.099 8.08 2.62 14.47
12/10/2020 3:45:00 PM 3.61 38.498 0.099 8.06 2.66 14.42
12/10/2020 4:00:00 PM 3.57 38.426 0.099 7.97 2.72 14.29
12/10/2020 4:15:00 PM 3.54 38.372 0.1 7.87 2.7 14.15
12/10/2020 4:30:00 PM 3.49 38.282 0.1 7.74 2.75 13.98
12/10/2020 4:45:00 PM 3.43 38.174 0.1 7.6 2.72 13.77
12/10/2020 5:00:00 PM 3.37 38.066 0.101 7.49 2.8 13.56
12/10/2020 5:15:00 PM 3.31 37.958 0.101 7.4 2.69 13.39
12/10/2020 5:30:00 PM 3.23 37.814 0.101 7.33 2.82 13.22
12/10/2020 5:45:00 PM 3.16 37.688 0.101 7.28 2.83 13.12
12/10/2020 6:00:00 PM 3.09 37.562 0.102 7.25 2.86 13.05
12/10/2020 6:15:00 PM 3.01 37.418 0.102 7.21 3.56 12.97
12/10/2020 6:30:00 PM 2.95 37.31 0.102 7.19 2.73 12.93
12/10/2020 6:45:00 PM 2.9 37.22 0.103 7.18 2.7 12.9
12/10/2020 7:00:00 PM 2.83 37.094 0.103 7.16 2.71 12.88
12/10/2020 7:15:00 PM 2.78 37.004 0.103 7.15 2.65 12.87
12/10/2020 7:30:00 PM 2.73 36.914 0.103 7.14 2.63 12.87
12/10/2020 7:45:00 PM 2.69 36.842 0.103 7.13 2.65 12.87
12/10/2020 8:00:00 PM 2.65 36.77 0.103 7.13 2.58 12.87
12/10/2020 8:15:00 PM 2.61 36.698 0.103 7.12 2.7 12.88
12/10/2020 8:30:00 PM 2.57 36.626 0.104 7.11 2.64 12.88
12/10/2020 8:45:00 PM 2.53 36.554 0.104 7.11 2.59 12.9
12/10/2020 9:00:00 PM 2.49 36.482 0.104 7.11 2.58 12.9
12/10/2020 9:15:00 PM 2.45 36.41 0.104 7.11 2.5 12.92
12/10/2020 9:30:00 PM 2.4 36.32 0.104 7.1 2.53 12.92
12/10/2020 9:45:00 PM 2.36 36.248 0.104 7.1 2.62 12.94
12/10/2020 10:00:00 PM 2.32 36.176 0.104 7.1 2.56 12.95
12/10/2020 10:15:00 PM 2.28 36.104 0.104 7.1 2.56 12.97
12/10/2020 10:30:00 PM 2.23 36.014 0.104 7.09 2.56 12.99
12/10/2020 10:45:00 PM 2.19 35.942 0.104 7.09 2.57 12.99
12/10/2020 11:00:00 PM 2.15 35.87 0.104 7.09 2.55 13.01
12/10/2020 11:15:00 PM 2.1 35.78 0.104 7.09 2.53 13.02
12/10/2020 11:30:00 PM 2.06 35.708 0.104 7.08 2.5 13.04
12/10/2020 11:45:00 PM 2.02 35.636 0.104 7.08 2.49 13.05
12/11/2020 12:00:00 AM 1.97 35.546 0.104 7.08 2.53 13.07
12/11/2020 12:15:00 AM 1.94 35.492 0.104 7.08 2.51 13.07
12/11/2020 12:30:00 AM 1.89 35.402 0.105 7.08 2.46 13.1
12/11/2020 12:45:00 AM 1.86 35.348 0.105 7.08 2.48 13.1
12/11/2020 1:00:00 AM 1.81 35.258 0.105 7.08 2.51 13.12
12/11/2020 1:15:00 AM 1.79 35.222 0.105 7.08 2.5 13.12
12/11/2020 1:30:00 AM 1.74 35.132 0.105 7.08 2.55 13.15
12/11/2020 1:45:00 AM 1.7 35.06 0.105 7.07 2.56 13.17
12/11/2020 2:00:00 AM 1.66 34.988 0.105 7.07 2.51 13.18
12/11/2020 2:15:00 AM 1.64 34.952 0.105 7.07 2.52 13.19
12/11/2020 2:30:00 AM 1.6 34.88 0.105 7.07 2.56 13.2
12/11/2020 2:45:00 AM 1.57 34.826 0.105 7.07 2.51 13.21
12/11/2020 3:00:00 AM 1.54 34.772 0.105 7.07 2.52 13.22
12/11/2020 3:15:00 AM 1.5 34.7 0.105 7.07 2.47 13.24
12/11/2020 3:30:00 AM 1.47 34.646 0.105 7.07 2.43 13.25
12/11/2020 3:45:00 AM 1.44 34.592 0.106 7.07 2.43 13.25
12/11/2020 4:00:00 AM 1.42 34.556 0.106 7.07 2.5 13.26
12/11/2020 4:15:00 AM 1.39 34.502 0.106 7.07 2.48 13.28
12/11/2020 4:30:00 AM 1.35 34.43 0.106 7.07 2.43 13.28
12/11/2020 4:45:00 AM 1.33 34.394 0.106 7.06 2.46 13.3
12/11/2020 5:00:00 AM 1.31 34.358 0.106 7.06 2.45 13.31
12/11/2020 5:15:00 AM 1.29 34.322 0.106 7.06 2.44 13.31
12/11/2020 5:30:00 AM 1.27 34.286 0.106 7.07 2.45 13.32
12/11/2020 5:45:00 AM 1.25 34.25 0.106 7.07 2.4 13.33
12/11/2020 6:00:00 AM 1.24 34.232 0.106 7.07 2.43 13.33
12/11/2020 6:15:00 AM 1.22 34.196 0.106 7.07 2.44 13.35
12/11/2020 6:30:00 AM 1.2 34.16 0.106 7.06 2.39 13.35
12/11/2020 6:45:00 AM 1.18 34.124 0.107 7.06 2.4 13.37
12/11/2020 7:00:00 AM 1.16 34.088 0.107 7.06 2.42 13.37
12/11/2020 7:15:00 AM 1.13 34.034 0.107 7.06 2.45 13.39
12/11/2020 7:30:00 AM 1.12 34.016 0.107 7.06 2.39 13.4
12/11/2020 7:45:00 AM 1.1 33.98 0.107 7.08 2.36 13.48
12/11/2020 8:00:00 AM 1.09 33.962 0.107 7.09 2.35 13.57
12/11/2020 8:15:00 AM 1.09 33.962 0.107 7.13 2.36 13.77
12/11/2020 8:30:00 AM 1.11 33.998 0.107 7.17 2.43 14.01
12/11/2020 8:45:00 AM 1.13 34.034 0.107 7.21 2.39 14.19
12/11/2020 9:00:00 AM 1.17 34.106 0.106 7.28 2.39 14.46
12/11/2020 9:15:00 AM 1.22 34.196 0.106 7.34 2.39 14.67
12/11/2020 9:30:00 AM 1.28 34.304 0.106 7.39 2.36 14.86
12/11/2020 9:45:00 AM 1.34 34.412 0.106 7.45 2.34 14.98
12/11/2020 10:00:00 AM 1.41 34.538 0.106 7.51 2.36 15.11
12/11/2020 10:15:00 AM 1.5 34.7 0.106 7.55 2.36 15.17
12/11/2020 10:30:00 AM 1.6 34.88 0.105 7.6 2.4 15.24
12/11/2020 10:45:00 AM 1.72 35.096 0.105 7.65 2.37 15.28
12/11/2020 11:00:00 AM 1.87 35.366 0.105 7.69 2.34 15.31
12/11/2020 11:15:00 AM 2.02 35.636 0.105 7.75 2.31 15.33
12/11/2020 11:30:00 AM 2.13 35.834 0.105 7.8 2.33 15.34
12/11/2020 11:45:00 AM 2.22 35.996 0.105 7.83 2.32 15.3
12/11/2020 12:00:00 PM 2.33 36.194 0.104 7.86 2.33 15.28
12/11/2020 12:15:00 PM 2.46 36.428 0.104 7.89 2.32 15.25
12/11/2020 12:30:00 PM 2.63 36.734 0.104 7.94 2.35 15.2
12/11/2020 12:45:00 PM 2.76 36.968 0.104 7.96 2.31 15.14
12/11/2020 1:00:00 PM 2.9 37.22 0.104 7.97 2.34 15.08
12/11/2020 1:15:00 PM 3.04 37.472 0.104 8.01 2.35 15.04
12/11/2020 1:30:00 PM 3.18 37.724 0.103 8.04 2.41 14.98
12/11/2020 1:45:00 PM 3.27 37.886 0.103 8.03 2.44 14.91
12/11/2020 2:00:00 PM 3.38 38.084 0.103 8.08 2.49 14.86
12/11/2020 2:15:00 PM 3.45 38.21 0.103 8.09 2.57 14.8
12/11/2020 2:30:00 PM 3.52 38.336 0.103 8.1 2.59 14.76
12/11/2020 2:45:00 PM 3.56 38.408 0.103 8.11 2.66 14.71
12/11/2020 3:00:00 PM 3.59 38.462 0.103 8.12 2.82 14.66
12/11/2020 3:15:00 PM 3.59 38.462 0.103 8.09 2.9 14.6
12/11/2020 3:30:00 PM 3.57 38.426 0.103 8.06 2.96 14.53
12/11/2020 3:45:00 PM 3.54 38.372 0.103 8.01 2.95 14.46
12/11/2020 4:00:00 PM 3.49 38.282 0.104 7.94 3.08 14.36
12/11/2020 4:15:00 PM 3.45 38.21 0.104 7.85 3.05 14.24
12/11/2020 4:30:00 PM 3.41 38.138 0.104 7.74 2.93 14.1
12/11/2020 4:45:00 PM 3.33 37.994 0.104 7.6 3.04 13.86
12/11/2020 5:00:00 PM 3.26 37.868 0.105 7.48 2.98 13.63
12/11/2020 5:15:00 PM 3.17 37.706 0.105 7.38 2.9 13.42
12/11/2020 5:30:00 PM 3.12 37.616 0.105 7.32 2.85 13.31
12/11/2020 5:45:00 PM 3.06 37.508 0.105 7.28 2.79 13.2
12/11/2020 6:00:00 PM 3 37.4 0.105 7.24 2.69 13.08
12/11/2020 6:15:00 PM 2.96 37.328 0.106 7.21 2.41 13
12/11/2020 6:30:00 PM 2.92 37.256 0.106 7.19 2.43 12.95
12/11/2020 6:45:00 PM 2.88 37.184 0.106 7.17 2.42 12.91
12/11/2020 7:00:00 PM 2.82 37.076 0.106 7.16 2.51 12.88
12/11/2020 7:15:00 PM 2.78 37.004 0.106 7.15 2.47 12.86
12/11/2020 7:30:00 PM 2.73 36.914 0.106 7.14 2.41 12.86
12/11/2020 7:45:00 PM 2.69 36.842 0.106 7.13 2.51 12.85
12/11/2020 8:00:00 PM 2.65 36.77 0.106 7.12 2.5 12.85
12/11/2020 8:15:00 PM 2.62 36.716 0.106 7.12 2.58 12.85
12/11/2020 8:30:00 PM 2.6 36.68 0.106 7.11 2.53 12.85
12/11/2020 8:45:00 PM 2.57 36.626 0.106 7.11 2.51 12.86
12/11/2020 9:00:00 PM 2.54 36.572 0.106 7.11 2.63 12.86
12/11/2020 9:15:00 PM 2.52 36.536 0.107 7.1 2.61 12.86
12/11/2020 9:30:00 PM 2.5 36.5 0.107 7.1 2.51 12.87
12/11/2020 9:45:00 PM 2.48 36.464 0.107 7.1 2.49 12.88
12/11/2020 10:00:00 PM 2.45 36.41 0.107 7.1 2.47 12.89
12/11/2020 10:15:00 PM 2.44 36.392 0.107 7.1 2.46 12.9
12/11/2020 10:30:00 PM 2.42 36.356 0.107 7.1 2.49 12.91
12/11/2020 10:45:00 PM 2.41 36.338 0.107 7.1 2.51 12.92
12/11/2020 11:00:00 PM 2.4 36.32 0.107 7.09 2.43 12.91
12/11/2020 11:15:00 PM 2.39 36.302 0.107 7.09 2.46 12.92
12/11/2020 11:30:00 PM 2.37 36.266 0.107 7.09 2.43 12.93
12/11/2020 11:45:00 PM 2.36 36.248 0.107 7.09 2.42 12.93
12/12/2020 12:00:00 AM 2.35 36.23 0.107 7.09 2.42 12.94
12/12/2020 12:15:00 AM 2.34 36.212 0.107 7.09 2.42 12.95
12/12/2020 12:30:00 AM 2.32 36.176 0.107 7.09 2.48 12.96
12/12/2020 12:45:00 AM 2.31 36.158 0.107 7.08 2.31 12.94
12/12/2020 1:00:00 AM 2.29 36.122 0.107 7.09 2.4 12.96
12/12/2020 1:15:00 AM 2.28 36.104 0.107 7.08 2.4 12.96
12/12/2020 1:30:00 AM 2.26 36.068 0.107 7.09 2.41 12.97
12/12/2020 1:45:00 AM 2.24 36.032 0.107 7.08 2.35 12.97
12/12/2020 2:00:00 AM 2.21 35.978 0.107 7.08 2.39 12.98
12/12/2020 2:15:00 AM 2.19 35.942 0.107 7.08 2.36 12.99
12/12/2020 2:30:00 AM 2.17 35.906 0.107 7.08 2.37 13.01
12/12/2020 2:45:00 AM 2.16 35.888 0.107 7.08 2.35 13
12/12/2020 3:00:00 AM 2.14 35.852 0.107 7.08 2.34 13
12/12/2020 3:15:00 AM 2.12 35.816 0.107 7.08 2.35 13
12/12/2020 3:30:00 AM 2.11 35.798 0.107 7.07 2.43 13.02
12/12/2020 3:45:00 AM 2.1 35.78 0.107 7.08 2.4 13.03
12/12/2020 4:00:00 AM 2.09 35.762 0.107 7.07 2.36 13.02
12/12/2020 4:15:00 AM 2.07 35.726 0.108 7.07 2.31 13.04
12/12/2020 4:30:00 AM 2.05 35.69 0.108 7.07 2.36 13.03
12/12/2020 4:45:00 AM 2.04 35.672 0.108 7.07 2.34 13.04
12/12/2020 5:00:00 AM 2.03 35.654 0.108 7.07 2.4 13.04
12/12/2020 5:15:00 AM 2.01 35.618 0.108 7.07 2.35 13.03
12/12/2020 5:30:00 AM 1.99 35.582 0.108 7.07 2.35 13.04
12/12/2020 5:45:00 AM 1.97 35.546 0.108 7.07 2.37 13.06
12/12/2020 6:00:00 AM 1.96 35.528 0.108 7.07 2.39 13.05
12/12/2020 6:15:00 AM 1.94 35.492 0.108 7.07 2.3 13.06
12/12/2020 6:30:00 AM 1.93 35.474 0.108 7.07 2.34 13.07
12/12/2020 6:45:00 AM 1.92 35.456 0.108 7.07 2.33 13.07
12/12/2020 7:00:00 AM 1.92 35.456 0.108 7.06 2.29 13.07
12/12/2020 7:15:00 AM 1.93 35.474 0.108 7.06 2.28 13.06
12/12/2020 7:30:00 AM 1.93 35.474 0.108 7.07 2.3 13.08
12/12/2020 7:45:00 AM 1.93 35.474 0.108 7.07 2.3 13.1
12/12/2020 8:00:00 AM 1.94 35.492 0.108 7.08 2.28 13.17
12/12/2020 8:15:00 AM 1.96 35.528 0.108 7.09 2.32 13.25
12/12/2020 8:30:00 AM 1.98 35.564 0.108 7.12 2.33 13.38
12/12/2020 8:45:00 AM 2 35.6 0.108 7.15 2.3 13.56
12/12/2020 9:00:00 AM 2.04 35.672 0.108 7.2 2.29 13.81
12/12/2020 9:15:00 AM 2.08 35.744 0.108 7.27 2.33 14.07
12/12/2020 9:30:00 AM 2.13 35.834 0.108 7.33 2.39 14.26
12/12/2020 9:45:00 AM 2.19 35.942 0.107 7.38 2.29 14.46
12/12/2020 10:00:00 AM 2.25 36.05 0.107 7.46 2.31 14.65
12/12/2020 10:15:00 AM 2.32 36.176 0.107 7.54 2.3 14.82
12/12/2020 10:30:00 AM 2.39 36.302 0.107 7.62 2.31 14.92
12/12/2020 10:45:00 AM 2.46 36.428 0.107 7.68 2.29 14.98
12/12/2020 11:00:00 AM 2.54 36.572 0.106 7.73 2.29 15.01
12/12/2020 11:15:00 AM 2.62 36.716 0.106 7.76 2.25 14.99
12/12/2020 11:30:00 AM 2.72 36.896 0.106 7.82 2.29 14.97
12/12/2020 11:45:00 AM 2.81 37.058 0.106 7.85 2.28 14.97
12/12/2020 12:00:00 PM 2.91 37.238 0.106 7.92 2.29 14.94
12/12/2020 12:15:00 PM 2.98 37.364 0.106 7.93 2.29 14.9
12/12/2020 12:30:00 PM 3.07 37.526 0.106 7.97 2.36 14.88
12/12/2020 12:45:00 PM 3.16 37.688 0.106 7.99 2.28 14.84
12/12/2020 1:00:00 PM 3.25 37.85 0.105 8.02 2.35 14.78
12/12/2020 1:15:00 PM 3.36 38.048 0.105 8.06 2.3 14.76
12/12/2020 1:30:00 PM 3.47 38.246 0.105 8.09 2.36 14.75
12/12/2020 1:45:00 PM 3.61 38.498 0.105 8.15 2.28 14.73
12/12/2020 2:00:00 PM 3.73 38.714 0.105 8.21 2.31 14.7
12/12/2020 2:15:00 PM 3.82 38.876 0.105 8.22 2.28 14.64
12/12/2020 2:30:00 PM 3.9 39.02 0.105 8.2 2.29 14.56
12/12/2020 2:45:00 PM 3.97 39.146 0.105 8.19 2.28 14.47
12/12/2020 3:00:00 PM 4.03 39.254 0.104 8.17 2.31 14.39
12/12/2020 3:15:00 PM 4.1 39.38 0.104 8.15 2.3 14.32
12/12/2020 3:30:00 PM 4.16 39.488 0.104 8.08 2.49 14.19
12/12/2020 3:45:00 PM 4.19 39.542 0.105 7.99 2.36 14.07
12/12/2020 4:00:00 PM 4.21 39.578 0.105 7.87 2.41 13.89
12/12/2020 4:15:00 PM 4.24 39.632 0.105 7.73 2.34 13.65
12/12/2020 4:30:00 PM 4.25 39.65 0.105 7.63 2.39 13.5
12/12/2020 4:45:00 PM 4.27 39.686 0.105 7.51 2.47 13.28
12/12/2020 5:00:00 PM 4.28 39.704 0.105 7.42 2.83 13.05
12/12/2020 5:15:00 PM 4.29 39.722 0.105 7.36 3.18 12.88
12/12/2020 5:30:00 PM 4.29 39.722 0.106 7.3 3.3 12.71
12/12/2020 5:45:00 PM 4.29 39.722 0.106 7.27 2.67 12.61
12/12/2020 6:00:00 PM 4.28 39.704 0.106 7.25 2.54 12.54
12/12/2020 6:15:00 PM 4.28 39.704 0.106 7.23 2.39 12.47
12/12/2020 6:30:00 PM 4.28 39.704 0.106 7.22 2.44 12.41
12/12/2020 6:45:00 PM 4.28 39.704 0.106 7.2 2.54 12.36
12/12/2020 7:00:00 PM 4.3 39.74 0.107 7.19 2.86 12.32
12/12/2020 7:15:00 PM 4.31 39.758 0.107 7.18 2.61 12.29
12/12/2020 7:30:00 PM 4.32 39.776 0.107 7.18 2.63 12.27
12/12/2020 7:45:00 PM 4.34 39.812 0.107 7.17 2.55 12.25
12/12/2020 8:00:00 PM 4.34 39.812 0.107 7.17 2.55 12.24
12/12/2020 8:15:00 PM 4.35 39.83 0.107 7.16 2.62 12.23
12/12/2020 8:30:00 PM 4.35 39.83 0.107 7.16 2.5 12.22
12/12/2020 8:45:00 PM 4.34 39.812 0.107 7.16 2.32 12.22
12/12/2020 9:00:00 PM 4.35 39.83 0.107 7.15 2.5 12.21
12/12/2020 9:15:00 PM 4.34 39.812 0.107 7.15 2.5 12.2
12/12/2020 9:30:00 PM 4.35 39.83 0.107 7.15 2.57 12.2
12/12/2020 9:45:00 PM 4.37 39.866 0.107 7.14 2.53 12.19
12/12/2020 10:00:00 PM 4.38 39.884 0.107 7.14 2.71 12.18
12/12/2020 10:15:00 PM 4.39 39.902 0.107 7.14 2.55 12.17
12/12/2020 10:30:00 PM 4.41 39.938 0.108 7.14 2.57 12.17
12/12/2020 10:45:00 PM 4.42 39.956 0.108 7.14 2.42 12.16
12/12/2020 11:00:00 PM 4.44 39.992 0.108 7.14 2.48 12.16
12/12/2020 11:15:00 PM 4.45 40.01 0.108 7.14 2.47 12.14
12/12/2020 11:30:00 PM 4.47 40.046 0.109 7.14 2.49 12.14
12/12/2020 11:45:00 PM 4.47 40.046 0.109 7.14 2.46 12.13
12/13/2020 12:00:00 AM 4.47 40.046 0.109 7.13 2.65 12.13
12/13/2020 12:15:00 AM 4.48 40.064 0.109 7.13 2.64 12.12
12/13/2020 12:30:00 AM 4.48 40.064 0.109 7.13 2.56 12.11
12/13/2020 12:45:00 AM 4.47 40.046 0.109 7.13 2.54 12.12
12/13/2020 1:00:00 AM 4.44 39.992 0.11 7.13 2.49 12.12
12/13/2020 1:15:00 AM 4.43 39.974 0.11 7.13 2.5 12.11
12/13/2020 1:30:00 AM 4.4 39.92 0.11 7.12 2.57 12.12
12/13/2020 1:45:00 AM 4.39 39.902 0.11 7.12 2.65 12.13
12/13/2020 2:00:00 AM 4.38 39.884 0.11 7.12 2.63 12.11
12/13/2020 2:15:00 AM 4.38 39.884 0.11 7.12 2.55 12.12
12/13/2020 2:30:00 AM 4.38 39.884 0.11 7.12 2.71 12.12
12/13/2020 2:45:00 AM 4.37 39.866 0.11 7.12 2.61 12.12
12/13/2020 3:00:00 AM 4.36 39.848 0.11 7.11 2.64 12.11
12/13/2020 3:15:00 AM 4.34 39.812 0.11 7.11 2.68 12.12
12/13/2020 3:30:00 AM 4.33 39.794 0.11 7.11 2.62 12.12
12/13/2020 3:45:00 AM 4.34 39.812 0.11 7.11 2.53 12.12
12/13/2020 4:00:00 AM 4.34 39.812 0.11 7.11 2.53 12.11
12/13/2020 4:15:00 AM 4.34 39.812 0.11 7.11 2.58 12.12
12/13/2020 4:30:00 AM 4.34 39.812 0.11 7.11 2.5 12.12
12/13/2020 4:45:00 AM 4.34 39.812 0.11 7.11 2.52 12.11
12/13/2020 5:00:00 AM 4.34 39.812 0.11 7.1 2.43 12.11
12/13/2020 5:15:00 AM 4.35 39.83 0.11 7.1 2.52 12.1
12/13/2020 5:30:00 AM 4.34 39.812 0.11 7.1 2.4 12.11
12/13/2020 5:45:00 AM 4.32 39.776 0.11 7.1 2.38 12.12
12/13/2020 6:00:00 AM 4.27 39.686 0.11 7.09 2.4 12.12
12/13/2020 6:15:00 AM 4.23 39.614 0.11 7.09 2.37 12.13
12/13/2020 6:30:00 AM 4.2 39.56 0.11 7.09 2.4 12.13
12/13/2020 6:45:00 AM 4.16 39.488 0.11 7.09 2.47 12.15
12/13/2020 7:00:00 AM 4.13 39.434 0.11 7.09 2.41 12.16
12/13/2020 7:15:00 AM 4.1 39.38 0.11 7.09 2.3 12.16
12/13/2020 7:30:00 AM 4.07 39.326 0.11 7.09 2.41 12.19
12/13/2020 7:45:00 AM 4.05 39.29 0.11 7.1 2.97 12.26
12/13/2020 8:00:00 AM 4.04 39.272 0.11 7.13 2.46 12.44
12/13/2020 8:15:00 AM 4.05 39.29 0.109 7.18 2.54 12.71
12/13/2020 8:30:00 AM 4.09 39.362 0.109 7.26 2.37 13.02
12/13/2020 8:45:00 AM 4.16 39.488 0.109 7.3 2.32 13.16
12/13/2020 9:00:00 AM 4.19 39.542 0.109 7.34 2.26 13.28
12/13/2020 9:15:00 AM 4.24 39.632 0.109 7.4 2.32 13.48
12/13/2020 9:30:00 AM 4.28 39.704 0.109 7.47 2.27 13.67
12/13/2020 9:45:00 AM 4.32 39.776 0.11 7.56 2.37 13.86
12/13/2020 10:00:00 AM 4.35 39.83 0.109 7.62 2.34 13.94
12/13/2020 10:15:00 AM 4.37 39.866 0.108 7.64 2.31 13.95
12/13/2020 10:30:00 AM 4.43 39.974 0.108 7.71 2.32 14.05
12/13/2020 10:45:00 AM 4.49 40.082 0.107 7.79 2.32 14.14
12/13/2020 11:00:00 AM 4.56 40.208 0.107 7.9 2.29 14.23
12/13/2020 11:15:00 AM 4.62 40.316 0.107 8.02 2.21 14.31
12/13/2020 11:30:00 AM 4.69 40.442 0.106 8.09 2.21 14.32
12/13/2020 11:45:00 AM 4.78 40.604 0.106 8.21 2.25 14.36
12/13/2020 12:00:00 PM 4.88 40.784 0.106 8.29 2.22 14.36
12/13/2020 12:15:00 PM 4.97 40.946 0.106 8.38 2.22 14.36
12/13/2020 12:30:00 PM 5.01 41.018 0.105 8.39 2.24 14.29
12/13/2020 12:45:00 PM 5.03 41.054 0.105 8.35 2.3 14.18
12/13/2020 1:00:00 PM 5.04 41.072 0.105 8.34 2.2 14.11
12/13/2020 1:15:00 PM 5.07 41.126 0.105 8.31 2.27 14.02
12/13/2020 1:30:00 PM 5.1 41.18 0.105 8.29 2.3 13.94
12/13/2020 1:45:00 PM 5.15 41.27 0.105 8.3 2.31 13.94
12/13/2020 2:00:00 PM 5.19 41.342 0.105 8.32 2.29 13.93
12/13/2020 2:15:00 PM 5.22 41.396 0.105 8.32 2.29 13.92
12/13/2020 2:30:00 PM 5.22 41.396 0.105 8.31 2.33 13.87
12/13/2020 2:45:00 PM 5.22 41.396 0.106 8.26 2.52 13.8
12/13/2020 3:00:00 PM 5.2 41.36 0.106 8.13 2.54 13.67
12/13/2020 3:15:00 PM 5.18 41.324 0.106 7.99 3.3 13.53
12/13/2020 3:30:00 PM 5.17 41.306 0.107 7.86 4.81 13.41
12/13/2020 3:45:00 PM 5.15 41.27 0.108 7.75 7.18 13.3
12/13/2020 4:00:00 PM 5.14 41.252 0.108 7.65 11.29 13.17
12/13/2020 4:15:00 PM 5.11 41.198 0.109 7.56 13.76 13.01
12/13/2020 4:30:00 PM 5.09 41.162 0.11 7.47 11.44 12.85
12/13/2020 4:45:00 PM 5.06 41.108 0.11 7.4 12.54 12.68
12/13/2020 5:00:00 PM 5.02 41.036 0.11 7.35 11.12 12.56
12/13/2020 5:15:00 PM 4.98 40.964 0.11 7.3 9.98 12.44
12/13/2020 5:30:00 PM 4.95 40.91 0.111 7.27 8.66 12.35
12/13/2020 5:45:00 PM 4.92 40.856 0.112 7.24 6.52 12.28
12/13/2020 6:00:00 PM 4.9 40.82 0.112 7.22 7.26 12.22
12/13/2020 6:15:00 PM 4.88 40.784 0.112 7.2 5.55 12.17
12/13/2020 6:30:00 PM 4.86 40.748 0.113 7.19 4.86 12.15
12/13/2020 6:45:00 PM 4.84 40.712 0.113 7.18 4.76 12.12
12/13/2020 7:00:00 PM 4.82 40.676 0.113 7.17 4.82 12.1
12/13/2020 7:15:00 PM 4.79 40.622 0.113 7.16 4.4 12.1
12/13/2020 7:30:00 PM 4.78 40.604 0.114 7.15 5.08 12.08
12/13/2020 7:45:00 PM 4.76 40.568 0.114 7.15 4.96 12.08
12/13/2020 8:00:00 PM 4.74 40.532 0.114 7.14 5.66 12.09
12/13/2020 8:15:00 PM 4.72 40.496 0.114 7.14 5.59 12.08
12/13/2020 8:30:00 PM 4.7 40.46 0.114 7.13 5.57 12.09
12/13/2020 8:45:00 PM 4.68 40.424 0.114 7.13 4.77 12.09
12/13/2020 9:00:00 PM 4.65 40.37 0.115 7.13 4.32 12.09
12/13/2020 9:15:00 PM 4.63 40.334 0.115 7.13 3.68 12.1
12/13/2020 9:30:00 PM 4.61 40.298 0.115 7.12 3.52 12.11
12/13/2020 9:45:00 PM 4.59 40.262 0.115 7.12 3.39 12.1
12/13/2020 10:00:00 PM 4.56 40.208 0.115 7.12 3.18 12.11
12/13/2020 10:15:00 PM 4.54 40.172 0.115 7.12 3.03 12.12
12/13/2020 10:30:00 PM 4.52 40.136 0.115 7.12 3.04 12.12
12/13/2020 10:45:00 PM 4.49 40.082 0.115 7.11 2.96 12.12
12/13/2020 11:00:00 PM 4.47 40.046 0.114 7.11 2.71 12.13
12/13/2020 11:15:00 PM 4.44 39.992 0.114 7.11 2.7 12.15
12/13/2020 11:30:00 PM 4.42 39.956 0.114 7.11 2.59 12.15
12/13/2020 11:45:00 PM 4.4 39.92 0.114 7.11 2.75 12.15
12/14/2020 12:00:00 AM 4.37 39.866 0.114 7.1 2.77 12.16
12/14/2020 12:15:00 AM 4.34 39.812 0.113 7.1 2.68 12.17
12/14/2020 12:30:00 AM 4.31 39.758 0.113 7.1 2.55 12.17
12/14/2020 12:45:00 AM 4.29 39.722 0.113 7.1 2.57 12.17
12/14/2020 1:00:00 AM 4.27 39.686 0.113 7.1 2.56 12.18
12/14/2020 1:15:00 AM 4.25 39.65 0.113 7.1 2.5 12.18
12/14/2020 1:30:00 AM 4.23 39.614 0.113 7.09 2.48 12.19
12/14/2020 1:45:00 AM 4.21 39.578 0.113 7.1 2.46 12.19
12/14/2020 2:00:00 AM 4.19 39.542 0.113 7.09 2.47 12.19
12/14/2020 2:15:00 AM 4.18 39.524 0.113 7.09 2.55 12.18
12/14/2020 2:30:00 AM 4.16 39.488 0.113 7.09 2.58 12.19
12/14/2020 2:45:00 AM 4.14 39.452 0.112 7.09 2.42 12.2
12/14/2020 3:00:00 AM 4.12 39.416 0.112 7.09 2.37 12.2
12/14/2020 3:15:00 AM 4.1 39.38 0.112 7.09 2.36 12.22
12/14/2020 3:30:00 AM 4.08 39.344 0.113 7.08 2.32 12.22
12/14/2020 3:45:00 AM 4.06 39.308 0.112 7.08 2.35 12.21
12/14/2020 4:00:00 AM 4.03 39.254 0.112 7.08 2.32 12.23
12/14/2020 4:15:00 AM 4.01 39.218 0.112 7.08 2.28 12.23
12/14/2020 4:30:00 AM 3.99 39.182 0.112 7.08 2.27 12.23
12/14/2020 4:45:00 AM 3.98 39.164 0.112 7.08 2.26 12.24
12/14/2020 5:00:00 AM 3.97 39.146 0.112 7.08 2.31 12.24
12/14/2020 5:15:00 AM 3.95 39.11 0.112 7.08 2.31 12.25
12/14/2020 5:30:00 AM 3.94 39.092 0.112 7.08 2.27 12.24
12/14/2020 5:45:00 AM 3.93 39.074 0.112 7.08 2.23 12.24
12/14/2020 6:00:00 AM 3.91 39.038 0.112 7.08 2.19 12.26
12/14/2020 6:15:00 AM 3.9 39.02 0.112 7.08 2.35 12.28
12/14/2020 6:30:00 AM 3.89 39.002 0.112 7.08 2.41 12.26
12/14/2020 6:45:00 AM 3.86 38.948 0.112 7.08 2.38 12.27
12/14/2020 7:00:00 AM 3.84 38.912 0.112 7.08 2.33 12.28
12/14/2020 7:15:00 AM 3.8 38.84 0.111 7.08 2.19 12.29
12/14/2020 7:30:00 AM 3.74 38.732 0.111 7.08 2.22 12.31
12/14/2020 7:45:00 AM 3.68 38.624 0.111 7.08 2.22 12.32
12/14/2020 8:00:00 AM 3.65 38.57 0.111 7.09 2.18 12.36
12/14/2020 8:15:00 AM 3.63 38.534 0.111 7.1 2.17 12.46
12/14/2020 8:30:00 AM 3.62 38.516 0.111 7.12 2.2 12.59
12/14/2020 8:45:00 AM 3.62 38.516 0.111 7.15 2.2 12.75
12/14/2020 9:00:00 AM 3.61 38.498 0.111 7.19 2.25 12.94
12/14/2020 9:15:00 AM 3.59 38.462 0.111 7.23 2.16 13.11
12/14/2020 9:30:00 AM 3.58 38.444 0.11 7.27 2.19 13.26
12/14/2020 9:45:00 AM 3.56 38.408 0.11 7.3 2.16 13.37
12/14/2020 10:00:00 AM 3.54 38.372 0.11 7.35 2.19 13.53
12/14/2020 10:15:00 AM 3.54 38.372 0.11 7.4 2.2 13.73
12/14/2020 10:30:00 AM 3.56 38.408 0.109 7.49 2.11 13.94
12/14/2020 10:45:00 AM 3.6 38.48 0.109 7.59 2.25 14.16
12/14/2020 11:00:00 AM 3.63 38.534 0.109 7.66 2.16 14.25
12/14/2020 11:15:00 AM 3.65 38.57 0.108 7.69 2.17 14.28
12/14/2020 11:30:00 AM 3.65 38.57 0.108 7.72 2.21 14.28
12/14/2020 11:45:00 AM 3.66 38.588 0.109 7.74 2.23 14.27
12/14/2020 12:00:00 PM 3.68 38.624 0.109 7.79 2.21 14.31
12/14/2020 12:15:00 PM 3.71 38.678 0.109 7.82 2.25 14.31
12/14/2020 12:30:00 PM 3.73 38.714 0.11 7.85 2.18 14.3
12/14/2020 12:45:00 PM 3.75 38.75 0.11 7.86 2.23 14.27
12/14/2020 1:00:00 PM 3.78 38.804 0.11 7.88 2.19 14.27
12/14/2020 1:15:00 PM 3.8 38.84 0.109 7.9 2.18 14.27
12/14/2020 1:30:00 PM 3.82 38.876 0.108 7.89 2.22 14.22
12/14/2020 1:45:00 PM 3.83 38.894 0.108 7.87 2.21 14.16
12/14/2020 2:00:00 PM 3.84 38.912 0.108 7.86 2.15 14.15
12/14/2020 2:15:00 PM 3.86 38.948 0.108 7.86 2.18 14.12
12/14/2020 2:30:00 PM 3.87 38.966 0.108 7.85 2.17 14.1
12/14/2020 2:45:00 PM 3.89 39.002 0.107 7.89 2.23 14.13
12/14/2020 3:00:00 PM 3.9 39.02 0.107 7.89 2.22 14.1
12/14/2020 3:15:00 PM 3.91 39.038 0.107 7.87 2.16 14.07
12/14/2020 3:30:00 PM 3.91 39.038 0.107 7.85 2.2 14.03
12/14/2020 3:45:00 PM 3.9 39.02 0.107 7.81 2.22 13.98
12/14/2020 4:00:00 PM 3.89 39.002 0.107 7.76 2.21 13.91
12/14/2020 4:15:00 PM 3.88 38.984 0.107 7.66 2.17 13.74
12/14/2020 4:30:00 PM 3.86 38.948 0.107 7.57 2.52 13.57
12/14/2020 4:45:00 PM 3.84 38.912 0.107 7.48 2.17 13.39
12/14/2020 5:00:00 PM 3.81 38.858 0.107 7.4 2.16 13.19
12/14/2020 5:15:00 PM 3.79 38.822 0.108 7.33 2.19 13.03
12/14/2020 5:30:00 PM 3.77 38.786 0.108 7.28 2.47 12.87
12/14/2020 5:45:00 PM 3.64 38.552 0.108 7.24 2.52 12.75
12/14/2020 6:00:00 PM 3.48 38.264 0.108 7.22 2.4 12.69
12/14/2020 6:15:00 PM 3.44 38.192 0.108 7.19 2.41 12.63
12/14/2020 6:30:00 PM 3.38 38.084 0.108 7.17 2.23 12.6
12/14/2020 6:45:00 PM 3.38 38.084 0.108 7.16 2.3 12.58
12/14/2020 7:00:00 PM 3.37 38.066 0.108 7.15 2.24 12.55
12/14/2020 7:15:00 PM 3.37 38.066 0.109 7.14 2.19 12.54
12/14/2020 7:30:00 PM 3.33 37.994 0.109 7.13 2.31 12.53
12/14/2020 7:45:00 PM 3.29 37.922 0.109 7.13 2.38 12.53
12/14/2020 8:00:00 PM 3.21 37.778 0.109 7.12 2.33 12.55
12/14/2020 8:15:00 PM 3.14 37.652 0.108 7.11 2.23 12.55
12/14/2020 8:30:00 PM 3.07 37.526 0.108 7.11 2.27 12.59
12/14/2020 8:45:00 PM 3.03 37.454 0.109 7.11 2.21 12.6
12/14/2020 9:00:00 PM 2.98 37.364 0.109 7.1 2.25 12.62
12/14/2020 9:15:00 PM 2.92 37.256 0.109 7.1 2.26 12.63
12/14/2020 9:30:00 PM 2.85 37.13 0.109 7.1 2.24 12.64
12/14/2020 9:45:00 PM 2.78 37.004 0.109 7.1 2.2 12.67
12/14/2020 10:00:00 PM 2.71 36.878 0.109 7.1 2.19 12.69
12/14/2020 10:15:00 PM 2.66 36.788 0.11 7.09 2.23 12.71
12/14/2020 10:30:00 PM 2.61 36.698 0.11 7.09 2.19 12.73
12/14/2020 10:45:00 PM 2.56 36.608 0.109 7.07 2.15 12.74
12/14/2020 11:00:00 PM 2.48 36.464 0.109 7.07 2.18 12.78
12/14/2020 11:15:00 PM 2.43 36.374 0.109 7.07 2.14 12.82
12/14/2020 11:30:00 PM 2.39 36.302 0.109 7.07 2.13 12.82
12/14/2020 11:45:00 PM 2.36 36.248 0.109 7.06 2.17 12.83
12/15/2020 12:00:00 AM 2.31 36.158 0.109 7.06 2.14 12.85
12/15/2020 12:15:00 AM 2.27 36.086 0.109 7.06 2.16 12.88
12/15/2020 12:30:00 AM 2.23 36.014 0.109 7.06 2.11 12.88
12/15/2020 12:45:00 AM 2.19 35.942 0.109 7.06 2.17 12.91
12/15/2020 1:00:00 AM 2.14 35.852 0.109 7.06 2.08 12.92
12/15/2020 1:15:00 AM 2.11 35.798 0.109 7.06 2.04 12.93
12/15/2020 1:30:00 AM 2.08 35.744 0.109 7.06 2.12 12.96
12/15/2020 1:45:00 AM 2.06 35.708 0.109 7.06 2.08 12.97
12/15/2020 2:00:00 AM 2.04 35.672 0.109 7.06 2 12.98
12/15/2020 2:15:00 AM 2.01 35.618 0.109 7.06 2.05 13
12/15/2020 2:30:00 AM 1.99 35.582 0.108 7.06 2.08 13.01
12/15/2020 2:45:00 AM 1.98 35.564 0.107 7.07 2.06 13.03
12/15/2020 3:00:00 AM 1.94 35.492 0.107 7.06 2.06 13.04
12/15/2020 3:15:00 AM 1.89 35.402 0.107 7.06 2.02 13.05
12/15/2020 3:30:00 AM 1.86 35.348 0.107 7.06 2.13 13.05
12/15/2020 3:45:00 AM 1.84 35.312 0.107 7.06 2.06 13.07
12/15/2020 4:00:00 AM 1.83 35.294 0.107 7.06 2.1 13.08
12/15/2020 4:15:00 AM 1.82 35.276 0.107 7.06 2.11 13.09
12/15/2020 4:30:00 AM 1.82 35.276 0.107 7.07 2.09 13.1
12/15/2020 4:45:00 AM 1.81 35.258 0.107 7.07 2.06 13.11
12/15/2020 5:00:00 AM 1.79 35.222 0.107 7.07 2.04 13.11
12/15/2020 5:15:00 AM 1.77 35.186 0.107 7.07 2.01 13.12
12/15/2020 5:30:00 AM 1.73 35.114 0.107 7.07 2.05 13.13
12/15/2020 5:45:00 AM 1.71 35.078 0.107 7.07 2.07 13.14
12/15/2020 6:00:00 AM 1.69 35.042 0.107 7.07 2.09 13.16
12/15/2020 6:15:00 AM 1.69 35.042 0.107 7.07 2.07 13.15
12/15/2020 6:30:00 AM 1.69 35.042 0.107 7.07 2.06 13.15
12/15/2020 6:45:00 AM 1.69 35.042 0.108 7.07 2.09 13.16
12/15/2020 7:00:00 AM 1.68 35.024 0.107 7.07 2.01 13.18
12/15/2020 7:15:00 AM 1.67 35.006 0.107 7.08 1.99 13.19
12/15/2020 7:30:00 AM 1.67 35.006 0.107 7.08 2.04 13.19
12/15/2020 7:45:00 AM 1.66 34.988 0.107 7.08 2.01 13.24
12/15/2020 8:00:00 AM 1.66 34.988 0.107 7.11 1.99 13.35
12/15/2020 8:15:00 AM 1.66 34.988 0.107 7.13 1.96 13.46
12/15/2020 8:30:00 AM 1.67 35.006 0.107 7.15 1.97 13.61
12/15/2020 8:45:00 AM 1.68 35.024 0.107 7.21 2 13.91
12/15/2020 9:00:00 AM 1.7 35.06 0.107 7.27 2 14.16
12/15/2020 9:15:00 AM 1.73 35.114 0.107 7.34 2.01 14.42
12/15/2020 9:30:00 AM 1.75 35.15 0.106 7.4 2 14.61
12/15/2020 9:45:00 AM 1.78 35.204 0.106 7.46 2.02 14.78
12/15/2020 10:00:00 AM 1.81 35.258 0.106 7.55 2 14.96
12/15/2020 10:15:00 AM 1.83 35.294 0.106 7.6 1.99 15.04
12/15/2020 10:30:00 AM 1.91 35.438 0.105 7.67 2.01 15.14
12/15/2020 10:45:00 AM 1.97 35.546 0.105 7.74 2.07 15.19
12/15/2020 11:00:00 AM 1.94 35.492 0.105 7.74 2.07 15.15
12/15/2020 11:15:00 AM 1.94 35.492 0.105 7.77 1.97 15.18
12/15/2020 11:30:00 AM 1.97 35.546 0.105 7.82 2.03 15.21
12/15/2020 11:45:00 AM 2 35.6 0.105 7.86 1.99 15.23
12/15/2020 12:00:00 PM 2.06 35.708 0.105 7.92 2 15.26
12/15/2020 12:15:00 PM 2.12 35.816 0.105 7.96 2.01 15.27
12/15/2020 12:30:00 PM 2.15 35.87 0.104 8 2.03 15.24
12/15/2020 12:45:00 PM 2.15 35.87 0.104 7.99 2.01 15.19
12/15/2020 1:00:00 PM 2.15 35.87 0.104 8 2.07 15.18
12/15/2020 1:15:00 PM 2.19 35.942 0.104 8.05 2 15.19
12/15/2020 1:30:00 PM 2.24 36.032 0.104 8.08 2.05 15.19
12/15/2020 1:45:00 PM 2.31 36.158 0.104 8.12 2.01 15.2
12/15/2020 2:00:00 PM 2.33 36.194 0.104 8.15 2.02 15.18
12/15/2020 2:15:00 PM 2.35 36.23 0.104 8.17 2.01 15.17
12/15/2020 2:30:00 PM 2.33 36.194 0.104 8.19 2.01 15.15
12/15/2020 2:45:00 PM 2.31 36.158 0.103 8.17 1.98 15.12
12/15/2020 3:00:00 PM 2.28 36.104 0.103 8.14 2.01 15.07
12/15/2020 3:15:00 PM 2.26 36.068 0.103 8.14 1.99 15.04
12/15/2020 3:30:00 PM 2.23 36.014 0.103 8.11 1.99 15
12/15/2020 3:45:00 PM 2.19 35.942 0.103 8.06 2.03 14.93
12/15/2020 4:00:00 PM 2.15 35.87 0.104 7.97 2.06 14.84
12/15/2020 4:15:00 PM 2.1 35.78 0.104 7.87 2.02 14.75
12/15/2020 4:30:00 PM 2.03 35.654 0.104 7.75 2.05 14.59
12/15/2020 4:45:00 PM 1.97 35.546 0.104 7.61 2.01 14.4
12/15/2020 5:00:00 PM 1.91 35.438 0.104 7.49 2.04 14.19
12/15/2020 5:15:00 PM 1.86 35.348 0.104 7.41 2 14.01
12/15/2020 5:30:00 PM 1.8 35.24 0.105 7.33 2.04 13.85
12/15/2020 5:45:00 PM 1.75 35.15 0.105 7.29 2.01 13.75
12/15/2020 6:00:00 PM 1.69 35.042 0.105 7.26 2.02 13.68
12/15/2020 6:15:00 PM 1.63 34.934 0.105 7.23 1.99 13.61
12/15/2020 6:30:00 PM 1.57 34.826 0.105 7.2 2.04 13.56
12/15/2020 6:45:00 PM 1.53 34.754 0.106 7.18 1.97 13.52
12/15/2020 7:00:00 PM 1.48 34.664 0.106 7.16 1.95 13.48
12/15/2020 7:15:00 PM 1.43 34.574 0.106 7.15 1.99 13.47
12/15/2020 7:30:00 PM 1.38 34.484 0.106 7.14 1.97 13.46
12/15/2020 7:45:00 PM 1.34 34.412 0.106 7.13 2.06 13.45
12/15/2020 8:00:00 PM 1.3 34.34 0.106 7.12 1.96 13.46
12/15/2020 8:15:00 PM 1.26 34.268 0.106 7.11 1.97 13.45
12/15/2020 8:30:00 PM 1.23 34.214 0.106 7.11 1.94 13.46
12/15/2020 8:45:00 PM 1.19 34.142 0.106 7.1 1.98 13.47
12/15/2020 9:00:00 PM 1.16 34.088 0.107 7.09 2.01 13.46
12/15/2020 9:15:00 PM 1.12 34.016 0.107 7.09 2 13.49
12/15/2020 9:30:00 PM 1.08 33.944 0.107 7.09 1.93 13.5
12/15/2020 9:45:00 PM 1.06 33.908 0.107 7.08 1.95 13.5
12/15/2020 10:00:00 PM 1.02 33.836 0.107 7.08 1.94 13.51
12/15/2020 10:15:00 PM 0.99 33.782 0.107 7.08 1.95 13.51
12/15/2020 10:30:00 PM 0.95 33.71 0.107 7.08 1.95 13.53
12/15/2020 10:45:00 PM 0.92 33.656 0.107 7.07 2.01 13.53
12/15/2020 11:00:00 PM 0.89 33.602 0.107 7.07 1.96 13.54
12/15/2020 11:15:00 PM 0.86 33.548 0.107 7.07 1.98 13.56
12/15/2020 11:30:00 PM 0.83 33.494 0.107 7.07 1.96 13.56
12/15/2020 11:45:00 PM 0.8 33.44 0.107 7.07 1.95 13.57
12/16/2020 12:00:00 AM 0.78 33.404 0.107 7.06 1.95 13.58
12/16/2020 12:15:00 AM 0.74 33.332 0.107 7.06 1.89 13.59
12/16/2020 12:30:00 AM 0.71 33.278 0.107 7.06 1.93 13.61
12/16/2020 12:45:00 AM 0.69 33.242 0.107 7.06 1.92 13.61
12/16/2020 1:00:00 AM 0.67 33.206 0.108 7.06 1.95 13.62
12/16/2020 1:15:00 AM 0.64 33.152 0.108 7.06 1.92 13.63
12/16/2020 1:30:00 AM 0.61 33.098 0.108 7.06 1.94 13.64
12/16/2020 1:45:00 AM 0.58 33.044 0.108 7.06 1.92 13.65
12/16/2020 2:00:00 AM 0.54 32.972 0.108 7.06 1.93 13.67
12/16/2020 2:15:00 AM 0.51 32.918 0.108 7.06 1.99 13.68
12/16/2020 2:30:00 AM 0.48 32.864 0.108 7.05 1.99 13.69
12/16/2020 2:45:00 AM 0.45 32.81 0.108 7.05 1.94 13.7
12/16/2020 3:00:00 AM 0.42 32.756 0.108 7.05 1.99 13.71
12/16/2020 3:15:00 AM 0.38 32.684 0.108 7.05 1.97 13.72
12/16/2020 3:30:00 AM 0.35 32.63 0.108 7.05 2.05 13.73
12/16/2020 3:45:00 AM 0.34 32.612 0.108 7.04 2.14 13.73
12/16/2020 4:00:00 AM 0.32 32.576 0.108 7.04 2.03 13.74
12/16/2020 4:15:00 AM 0.32 32.576 0.108 7.04 2.07 13.73
12/16/2020 4:30:00 AM 0.3 32.54 0.108 7.04 1.97 13.75
12/16/2020 4:45:00 AM 0.28 32.504 0.109 7.03 1.93 13.74
12/16/2020 5:00:00 AM 0.25 32.45 0.109 7.03 1.93 13.75
12/16/2020 5:15:00 AM 0.24 32.432 0.109 7.03 2.04 13.73
12/16/2020 5:30:00 AM 0.22 32.396 0.109 7.02 2.06 13.74
12/16/2020 5:45:00 AM 0.22 32.396 0.109 7.02 1.99 13.74
12/16/2020 6:00:00 AM 0.24 32.432 0.109 7.02 2.02 13.73
12/16/2020 6:15:00 AM 0.26 32.468 0.109 7.02 1.93 13.73
12/16/2020 6:30:00 AM 0.28 32.504 0.11 7.02 1.97 13.73
12/16/2020 6:45:00 AM 0.29 32.522 0.11 7.02 1.95 13.72
12/16/2020 7:00:00 AM 0.29 32.522 0.11 7.02 1.97 13.71
12/16/2020 7:15:00 AM 0.3 32.54 0.11 7.02 1.96 13.7
12/16/2020 7:30:00 AM 0.31 32.558 0.11 7.02 1.94 13.7
12/16/2020 7:45:00 AM 0.31 32.558 0.11 7.02 1.96 13.73
12/16/2020 8:00:00 AM 0.32 32.576 0.111 7.03 1.95 13.79
12/16/2020 8:15:00 AM 0.34 32.612 0.111 7.05 1.99 13.91
12/16/2020 8:30:00 AM 0.35 32.63 0.111 7.07 1.95 14.07
12/16/2020 8:45:00 AM 0.35 32.63 0.11 7.11 1.91 14.29
12/16/2020 9:00:00 AM 0.37 32.666 0.11 7.14 1.93 14.5
12/16/2020 9:15:00 AM 0.38 32.684 0.11 7.19 1.95 14.71
12/16/2020 9:30:00 AM 0.38 32.684 0.11 7.22 1.91 14.89
12/16/2020 9:45:00 AM 0.37 32.666 0.11 7.24 2.79 14.95
12/16/2020 10:00:00 AM 0.37 32.666 0.11 7.29 1.96 15.12
12/16/2020 10:15:00 AM 0.38 32.684 0.11 7.34 1.98 15.27
12/16/2020 10:30:00 AM 0.4 32.72 0.11 7.39 1.96 15.42
12/16/2020 10:45:00 AM 0.42 32.756 0.109 7.45 2 15.56
12/16/2020 11:00:00 AM 0.44 32.792 0.109 7.49 1.97 15.66
12/16/2020 11:15:00 AM 0.45 32.81 0.109 7.53 1.99 15.71
12/16/2020 11:30:00 AM 0.47 32.846 0.109 7.55 1.95 15.7
12/16/2020 11:45:00 AM 0.51 32.918 0.109 7.55 1.98 15.67
12/16/2020 12:00:00 PM 0.53 32.954 0.11 7.56 1.98 15.62
12/16/2020 12:15:00 PM 0.55 32.99 0.109 7.57 1.97 15.58
12/16/2020 12:30:00 PM 0.56 33.008 0.109 7.57 2.21 15.54
12/16/2020 12:45:00 PM 0.56 33.008 0.109 7.58 1.94 15.5
12/16/2020 1:00:00 PM 0.57 33.026 0.109 7.59 1.96 15.5
12/16/2020 1:15:00 PM 0.58 33.044 0.109 7.6 1.98 15.47
12/16/2020 1:30:00 PM 0.59 33.062 0.108 7.6 2 15.45
12/16/2020 1:45:00 PM 0.59 33.062 0.108 7.6 1.96 15.43
12/16/2020 2:00:00 PM 0.58 33.044 0.108 7.6 1.97 15.39
12/16/2020 2:15:00 PM 0.57 33.026 0.108 7.58 1.99 15.32
12/16/2020 2:30:00 PM 0.56 33.008 0.108 7.55 1.98 15.24
12/16/2020 2:45:00 PM 0.54 32.972 0.109 7.52 1.96 15.15
12/16/2020 3:00:00 PM 0.49 32.882 0.109 7.49 1.95 15.05
12/16/2020 3:15:00 PM 0.44 32.792 0.109 7.46 2.02 14.97
12/16/2020 3:30:00 PM 0.38 32.684 0.109 7.43 2.01 14.89
12/16/2020 3:45:00 PM 0.31 32.558 0.109 7.39 1.97 14.79
12/16/2020 4:00:00 PM 0.25 32.45 0.109 7.36 2.01 14.67
12/16/2020 4:15:00 PM 0.19 32.342 0.109 7.32 2.07 14.56
12/16/2020 4:30:00 PM 0.16 32.288 0.109 7.29 2.05 14.44
12/16/2020 4:45:00 PM 0.13 32.234 0.108 7.25 2.04 14.34
12/16/2020 5:00:00 PM 0.09 32.162 0.109 7.23 2.04 14.25
12/16/2020 5:15:00 PM 0.06 32.108 0.109 7.2 2.19 14.16
12/16/2020 5:30:00 PM 0.02 32.036 0.109 7.17 2.27 14.09
12/16/2020 5:45:00 PM 0.02 32.036 0.109 7.15 2.22 14.04
12/16/2020 6:00:00 PM 0.03 32.054 0.109 7.14 2.27 13.98
12/16/2020 6:15:00 PM 0.01 32.018 0.109 7.13 2.31 13.96
12/16/2020 6:30:00 PM 0.01 32.018 0.109 7.12 2.31 13.92
12/16/2020 6:45:00 PM 0.02 32.036 0.109 7.1 2.3 13.88
12/16/2020 7:00:00 PM 0.01 32.018 0.11 7.09 2.27 13.85
12/16/2020 7:15:00 PM 0.02 32.036 0.109 7.08 2.3 13.81
12/16/2020 7:30:00 PM 0.01 32.018 0.109 7.07 2.39 13.79
12/16/2020 7:45:00 PM 0.02 32.036 0.109 7.06 2.34 13.75
12/16/2020 8:00:00 PM 0.03 32.054 0.109 7.04 2.71 13.7
12/16/2020 8:15:00 PM 0.04 32.072 0.109 7.04 2.5 13.68
12/16/2020 8:30:00 PM 0.03 32.054 0.109 7.03 2.42 13.66
12/16/2020 8:45:00 PM 0.03 32.054 0.109 7.02 2.65 13.63
12/16/2020 9:00:00 PM 0.04 32.072 0.109 7 2.81 13.57
12/16/2020 9:15:00 PM 0.03 32.054 0.109 6.99 2.96 13.52
12/16/2020 9:30:00 PM 0.05 32.09 0.109 6.97 2.63 13.46
12/16/2020 9:45:00 PM 0.05 32.09 0.109 6.97 2.67 13.43
12/16/2020 10:00:00 PM 0.07 32.126 0.11 6.96 2.67 13.39
12/16/2020 10:15:00 PM 0.06 32.108 0.11 6.95 2.65 13.36
12/16/2020 10:30:00 PM 0.07 32.126 0.109 6.94 2.64 13.3
12/16/2020 10:45:00 PM 0.09 32.162 0.11 6.92 2.55 13.24
12/16/2020 11:00:00 PM 0.11 32.198 0.112 6.9 2.52 13.15
12/16/2020 11:15:00 PM 0.1 32.18 0.11 6.9 2.53 13.15
12/16/2020 11:30:00 PM 0.1 32.18 0.111 6.89 2.58 13.1
12/16/2020 11:45:00 PM 0.12 32.216 0.111 6.88 2.47 13.03
12/17/2020 12:00:00 AM 0.14 32.252 0.111 6.86 2.48 12.95
12/17/2020 12:15:00 AM 0.14 32.252 0.111 6.85 2.43 12.92
12/17/2020 12:30:00 AM 0.15 32.27 0.111 6.84 2.47 12.85
12/17/2020 12:45:00 AM 0.16 32.288 0.111 6.82 2.44 12.79
12/17/2020 1:00:00 AM 0.16 32.288 0.111 6.81 2.39 12.71
12/17/2020 1:15:00 AM 0.18 32.324 0.111 6.8 2.43 12.65
12/17/2020 1:30:00 AM 0.19 32.342 0.111 6.8 2.45 12.63
12/17/2020 1:45:00 AM 0.19 32.342 0.111 6.8 2.41 12.61
12/17/2020 2:00:00 AM 0.18 32.324 0.111 6.8 2.41 12.59
12/17/2020 2:15:00 AM 0.17 32.306 0.111 6.8 2.41 12.61
12/17/2020 2:30:00 AM 0.17 32.306 0.111 6.81 2.39 12.61
12/17/2020 2:45:00 AM 0.17 32.306 0.112 6.8 2.41 12.59
12/17/2020 3:00:00 AM 0.17 32.306 0.112 6.8 2.42 12.59
12/17/2020 3:15:00 AM 0.18 32.324 0.112 6.8 2.43 12.57
12/17/2020 3:30:00 AM 0.19 32.342 0.112 6.8 2.41 12.54
12/17/2020 3:45:00 AM 0.18 32.324 0.112 6.8 2.48 12.55
12/17/2020 4:00:00 AM 0.18 32.324 0.111 6.79 2.38 12.53
12/17/2020 4:15:00 AM 0.18 32.324 0.111 6.79 2.58 12.5
12/17/2020 4:30:00 AM 0.19 32.342 0.111 6.79 2.49 12.5
12/17/2020 4:45:00 AM 0.19 32.342 0.11 6.79 2.44 12.48
12/17/2020 5:00:00 AM 0.19 32.342 0.11 6.78 2.46 12.45
12/17/2020 5:15:00 AM 0.21 32.378 0.11 6.78 2.5 12.45
12/17/2020 5:30:00 AM 0.24 32.432 0.111 6.78 2.4 12.45
12/17/2020 5:45:00 AM 0.26 32.468 0.11 6.78 2.58 12.46
12/17/2020 6:00:00 AM 0.27 32.486 0.11 6.78 2.51 12.46
12/17/2020 6:15:00 AM 0.27 32.486 0.11 6.78 2.43 12.48
12/17/2020 6:30:00 AM 0.29 32.522 0.11 6.78 2.52 12.48
12/17/2020 6:45:00 AM 0.3 32.54 0.11 6.78 2.4 12.48
12/17/2020 7:00:00 AM 0.31 32.558 0.11 6.78 2.41 12.47
12/17/2020 7:15:00 AM 0.32 32.576 0.11 6.78 2.63 12.47
12/17/2020 7:30:00 AM 0.33 32.594 0.11 6.78 2.47 12.46
12/17/2020 7:45:00 AM 0.34 32.612 0.11 6.78 2.4 12.45
12/17/2020 8:00:00 AM 0.33 32.594 0.11 6.78 2.42 12.49
12/17/2020 8:15:00 AM 0.34 32.612 0.11 6.79 2.4 12.54
12/17/2020 8:30:00 AM 0.36 32.648 0.11 6.8 2.37 12.64
12/17/2020 8:45:00 AM 0.37 32.666 0.11 6.81 2.37 12.8
12/17/2020 9:00:00 AM 0.39 32.702 0.109 6.83 2.37 12.97
12/17/2020 9:15:00 AM 0.4 32.72 0.109 6.85 2.36 13.18
12/17/2020 9:30:00 AM 0.42 32.756 0.109 6.86 2.36 13.37
12/17/2020 9:45:00 AM 0.45 32.81 0.109 6.88 2.3 13.52
12/17/2020 10:00:00 AM 0.46 32.828 0.109 6.9 2.37 13.66
12/17/2020 10:15:00 AM 0.46 32.828 0.109 6.91 2.33 13.81
12/17/2020 10:30:00 AM 0.47 32.846 0.109 6.93 2.33 13.94
12/17/2020 10:45:00 AM 0.49 32.882 0.109 6.95 2.38 14.09
12/17/2020 11:00:00 AM 0.5 32.9 0.109 6.97 2.29 14.23
12/17/2020 11:15:00 AM 0.5 32.9 0.109 7 2.35 14.4
12/17/2020 11:30:00 AM 0.51 32.918 0.109 7.03 2.43 14.56
12/17/2020 11:45:00 AM 0.52 32.936 0.109 7.05 2.85 14.68
12/17/2020 12:00:00 PM 0.5 32.9 0.108 7.09 2.64 14.83
12/17/2020 12:15:00 PM 0.49 32.882 0.108 7.12 2.68 14.94
12/17/2020 12:30:00 PM 0.48 32.864 0.108 7.15 2.61 15.07
12/17/2020 12:45:00 PM 0.47 32.846 0.108 7.19 2.64 15.19
12/17/2020 1:00:00 PM 0.45 32.81 0.108 7.21 2.84 15.24
12/17/2020 1:15:00 PM 0.41 32.738 0.108 7.27 2.74 15.37
12/17/2020 1:30:00 PM 0.37 32.666 0.108 7.32 3 15.44
12/17/2020 1:45:00 PM 0.33 32.594 0.108 7.36 3.38 15.49
12/17/2020 2:00:00 PM 0.29 32.522 0.108 7.39 3.44 15.53
12/17/2020 2:15:00 PM 0.28 32.504 0.107 7.43 3.26 15.57
12/17/2020 2:30:00 PM 0.27 32.486 0.107 7.46 3.41 15.61
12/17/2020 2:45:00 PM 0.24 32.432 0.107 7.49 3.51 15.62
12/17/2020 3:00:00 PM 0.2 32.36 0.106 7.51 3.54 15.6
12/17/2020 3:15:00 PM 0.18 32.324 0.106 7.52 3.48 15.6
12/17/2020 3:30:00 PM 0.14 32.252 0.105 7.53 3.67 15.56
12/17/2020 3:45:00 PM 0.12 32.216 0.105 7.52 4.04 15.47
12/17/2020 4:00:00 PM 0.12 32.216 0.105 7.51 3.7 15.41
12/17/2020 4:15:00 PM 0.09 32.162 0.104 7.49 4.14 15.29
12/17/2020 4:30:00 PM 0.09 32.162 0.104 7.44 4.42 15.15
12/17/2020 4:45:00 PM 0.07 32.126 0.104 7.39 4.53 15
12/17/2020 5:00:00 PM 0.06 32.108 0.103 7.35 4.74 14.84
12/17/2020 5:15:00 PM 0.06 32.108 0.103 7.31 4.5 14.71
12/17/2020 5:30:00 PM 0.07 32.126 0.103 7.27 4.75 14.58
12/17/2020 5:45:00 PM 0.07 32.126 0.103 7.24 4.76 14.48
12/17/2020 6:00:00 PM 0.07 32.126 0.102 7.21 4.78 14.4
12/17/2020 6:15:00 PM 0.07 32.126 0.102 7.19 5.39 14.32
12/17/2020 6:30:00 PM 0.08 32.144 0.102 7.17 4.68 14.25
12/17/2020 6:45:00 PM 0.08 32.144 0.102 7.16 4.74 14.2
12/17/2020 7:00:00 PM 0.07 32.126 0.102 7.14 4.89 14.15
12/17/2020 7:15:00 PM 0.07 32.126 0.102 7.13 4.75 14.11
12/17/2020 7:30:00 PM 0.07 32.126 0.101 7.12 4.71 14.07
12/17/2020 7:45:00 PM 0.08 32.144 0.101 7.11 4.87 14.04
12/17/2020 8:00:00 PM 0.08 32.144 0.101 7.1 4.51 14.01
12/17/2020 8:15:00 PM 0.08 32.144 0.101 7.1 4.29 13.98
12/17/2020 8:30:00 PM 0.07 32.126 0.101 7.09 4.57 13.97
12/17/2020 8:45:00 PM 0.07 32.126 0.101 7.09 4.28 13.96
12/17/2020 9:00:00 PM 0.06 32.108 0.101 7.09 4.51 13.94
12/17/2020 9:15:00 PM 0.06 32.108 0.101 7.09 4.64 13.94
12/17/2020 9:30:00 PM 0.06 32.108 0.101 7.08 4.5 13.92
12/17/2020 9:45:00 PM 0.06 32.108 0.1 7.08 4.5 13.91
12/17/2020 10:00:00 PM 0.06 32.108 0.101 7.07 4.31 13.9
12/17/2020 10:15:00 PM 0.07 32.126 0.101 7.07 4.48 13.89
12/17/2020 10:30:00 PM 0.07 32.126 0.101 7.07 4.48 13.88
12/17/2020 10:45:00 PM 0.06 32.108 0.101 7.07 4.39 13.88
12/17/2020 11:00:00 PM 0.07 32.126 0.101 7.07 4.31 13.87
12/17/2020 11:15:00 PM 0.07 32.126 0.101 7.06 4.21 13.86
12/17/2020 11:30:00 PM 0.07 32.126 0.101 7.06 4.3 13.86
12/17/2020 11:45:00 PM 0.06 32.108 0.101 7.06 4.3 13.86
12/18/2020 12:00:00 AM 0.06 32.108 0.101 7.06 4.16 13.86
12/18/2020 12:15:00 AM 0.06 32.108 0.101 7.07 4.55 13.85
12/18/2020 12:30:00 AM 0.06 32.108 0.101 7.06 4.14 13.85
12/18/2020 12:45:00 AM 0.06 32.108 0.101 7.06 4.33 13.85
12/18/2020 1:00:00 AM 0.06 32.108 0.101 7.06 4.13 13.84
12/18/2020 1:15:00 AM 0.06 32.108 0.101 7.06 4.37 13.84
12/18/2020 1:30:00 AM 0.06 32.108 0.101 7.06 4.17 13.84
12/18/2020 1:45:00 AM 0.06 32.108 0.101 7.06 4.13 13.83
12/18/2020 2:00:00 AM 0.06 32.108 0.101 7.06 4.21 13.83
12/18/2020 2:15:00 AM 0.06 32.108 0.101 7.06 4.35 13.83
12/18/2020 2:30:00 AM 0.06 32.108 0.101 7.06 3.9 13.83
12/18/2020 2:45:00 AM 0.06 32.108 0.101 7.06 4.08 13.83
12/18/2020 3:00:00 AM 0.06 32.108 0.101 7.05 4.06 13.82
12/18/2020 3:15:00 AM 0.07 32.126 0.101 7.05 3.75 13.82
12/18/2020 3:30:00 AM 0.07 32.126 0.101 7.06 3.84 13.82
12/18/2020 3:45:00 AM 0.07 32.126 0.101 7.05 4.02 13.82
12/18/2020 4:00:00 AM 0.07 32.126 0.101 7.05 3.9 13.81
12/18/2020 4:15:00 AM 0.07 32.126 0.101 7.05 3.76 13.81
12/18/2020 4:30:00 AM 0.07 32.126 0.101 7.05 3.93 13.81
12/18/2020 4:45:00 AM 0.07 32.126 0.101 7.04 3.66 13.8
12/18/2020 5:00:00 AM 0.08 32.144 0.101 7.04 3.81 13.8
12/18/2020 5:15:00 AM 0.08 32.144 0.101 7.04 3.81 13.8
12/18/2020 5:30:00 AM 0.08 32.144 0.101 7.04 3.86 13.8
12/18/2020 5:45:00 AM 0.08 32.144 0.101 7.04 3.79 13.8
12/18/2020 6:00:00 AM 0.08 32.144 0.1 7.04 3.93 13.8
12/18/2020 6:15:00 AM 0.08 32.144 0.101 7.04 3.87 13.8
12/18/2020 6:30:00 AM 0.08 32.144 0.101 7.03 3.78 13.79
12/18/2020 6:45:00 AM 0.08 32.144 0.101 7.04 3.83 13.8
12/18/2020 7:00:00 AM 0.08 32.144 0.101 7.04 3.61 13.79
12/18/2020 7:15:00 AM 0.08 32.144 0.101 7.04 3.87 13.8
12/18/2020 7:30:00 AM 0.08 32.144 0.101 7.04 3.91 13.81
12/18/2020 7:45:00 AM 0.09 32.162 0.101 7.04 3.64 13.83
12/18/2020 8:00:00 AM 0.09 32.162 0.1 7.05 3.56 13.87
12/18/2020 8:15:00 AM 0.09 32.162 0.101 7.06 3.63 13.94
12/18/2020 8:30:00 AM 0.1 32.18 0.1 7.07 3.66 14.03
12/18/2020 8:45:00 AM 0.1 32.18 0.1 7.09 3.56 14.13
12/18/2020 9:00:00 AM 0.11 32.198 0.1 7.12 3.75 14.24
12/18/2020 9:15:00 AM 0.1 32.18 0.1 7.13 3.65 14.33
12/18/2020 9:30:00 AM 0.1 32.18 0.101 7.15 3.62 14.41
12/18/2020 9:45:00 AM 0.11 32.198 0.1 7.17 3.56 14.51
12/18/2020 10:00:00 AM 0.11 32.198 0.1 7.2 3.56 14.62
12/18/2020 10:15:00 AM 0.11 32.198 0.1 7.22 3.7 14.7
12/18/2020 10:30:00 AM 0.11 32.198 0.1 7.24 3.47 14.79
12/18/2020 10:45:00 AM 0.12 32.216 0.1 7.27 3.56 14.88
12/18/2020 11:00:00 AM 0.12 32.216 0.1 7.29 3.42 14.96
12/18/2020 11:15:00 AM 0.12 32.216 0.1 7.31 3.72 15.02
12/18/2020 11:30:00 AM 0.12 32.216 0.1 7.33 3.49 15.08
12/18/2020 11:45:00 AM 0.12 32.216 0.1 7.35 3.53 15.14
12/18/2020 12:00:00 PM 0.12 32.216 0.1 7.37 3.65 15.19
12/18/2020 12:15:00 PM 0.12 32.216 0.101 7.39 3.65 15.24
12/18/2020 12:30:00 PM 0.12 32.216 0.1 7.41 3.59 15.27
12/18/2020 12:45:00 PM 0.12 32.216 0.1 7.42 3.59 15.29
12/18/2020 1:00:00 PM 0.12 32.216 0.1 7.43 3.59 15.32
12/18/2020 1:15:00 PM 0.13 32.234 0.1 7.46 3.63 15.36
12/18/2020 1:30:00 PM 0.14 32.252 0.1 7.48 3.47 15.41
12/18/2020 1:45:00 PM 0.15 32.27 0.101 7.5 3.75 15.46
12/18/2020 2:00:00 PM 0.13 32.234 0.101 7.52 3.61 15.48
12/18/2020 2:15:00 PM 0.12 32.216 0.101 7.52 3.67 15.49
12/18/2020 2:30:00 PM 0.13 32.234 0.101 7.54 3.53 15.51
12/18/2020 2:45:00 PM 0.14 32.252 0.101 7.56 3.78 15.54
12/18/2020 3:00:00 PM 0.13 32.234 0.101 7.56 3.62 15.53
12/18/2020 3:15:00 PM 0.12 32.216 0.101 7.56 3.54 15.53
12/18/2020 3:30:00 PM 0.11 32.198 0.101 7.55 3.56 15.49
12/18/2020 3:45:00 PM 0.08 32.144 0.101 7.51 3.69 15.4
12/18/2020 4:00:00 PM 0.08 32.144 0.101 7.48 3.61 15.32
12/18/2020 4:15:00 PM 0.07 32.126 0.101 7.44 3.61 15.23
12/18/2020 4:30:00 PM 0.07 32.126 0.101 7.4 3.57 15.12
12/18/2020 4:45:00 PM 0.06 32.108 0.102 7.34 3.56 14.98
12/18/2020 5:00:00 PM 0.06 32.108 0.101 7.3 3.56 14.83
12/18/2020 5:15:00 PM 0.05 32.09 0.102 7.26 3.42 14.72
12/18/2020 5:30:00 PM 0.04 32.072 0.102 7.22 3.42 14.61
12/18/2020 5:45:00 PM 0.04 32.072 0.102 7.19 3.46 14.52
12/18/2020 6:00:00 PM 0.04 32.072 0.102 7.17 3.31 14.45
12/18/2020 6:15:00 PM 0.04 32.072 0.103 7.15 3.56 14.38
12/18/2020 6:30:00 PM 0.04 32.072 0.103 7.14 3.38 14.32
12/18/2020 6:45:00 PM 0.04 32.072 0.103 7.12 3.58 14.28
12/18/2020 7:00:00 PM 0.04 32.072 0.103 7.11 3.63 14.24
12/18/2020 7:15:00 PM 0.04 32.072 0.104 7.1 3.43 14.2
12/18/2020 7:30:00 PM 0.04 32.072 0.104 7.09 3.5 14.17
12/18/2020 7:45:00 PM 0.04 32.072 0.105 7.08 3.38 14.14
12/18/2020 8:00:00 PM 0.04 32.072 0.105 7.07 3.58 14.12
12/18/2020 8:15:00 PM 0.04 32.072 0.105 7.06 3.43 14.09
12/18/2020 8:30:00 PM 0.04 32.072 0.105 7.06 3.47 14.07
12/18/2020 8:45:00 PM 0.04 32.072 0.106 7.05 3.33 14.05
12/18/2020 9:00:00 PM 0.04 32.072 0.106 7.04 3.47 14.04
12/18/2020 9:15:00 PM 0.04 32.072 0.106 7.04 3.42 14.02
12/18/2020 9:30:00 PM 0.04 32.072 0.106 7.03 3.36 14
12/18/2020 9:45:00 PM 0.04 32.072 0.106 7.03 3.33 13.99
12/18/2020 10:00:00 PM 0.05 32.09 0.107 7.02 3.26 13.98
12/18/2020 10:15:00 PM 0.05 32.09 0.107 7.02 3.41 13.96
12/18/2020 10:30:00 PM 0.05 32.09 0.107 7.02 3.25 13.95
12/18/2020 10:45:00 PM 0.05 32.09 0.107 7.02 3.35 13.94
12/18/2020 11:00:00 PM 0.05 32.09 0.108 7.01 3.31 13.93
12/18/2020 11:15:00 PM 0.05 32.09 0.108 7.01 3.34 13.93
12/18/2020 11:30:00 PM 0.05 32.09 0.108 7 3.22 13.92
12/18/2020 11:45:00 PM 0.05 32.09 0.108 7 3.24 13.91
12/19/2020 12:00:00 AM 0.05 32.09 0.109 7 3.32 13.91
12/19/2020 12:15:00 AM 0.05 32.09 0.109 7 3.22 13.9
12/19/2020 12:30:00 AM 0.05 32.09 0.109 7 3.24 13.9
12/19/2020 12:45:00 AM 0.05 32.09 0.109 6.99 3.19 13.89
12/19/2020 1:00:00 AM 0.05 32.09 0.109 6.99 3.22 13.88
12/19/2020 1:15:00 AM 0.05 32.09 0.109 6.99 3.17 13.88
12/19/2020 1:30:00 AM 0.05 32.09 0.11 6.99 3.14 13.87
12/19/2020 1:45:00 AM 0.05 32.09 0.11 6.99 3.21 13.87
12/19/2020 2:00:00 AM 0.05 32.09 0.11 6.99 3.21 13.86
12/19/2020 2:15:00 AM 0.05 32.09 0.11 6.98 3.35 13.85
12/19/2020 2:30:00 AM 0.05 32.09 0.111 6.98 3.16 13.85
12/19/2020 2:45:00 AM 0.05 32.09 0.111 6.98 3.17 13.85
12/19/2020 3:00:00 AM 0.05 32.09 0.111 6.98 3.2 13.84
12/19/2020 3:15:00 AM 0.05 32.09 0.111 6.98 3.15 13.84
12/19/2020 3:30:00 AM 0.05 32.09 0.112 6.98 3.13 13.83
12/19/2020 3:45:00 AM 0.05 32.09 0.112 6.98 3.14 13.83
12/19/2020 4:00:00 AM 0.05 32.09 0.111 6.98 3.23 13.83
12/19/2020 4:15:00 AM 0.05 32.09 0.112 6.97 3.09 13.82
12/19/2020 4:30:00 AM 0.05 32.09 0.112 6.97 3.21 13.81
12/19/2020 4:45:00 AM 0.05 32.09 0.112 6.97 3.1 13.81
12/19/2020 5:00:00 AM 0.05 32.09 0.112 6.97 3.11 13.81
12/19/2020 5:15:00 AM 0.05 32.09 0.112 6.97 3.13 13.8
12/19/2020 5:30:00 AM 0.05 32.09 0.112 6.97 3.11 13.8
12/19/2020 5:45:00 AM 0.05 32.09 0.112 6.97 3.12 13.79
12/19/2020 6:00:00 AM 0.05 32.09 0.113 6.97 3.08 13.79
12/19/2020 6:15:00 AM 0.05 32.09 0.113 6.96 3.04 13.78
12/19/2020 6:30:00 AM 0.05 32.09 0.113 6.96 3.14 13.78
12/19/2020 6:45:00 AM 0.05 32.09 0.113 6.96 3.06 13.78
12/19/2020 7:00:00 AM 0.06 32.108 0.113 6.96 2.97 13.78
12/19/2020 7:15:00 AM 0.06 32.108 0.114 6.96 3.05 13.77
12/19/2020 7:30:00 AM 0.06 32.108 0.114 6.96 3.01 13.77
12/19/2020 7:45:00 AM 0.06 32.108 0.114 6.97 2.98 13.8
12/19/2020 8:00:00 AM 0.06 32.108 0.114 6.98 2.93 13.88
12/19/2020 8:15:00 AM 0.07 32.126 0.114 6.99 2.92 13.97
12/19/2020 8:30:00 AM 0.08 32.144 0.114 7 2.88 14.06
12/19/2020 8:45:00 AM 0.08 32.144 0.114 7.02 2.93 14.16
12/19/2020 9:00:00 AM 0.08 32.144 0.114 7.03 2.94 14.25
12/19/2020 9:15:00 AM 0.1 32.18 0.114 7.05 2.89 14.38
12/19/2020 9:30:00 AM 0.12 32.216 0.114 7.07 2.92 14.51
12/19/2020 9:45:00 AM 0.16 32.288 0.114 7.1 2.91 14.65
12/19/2020 10:00:00 AM 0.18 32.324 0.114 7.13 2.87 14.8
12/19/2020 10:15:00 AM 0.21 32.378 0.114 7.15 2.86 14.94
12/19/2020 10:30:00 AM 0.22 32.396 0.114 7.18 2.95 15.05
12/19/2020 10:45:00 AM 0.23 32.414 0.115 7.21 2.88 15.16
12/19/2020 11:00:00 AM 0.26 32.468 0.114 7.25 2.94 15.29
12/19/2020 11:15:00 AM 0.28 32.504 0.114 7.28 3.01 15.4
12/19/2020 11:30:00 AM 0.28 32.504 0.114 7.31 2.98 15.49
12/19/2020 11:45:00 AM 0.29 32.522 0.114 7.35 2.93 15.6
12/19/2020 12:00:00 PM 0.3 32.54 0.113 7.38 2.98 15.69
12/19/2020 12:15:00 PM 0.28 32.504 0.114 7.42 3.13 15.75
12/19/2020 12:30:00 PM 0.25 32.45 0.114 7.45 3.07 15.81
12/19/2020 12:45:00 PM 0.24 32.432 0.114 7.49 3.04 15.86
12/19/2020 1:00:00 PM 0.24 32.432 0.113 7.52 3.31 15.92
12/19/2020 1:15:00 PM 0.25 32.45 0.113 7.57 3.18 15.96
12/19/2020 1:30:00 PM 0.24 32.432 0.113 7.6 3.22 15.98
12/19/2020 1:45:00 PM 0.2 32.36 0.113 7.62 3.35 15.98
12/19/2020 2:00:00 PM 0.18 32.324 0.112 7.64 3.22 15.97
12/19/2020 2:15:00 PM 0.18 32.324 0.112 7.66 3.31 15.98
12/19/2020 2:30:00 PM 0.16 32.288 0.112 7.67 3.48 15.96
12/19/2020 2:45:00 PM 0.15 32.27 0.112 7.67 3.52 15.93
12/19/2020 3:00:00 PM 0.15 32.27 0.112 7.68 3.55 15.91
12/19/2020 3:15:00 PM 0.15 32.27 0.112 7.67 3.5 15.87
12/19/2020 3:30:00 PM 0.13 32.234 0.112 7.65 3.56 15.81
12/19/2020 3:45:00 PM 0.13 32.234 0.112 7.62 3.53 15.74
12/19/2020 4:00:00 PM 0.12 32.216 0.112 7.57 3.51 15.61
12/19/2020 4:15:00 PM 0.11 32.198 0.112 7.52 3.53 15.49
12/19/2020 4:30:00 PM 0.11 32.198 0.112 7.46 3.52 15.32
12/19/2020 4:45:00 PM 0.1 32.18 0.112 7.4 3.47 15.15
12/19/2020 5:00:00 PM 0.1 32.18 0.112 7.35 3.36 14.98
12/19/2020 5:15:00 PM 0.1 32.18 0.112 7.3 3.46 14.84
12/19/2020 5:30:00 PM 0.1 32.18 0.112 7.26 3.55 14.71
12/19/2020 5:45:00 PM 0.1 32.18 0.112 7.23 3.43 14.59
12/19/2020 6:00:00 PM 0.11 32.198 0.112 7.2 3.36 14.48
12/19/2020 6:15:00 PM 0.11 32.198 0.112 7.18 3.36 14.39
12/19/2020 6:30:00 PM 0.11 32.198 0.112 7.15 3.36 14.31
12/19/2020 6:45:00 PM 0.11 32.198 0.112 7.14 3.3 14.24
12/19/2020 7:00:00 PM 0.12 32.216 0.112 7.12 3.28 14.18
12/19/2020 7:15:00 PM 0.12 32.216 0.112 7.11 3.38 14.13
12/19/2020 7:30:00 PM 0.12 32.216 0.112 7.1 3.28 14.09
12/19/2020 7:45:00 PM 0.12 32.216 0.112 7.09 3.27 14.04
12/19/2020 8:00:00 PM 0.12 32.216 0.112 7.08 3.2 14.01
12/19/2020 8:15:00 PM 0.12 32.216 0.112 7.07 3.18 13.97
12/19/2020 8:30:00 PM 0.12 32.216 0.112 7.07 3.08 13.94
12/19/2020 8:45:00 PM 0.12 32.216 0.112 7.06 3.23 13.91
12/19/2020 9:00:00 PM 0.13 32.234 0.112 7.05 3.14 13.88
12/19/2020 9:15:00 PM 0.13 32.234 0.112 7.05 3.14 13.87
12/19/2020 9:30:00 PM 0.12 32.216 0.112 7.05 3.13 13.85
12/19/2020 9:45:00 PM 0.12 32.216 0.112 7.04 3.21 13.83
12/19/2020 10:00:00 PM 0.12 32.216 0.112 7.04 3.1 13.82
12/19/2020 10:15:00 PM 0.12 32.216 0.112 7.03 3.2 13.8
12/19/2020 10:30:00 PM 0.12 32.216 0.112 7.03 3.12 13.79
12/19/2020 10:45:00 PM 0.12 32.216 0.112 7.03 3.12 13.78
12/19/2020 11:00:00 PM 0.13 32.234 0.112 7.03 3.16 13.77
12/19/2020 11:15:00 PM 0.13 32.234 0.112 7.03 3.08 13.76
12/19/2020 11:30:00 PM 0.13 32.234 0.112 7.02 3.13 13.75
12/19/2020 11:45:00 PM 0.13 32.234 0.112 7.02 3.06 13.75
12/20/2020 12:00:00 AM 0.13 32.234 0.112 7.02 3.11 13.74
12/20/2020 12:15:00 AM 0.13 32.234 0.112 7.02 3.11 13.74
12/20/2020 12:30:00 AM 0.14 32.252 0.112 7.02 3.1 13.72
12/20/2020 12:45:00 AM 0.14 32.252 0.113 7.02 3.09 13.72
12/20/2020 1:00:00 AM 0.13 32.234 0.112 7.01 3.09 13.72
12/20/2020 1:15:00 AM 0.12 32.216 0.112 7.01 3.09 13.71
12/20/2020 1:30:00 AM 0.12 32.216 0.112 7.01 3.08 13.71
12/20/2020 1:45:00 AM 0.13 32.234 0.112 7.01 3.06 13.71
12/20/2020 2:00:00 AM 0.13 32.234 0.112 7.01 3.1 13.7
12/20/2020 2:15:00 AM 0.13 32.234 0.112 7.01 3.08 13.69
12/20/2020 2:30:00 AM 0.13 32.234 0.112 7.01 2.97 13.69
12/20/2020 2:45:00 AM 0.13 32.234 0.112 7.01 3.17 13.69
12/20/2020 3:00:00 AM 0.13 32.234 0.112 7.01 3.01 13.69
12/20/2020 3:15:00 AM 0.13 32.234 0.112 7.01 3.15 13.69
12/20/2020 3:30:00 AM 0.14 32.252 0.112 7.01 3.05 13.68
12/20/2020 3:45:00 AM 0.14 32.252 0.112 7 3.04 13.68
12/20/2020 4:00:00 AM 0.14 32.252 0.112 7 3.06 13.68
12/20/2020 4:15:00 AM 0.14 32.252 0.113 7 3.12 13.67
12/20/2020 4:30:00 AM 0.15 32.27 0.112 7 3.08 13.67
12/20/2020 4:45:00 AM 0.15 32.27 0.112 7 3.08 13.67
12/20/2020 5:00:00 AM 0.15 32.27 0.112 7 3.12 13.67
12/20/2020 5:15:00 AM 0.15 32.27 0.112 7 3.07 13.66
12/20/2020 5:30:00 AM 0.15 32.27 0.112 7 3 13.66
12/20/2020 5:45:00 AM 0.15 32.27 0.113 7 3.11 13.65
12/20/2020 6:00:00 AM 0.15 32.27 0.112 7 3.16 13.65
12/20/2020 6:15:00 AM 0.15 32.27 0.112 7 2.94 13.65
12/20/2020 6:30:00 AM 0.15 32.27 0.112 7 2.96 13.65
12/20/2020 6:45:00 AM 0.15 32.27 0.112 7 2.95 13.65
12/20/2020 7:00:00 AM 0.16 32.288 0.112 7 3.08 13.64
12/20/2020 7:15:00 AM 0.15 32.27 0.112 7 3.01 13.64
12/20/2020 7:30:00 AM 0.16 32.288 0.112 7 2.92 13.64
12/20/2020 7:45:00 AM 0.16 32.288 0.112 7.01 2.88 13.66
12/20/2020 8:00:00 AM 0.16 32.288 0.112 7.01 2.89 13.69
12/20/2020 8:15:00 AM 0.16 32.288 0.112 7.02 2.94 13.74
12/20/2020 8:30:00 AM 0.17 32.306 0.112 7.04 2.89 13.86
12/20/2020 8:45:00 AM 0.18 32.324 0.112 7.06 2.86 13.99
12/20/2020 9:00:00 AM 0.18 32.324 0.112 7.09 2.94 14.14
12/20/2020 9:15:00 AM 0.19 32.342 0.112 7.13 2.89 14.34
12/20/2020 9:30:00 AM 0.21 32.378 0.112 7.16 2.89 14.52
12/20/2020 9:45:00 AM 0.21 32.378 0.112 7.2 2.91 14.66
12/20/2020 10:00:00 AM 0.2 32.36 0.111 7.22 2.98 14.78
12/20/2020 10:15:00 AM 0.22 32.396 0.111 7.26 2.85 14.93
12/20/2020 10:30:00 AM 0.23 32.414 0.111 7.3 2.89 15.06
12/20/2020 10:45:00 AM 0.24 32.432 0.111 7.34 2.91 15.17
12/20/2020 11:00:00 AM 0.23 32.414 0.111 7.38 2.93 15.26
12/20/2020 11:15:00 AM 0.2 32.36 0.11 7.39 2.95 15.29
12/20/2020 11:30:00 AM 0.18 32.324 0.11 7.42 2.94 15.34
12/20/2020 11:45:00 AM 0.19 32.342 0.11 7.44 2.96 15.35
12/20/2020 12:00:00 PM 0.2 32.36 0.11 7.44 2.96 15.35
12/20/2020 12:15:00 PM 0.22 32.396 0.11 7.46 2.94 15.37
12/20/2020 12:30:00 PM 0.21 32.378 0.11 7.47 2.96 15.37
12/20/2020 12:45:00 PM 0.21 32.378 0.109 7.48 2.93 15.36
12/20/2020 1:00:00 PM 0.22 32.396 0.11 7.48 2.95 15.37
12/20/2020 1:15:00 PM 0.24 32.432 0.11 7.5 2.94 15.4
12/20/2020 1:30:00 PM 0.26 32.468 0.109 7.52 2.92 15.42
12/20/2020 1:45:00 PM 0.25 32.45 0.109 7.53 3.02 15.44
12/20/2020 2:00:00 PM 0.24 32.432 0.109 7.54 2.92 15.44
12/20/2020 2:15:00 PM 0.24 32.432 0.109 7.55 2.89 15.44
12/20/2020 2:30:00 PM 0.22 32.396 0.109 7.55 2.93 15.4
12/20/2020 2:45:00 PM 0.21 32.378 0.109 7.54 2.93 15.38
12/20/2020 3:00:00 PM 0.21 32.378 0.108 7.53 2.92 15.33
12/20/2020 3:15:00 PM 0.2 32.36 0.109 7.5 2.97 15.25
12/20/2020 3:30:00 PM 0.2 32.36 0.109 7.47 2.96 15.16
12/20/2020 3:45:00 PM 0.2 32.36 0.108 7.45 2.93 15.08
12/20/2020 4:00:00 PM 0.19 32.342 0.108 7.41 2.93 14.96
12/20/2020 4:15:00 PM 0.19 32.342 0.108 7.36 2.91 14.82
12/20/2020 4:30:00 PM 0.18 32.324 0.109 7.32 2.91 14.67
12/20/2020 4:45:00 PM 0.18 32.324 0.109 7.27 2.9 14.53
12/20/2020 5:00:00 PM 0.18 32.324 0.108 7.24 2.91 14.38
12/20/2020 5:15:00 PM 0.18 32.324 0.109 7.2 2.85 14.26
12/20/2020 5:30:00 PM 0.18 32.324 0.109 7.18 2.88 14.16
12/20/2020 5:45:00 PM 0.18 32.324 0.109 7.15 2.93 14.07
12/20/2020 6:00:00 PM 0.19 32.342 0.109 7.13 2.88 14
12/20/2020 6:15:00 PM 0.18 32.324 0.109 7.12 2.88 13.94
12/20/2020 6:30:00 PM 0.18 32.324 0.108 7.11 2.89 13.89
12/20/2020 6:45:00 PM 0.18 32.324 0.109 7.09 2.87 13.84
12/20/2020 7:00:00 PM 0.18 32.324 0.109 7.09 2.87 13.81
12/20/2020 7:15:00 PM 0.18 32.324 0.109 7.08 2.88 13.79
12/20/2020 7:30:00 PM 0.18 32.324 0.109 7.07 2.82 13.77
12/20/2020 7:45:00 PM 0.18 32.324 0.109 7.07 2.87 13.75
12/20/2020 8:00:00 PM 0.18 32.324 0.109 7.06 2.86 13.73
12/20/2020 8:15:00 PM 0.17 32.306 0.108 7.06 2.89 13.72
12/20/2020 8:30:00 PM 0.17 32.306 0.108 7.05 2.82 13.7
12/20/2020 8:45:00 PM 0.17 32.306 0.109 7.05 2.81 13.69
12/20/2020 9:00:00 PM 0.17 32.306 0.108 7.04 2.84 13.69
12/20/2020 9:15:00 PM 0.18 32.324 0.109 7.04 2.85 13.68
12/20/2020 9:30:00 PM 0.18 32.324 0.109 7.04 2.8 13.67
12/20/2020 9:45:00 PM 0.16 32.288 0.108 7.04 2.79 13.66
12/20/2020 10:00:00 PM 0.16 32.288 0.109 7.04 2.79 13.66
12/20/2020 10:15:00 PM 0.16 32.288 0.108 7.04 2.84 13.66
12/20/2020 10:30:00 PM 0.16 32.288 0.109 7.03 2.86 13.66
12/20/2020 10:45:00 PM 0.17 32.306 0.109 7.04 2.85 13.65
12/20/2020 11:00:00 PM 0.18 32.324 0.109 7.03 2.87 13.65
12/20/2020 11:15:00 PM 0.18 32.324 0.109 7.03 2.79 13.64
12/20/2020 11:30:00 PM 0.18 32.324 0.109 7.03 2.81 13.65
12/20/2020 11:45:00 PM 0.18 32.324 0.109 7.03 2.82 13.63
12/21/2020 12:00:00 AM 0.18 32.324 0.109 7.03 2.87 13.64
12/21/2020 12:15:00 AM 0.18 32.324 0.109 7.03 2.81 13.63
12/21/2020 12:30:00 AM 0.18 32.324 0.109 7.03 2.78 13.63
12/21/2020 12:45:00 AM 0.18 32.324 0.109 7.03 2.81 13.63
12/21/2020 1:00:00 AM 0.18 32.324 0.109 7.03 2.84 13.63
12/21/2020 1:15:00 AM 0.18 32.324 0.109 7.02 2.86 13.63
12/21/2020 1:30:00 AM 0.18 32.324 0.109 7.03 2.86 13.62
12/21/2020 1:45:00 AM 0.18 32.324 0.109 7.03 2.79 13.63
12/21/2020 2:00:00 AM 0.18 32.324 0.109 7.02 2.82 13.62
12/21/2020 2:15:00 AM 0.18 32.324 0.109 7.02 2.84 13.62
12/21/2020 2:30:00 AM 0.18 32.324 0.11 7.02 2.81 13.62
12/21/2020 2:45:00 AM 0.18 32.324 0.11 7.03 2.82 13.62
12/21/2020 3:00:00 AM 0.18 32.324 0.109 7.02 3 13.62
12/21/2020 3:15:00 AM 0.18 32.324 0.109 7.03 2.86 13.62
12/21/2020 3:30:00 AM 0.18 32.324 0.109 7.02 2.83 13.62
12/21/2020 3:45:00 AM 0.16 32.288 0.109 7.02 2.87 13.61
12/21/2020 4:00:00 AM 0.16 32.288 0.109 7.02 2.85 13.61
12/21/2020 4:15:00 AM 0.16 32.288 0.109 7.02 2.87 13.61
12/21/2020 4:30:00 AM 0.16 32.288 0.109 7.02 2.89 13.61
12/21/2020 4:45:00 AM 0.15 32.27 0.109 7.02 2.81 13.61
12/21/2020 5:00:00 AM 0.14 32.252 0.109 7.02 2.92 13.61
12/21/2020 5:15:00 AM 0.14 32.252 0.109 7.02 2.89 13.61
12/21/2020 5:30:00 AM 0.14 32.252 0.109 7.02 2.91 13.62
12/21/2020 5:45:00 AM 0.16 32.288 0.109 7.02 2.81 13.61
12/21/2020 6:00:00 AM 0.17 32.306 0.109 7.02 2.71 13.61
12/21/2020 6:15:00 AM 0.17 32.306 0.109 7.02 2.83 13.61
12/21/2020 6:30:00 AM 0.17 32.306 0.109 7.02 2.83 13.61
12/21/2020 6:45:00 AM 0.18 32.324 0.109 7.02 2.8 13.61
12/21/2020 7:00:00 AM 0.18 32.324 0.109 7.02 2.79 13.61
12/21/2020 7:15:00 AM 0.18 32.324 0.109 7.02 2.8 13.61
12/21/2020 7:30:00 AM 0.18 32.324 0.109 7.02 2.79 13.6
12/21/2020 7:45:00 AM 0.18 32.324 0.109 7.02 2.83 13.62
12/21/2020 8:00:00 AM 0.18 32.324 0.109 7.03 2.78 13.64
12/21/2020 8:15:00 AM 0.19 32.342 0.109 7.03 2.8 13.69
12/21/2020 8:30:00 AM 0.18 32.324 0.109 7.06 2.8 13.81
12/21/2020 8:45:00 AM 0.17 32.306 0.109 7.09 4.73 13.98
12/21/2020 9:00:00 AM 0.17 32.306 0.109 7.11 2.79 14.13
12/21/2020 9:15:00 AM 0.18 32.324 0.109 7.14 2.78 14.29
12/21/2020 9:30:00 AM 0.22 32.396 0.109 7.18 2.73 14.46
12/21/2020 9:45:00 AM 0.25 32.45 0.109 7.21 2.79 14.6
12/21/2020 10:00:00 AM 0.27 32.486 0.109 7.26 2.8 14.77
12/21/2020 10:15:00 AM 0.3 32.54 0.108 7.3 2.8 14.91
12/21/2020 10:30:00 AM 0.31 32.558 0.108 7.34 2.82 15.02
12/21/2020 10:45:00 AM 0.32 32.576 0.108 7.38 2.8 15.11
12/21/2020 11:00:00 AM 0.31 32.558 0.108 7.41 2.79 15.15
12/21/2020 11:15:00 AM 0.35 32.63 0.108 7.43 2.85 15.2
12/21/2020 11:30:00 AM 0.43 32.774 0.108 7.47 2.78 15.26
12/21/2020 11:45:00 AM 0.41 32.738 0.107 7.5 2.82 15.29
12/21/2020 12:00:00 PM 0.35 32.63 0.107 7.52 2.88 15.31
12/21/2020 12:15:00 PM 0.33 32.594 0.107 7.54 2.94 15.32
12/21/2020 12:30:00 PM 0.32 32.576 0.107 7.56 2.94 15.32
12/21/2020 12:45:00 PM 0.34 32.612 0.107 7.59 2.85 15.35
12/21/2020 1:00:00 PM 0.39 32.702 0.106 7.61 2.88 15.37
12/21/2020 1:15:00 PM 0.41 32.738 0.106 7.64 2.85 15.38
12/21/2020 1:30:00 PM 0.35 32.63 0.106 7.65 2.92 15.36
12/21/2020 1:45:00 PM 0.33 32.594 0.106 7.66 2.92 15.36
12/21/2020 2:00:00 PM 0.32 32.576 0.106 7.66 2.94 15.33
12/21/2020 2:15:00 PM 0.3 32.54 0.106 7.68 2.97 15.33
12/21/2020 2:30:00 PM 0.31 32.558 0.106 7.68 2.99 15.32
12/21/2020 2:45:00 PM 0.28 32.504 0.106 7.66 2.94 15.26
12/21/2020 3:00:00 PM 0.27 32.486 0.106 7.65 3 15.22
12/21/2020 3:15:00 PM 0.25 32.45 0.106 7.63 3.02 15.15
12/21/2020 3:30:00 PM 0.24 32.432 0.106 7.6 2.91 15.08
12/21/2020 3:45:00 PM 0.24 32.432 0.107 7.58 2.95 15.04
12/21/2020 4:00:00 PM 0.25 32.45 0.106 7.56 2.92 14.99
12/21/2020 4:15:00 PM 0.23 32.414 0.106 7.52 2.95 14.9
12/21/2020 4:30:00 PM 0.22 32.396 0.106 7.46 3 14.73
12/21/2020 4:45:00 PM 0.21 32.378 0.106 7.39 3.02 14.52
12/21/2020 5:00:00 PM 0.2 32.36 0.106 7.32 3.08 14.34
12/21/2020 5:15:00 PM 0.2 32.36 0.107 7.28 3.02 14.18
12/21/2020 5:30:00 PM 0.2 32.36 0.106 7.24 3.05 14.07
12/21/2020 5:45:00 PM 0.2 32.36 0.106 7.21 3.02 13.98
12/21/2020 6:00:00 PM 0.2 32.36 0.106 7.18 3.01 13.89
12/21/2020 6:15:00 PM 0.19 32.342 0.106 7.16 3.05 13.83
12/21/2020 6:30:00 PM 0.18 32.324 0.106 7.15 2.99 13.78
12/21/2020 6:45:00 PM 0.19 32.342 0.106 7.13 2.98 13.74
12/21/2020 7:00:00 PM 0.19 32.342 0.107 7.12 2.87 13.71
12/21/2020 7:15:00 PM 0.19 32.342 0.107 7.11 2.97 13.68
12/21/2020 7:30:00 PM 0.19 32.342 0.107 7.11 2.95 13.67
12/21/2020 7:45:00 PM 0.19 32.342 0.107 7.1 3.02 13.65
12/21/2020 8:00:00 PM 0.19 32.342 0.107 7.09 2.94 13.64
12/21/2020 8:15:00 PM 0.19 32.342 0.107 7.09 2.92 13.63
12/21/2020 8:30:00 PM 0.2 32.36 0.108 7.08 2.95 13.61
12/21/2020 8:45:00 PM 0.2 32.36 0.107 7.08 2.92 13.6
12/21/2020 9:00:00 PM 0.19 32.342 0.107 7.08 3.02 13.6
12/21/2020 9:15:00 PM 0.2 32.36 0.107 7.08 2.92 13.59
12/21/2020 9:30:00 PM 0.2 32.36 0.107 7.07 2.86 13.59
12/21/2020 9:45:00 PM 0.2 32.36 0.107 7.07 3.01 13.58
12/21/2020 10:00:00 PM 0.2 32.36 0.108 7.07 2.98 13.58
12/21/2020 10:15:00 PM 0.2 32.36 0.107 7.07 3.09 13.58
12/21/2020 10:30:00 PM 0.2 32.36 0.107 7.07 3.14 13.58
12/21/2020 10:45:00 PM 0.2 32.36 0.107 7.07 3.03 13.57
12/21/2020 11:00:00 PM 0.2 32.36 0.108 7.07 3 13.57
12/21/2020 11:15:00 PM 0.2 32.36 0.108 7.07 2.98 13.57
12/21/2020 11:30:00 PM 0.2 32.36 0.108 7.07 2.99 13.56
12/21/2020 11:45:00 PM 0.2 32.36 0.108 7.06 2.99 13.56
12/22/2020 12:00:00 AM 0.2 32.36 0.107 7.06 2.89 13.56
12/22/2020 12:15:00 AM 0.2 32.36 0.108 7.06 2.98 13.55
12/22/2020 12:30:00 AM 0.2 32.36 0.108 7.06 2.94 13.55
12/22/2020 12:45:00 AM 0.2 32.36 0.108 7.06 2.91 13.55
12/22/2020 1:00:00 AM 0.2 32.36 0.108 7.06 2.91 13.54
12/22/2020 1:15:00 AM 0.2 32.36 0.108 7.06 2.91 13.54
12/22/2020 1:30:00 AM 0.2 32.36 0.108 7.06 2.91 13.54
12/22/2020 1:45:00 AM 0.2 32.36 0.109 7.06 2.96 13.54
12/22/2020 2:00:00 AM 0.2 32.36 0.108 7.06 2.84 13.54
12/22/2020 2:15:00 AM 0.2 32.36 0.108 7.06 2.92 13.54
12/22/2020 2:30:00 AM 0.2 32.36 0.108 7.06 2.93 13.53
12/22/2020 2:45:00 AM 0.19 32.342 0.108 7.06 2.88 13.54
12/22/2020 3:00:00 AM 0.18 32.324 0.108 7.06 2.87 13.54
12/22/2020 3:15:00 AM 0.17 32.306 0.108 7.06 2.89 13.54
12/22/2020 3:30:00 AM 0.16 32.288 0.109 7.06 2.92 13.54
12/22/2020 3:45:00 AM 0.16 32.288 0.108 7.06 2.92 13.54
12/22/2020 4:00:00 AM 0.17 32.306 0.108 7.06 2.86 13.54
12/22/2020 4:15:00 AM 0.16 32.288 0.109 7.06 2.9 13.54
12/22/2020 4:30:00 AM 0.16 32.288 0.109 7.05 2.97 13.54
12/22/2020 4:45:00 AM 0.18 32.324 0.109 7.05 2.89 13.55
12/22/2020 5:00:00 AM 0.19 32.342 0.109 7.06 2.89 13.55
12/22/2020 5:15:00 AM 0.19 32.342 0.109 7.06 2.87 13.55
12/22/2020 5:30:00 AM 0.2 32.36 0.109 7.06 2.9 13.54
12/22/2020 5:45:00 AM 0.2 32.36 0.109 7.06 2.87 13.54
12/22/2020 6:00:00 AM 0.19 32.342 0.109 7.06 2.88 13.54
12/22/2020 6:15:00 AM 0.19 32.342 0.109 7.05 2.9 13.54
12/22/2020 6:30:00 AM 0.2 32.36 0.109 7.06 2.87 13.54
12/22/2020 6:45:00 AM 0.2 32.36 0.109 7.06 2.85 13.55
12/22/2020 7:00:00 AM 0.2 32.36 0.109 7.06 2.84 13.55
12/22/2020 7:15:00 AM 0.2 32.36 0.109 7.06 2.86 13.54
12/22/2020 7:30:00 AM 0.21 32.378 0.109 7.06 2.85 13.54
12/22/2020 7:45:00 AM 0.21 32.378 0.109 7.06 2.79 13.55
12/22/2020 8:00:00 AM 0.22 32.396 0.109 7.06 2.86 13.58
12/22/2020 8:15:00 AM 0.22 32.396 0.11 7.07 2.83 13.64
12/22/2020 8:30:00 AM 0.22 32.396 0.11 7.09 2.84 13.72
12/22/2020 8:45:00 AM 0.23 32.414 0.11 7.11 2.84 13.83
12/22/2020 9:00:00 AM 0.24 32.432 0.11 7.14 2.85 13.96
12/22/2020 9:15:00 AM 0.25 32.45 0.11 7.15 2.8 14.02
12/22/2020 9:30:00 AM 0.27 32.486 0.109 7.19 2.83 14.2
12/22/2020 9:45:00 AM 0.29 32.522 0.11 7.23 2.89 14.37
12/22/2020 10:00:00 AM 0.29 32.522 0.109 7.27 2.86 14.49
12/22/2020 10:15:00 AM 0.29 32.522 0.109 7.3 2.86 14.58
12/22/2020 10:30:00 AM 0.27 32.486 0.109 7.32 2.87 14.62
12/22/2020 10:45:00 AM 0.29 32.522 0.109 7.34 2.87 14.67
12/22/2020 11:00:00 AM 0.34 32.612 0.109 7.38 2.84 14.82
12/22/2020 11:15:00 AM 0.35 32.63 0.108 7.43 2.84 14.93
12/22/2020 11:30:00 AM 0.37 32.666 0.108 7.48 2.93 15.05
12/22/2020 11:45:00 AM 0.41 32.738 0.108 7.52 2.86 15.12
12/22/2020 12:00:00 PM 0.4 32.72 0.108 7.56 2.89 15.14
12/22/2020 12:15:00 PM 0.38 32.684 0.108 7.57 2.84 15.15
12/22/2020 12:30:00 PM 0.38 32.684 0.108 7.57 2.99 15.12
12/22/2020 12:45:00 PM 0.35 32.63 0.108 7.56 2.91 15.04
12/22/2020 1:00:00 PM 0.36 32.648 0.108 7.57 2.94 15.05
12/22/2020 1:15:00 PM 0.39 32.702 0.108 7.58 2.97 15.05
12/22/2020 1:30:00 PM 0.36 32.648 0.108 7.56 2.93 14.98
12/22/2020 1:45:00 PM 0.36 32.648 0.108 7.55 2.9 14.95
12/22/2020 2:00:00 PM 0.36 32.648 0.107 7.54 2.91 14.92
12/22/2020 2:15:00 PM 0.36 32.648 0.107 7.53 2.9 14.88
12/22/2020 2:30:00 PM 0.37 32.666 0.108 7.54 2.93 14.92
12/22/2020 2:45:00 PM 0.4 32.72 0.107 7.56 2.92 14.96
12/22/2020 3:00:00 PM 0.4 32.72 0.107 7.56 2.95 14.96
12/22/2020 3:15:00 PM 0.4 32.72 0.107 7.56 2.93 14.93
12/22/2020 3:30:00 PM 0.4 32.72 0.107 7.54 2.94 14.88
12/22/2020 3:45:00 PM 0.39 32.702 0.107 7.5 2.93 14.77
12/22/2020 4:00:00 PM 0.38 32.684 0.107 7.45 2.93 14.63
12/22/2020 4:15:00 PM 0.38 32.684 0.108 7.4 2.99 14.49
12/22/2020 4:30:00 PM 0.39 32.702 0.107 7.35 2.95 14.35
12/22/2020 4:45:00 PM 0.39 32.702 0.108 7.31 2.89 14.22
12/22/2020 5:00:00 PM 0.39 32.702 0.108 7.27 2.9 14.1
12/22/2020 5:15:00 PM 0.4 32.72 0.108 7.23 2.82 13.99
12/22/2020 5:30:00 PM 0.4 32.72 0.108 7.21 2.86 13.92
12/22/2020 5:45:00 PM 0.4 32.72 0.108 7.19 2.86 13.85
12/22/2020 6:00:00 PM 0.41 32.738 0.108 7.17 2.89 13.8
12/22/2020 6:15:00 PM 0.41 32.738 0.108 7.16 2.91 13.76
12/22/2020 6:30:00 PM 0.42 32.756 0.109 7.15 2.88 13.74
12/22/2020 6:45:00 PM 0.42 32.756 0.108 7.14 2.87 13.72
12/22/2020 7:00:00 PM 0.43 32.774 0.108 7.13 2.87 13.7
12/22/2020 7:15:00 PM 0.44 32.792 0.109 7.13 2.84 13.68
12/22/2020 7:30:00 PM 0.44 32.792 0.109 7.12 2.86 13.68
12/22/2020 7:45:00 PM 0.45 32.81 0.108 7.12 2.84 13.68
12/22/2020 8:00:00 PM 0.46 32.828 0.109 7.11 2.74 13.67
12/22/2020 8:15:00 PM 0.47 32.846 0.109 7.11 2.81 13.66
12/22/2020 8:30:00 PM 0.47 32.846 0.109 7.11 2.88 13.67
12/22/2020 8:45:00 PM 0.46 32.828 0.109 7.11 2.88 13.67
12/22/2020 9:00:00 PM 0.46 32.828 0.109 7.11 2.86 13.68
12/22/2020 9:15:00 PM 0.47 32.846 0.109 7.11 2.87 13.68
12/22/2020 9:30:00 PM 0.47 32.846 0.109 7.11 2.82 13.69
12/22/2020 9:45:00 PM 0.48 32.864 0.109 7.1 2.87 13.68
12/22/2020 10:00:00 PM 0.49 32.882 0.109 7.1 2.87 13.68
12/22/2020 10:15:00 PM 0.5 32.9 0.11 7.1 2.83 13.68
12/22/2020 10:30:00 PM 0.5 32.9 0.109 7.1 2.89 13.68
12/22/2020 10:45:00 PM 0.5 32.9 0.11 7.1 2.82 13.69
12/22/2020 11:00:00 PM 0.5 32.9 0.11 7.1 2.82 13.69
12/22/2020 11:15:00 PM 0.51 32.918 0.11 7.1 2.87 13.69
12/22/2020 11:30:00 PM 0.51 32.918 0.11 7.1 2.85 13.69
12/22/2020 11:45:00 PM 0.51 32.918 0.11 7.1 2.85 13.69
12/23/2020 12:00:00 AM 0.51 32.918 0.11 7.1 2.85 13.7
12/23/2020 12:15:00 AM 0.51 32.918 0.111 7.1 2.83 13.7
12/23/2020 12:30:00 AM 0.51 32.918 0.11 7.1 2.87 13.7
12/23/2020 12:45:00 AM 0.52 32.936 0.11 7.1 2.8 13.7
12/23/2020 1:00:00 AM 0.53 32.954 0.111 7.1 2.82 13.7
12/23/2020 1:15:00 AM 0.53 32.954 0.11 7.1 2.81 13.7
12/23/2020 1:30:00 AM 0.53 32.954 0.11 7.1 2.79 13.7
12/23/2020 1:45:00 AM 0.53 32.954 0.111 7.09 2.85 13.7
12/23/2020 2:00:00 AM 0.52 32.936 0.111 7.09 2.83 13.69
12/23/2020 2:15:00 AM 0.51 32.918 0.111 7.09 2.85 13.7
12/23/2020 2:30:00 AM 0.52 32.936 0.111 7.09 2.82 13.7
12/23/2020 2:45:00 AM 0.51 32.918 0.11 7.09 2.82 13.71
12/23/2020 3:00:00 AM 0.5 32.9 0.11 7.09 2.87 13.71
12/23/2020 3:15:00 AM 0.51 32.918 0.111 7.09 2.82 13.71
12/23/2020 3:30:00 AM 0.51 32.918 0.11 7.09 2.84 13.72
12/23/2020 3:45:00 AM 0.5 32.9 0.111 7.09 2.81 13.72
12/23/2020 4:00:00 AM 0.48 32.864 0.11 7.09 2.82 13.72
12/23/2020 4:15:00 AM 0.47 32.846 0.111 7.09 2.85 13.73
12/23/2020 4:30:00 AM 0.47 32.846 0.111 7.09 2.82 13.74
12/23/2020 4:45:00 AM 0.46 32.828 0.111 7.09 2.82 13.74
12/23/2020 5:00:00 AM 0.46 32.828 0.11 7.08 2.81 13.74
12/23/2020 5:15:00 AM 0.45 32.81 0.11 7.08 2.84 13.75
12/23/2020 5:30:00 AM 0.45 32.81 0.111 7.08 2.8 13.75
12/23/2020 5:45:00 AM 0.44 32.792 0.11 7.08 2.81 13.76
12/23/2020 6:00:00 AM 0.42 32.756 0.111 7.08 2.83 13.77
12/23/2020 6:15:00 AM 0.39 32.702 0.111 7.08 2.78 13.77
12/23/2020 6:30:00 AM 0.37 32.666 0.111 7.08 2.8 13.78
12/23/2020 6:45:00 AM 0.35 32.63 0.111 7.08 2.82 13.79
12/23/2020 7:00:00 AM 0.33 32.594 0.111 7.08 2.83 13.8
12/23/2020 7:15:00 AM 0.31 32.558 0.111 7.08 2.77 13.8
12/23/2020 7:30:00 AM 0.29 32.522 0.111 7.08 2.87 13.82
12/23/2020 7:45:00 AM 0.27 32.486 0.111 7.09 2.85 13.88
12/23/2020 8:00:00 AM 0.26 32.468 0.111 7.1 2.86 13.98
12/23/2020 8:15:00 AM 0.27 32.486 0.111 7.13 2.84 14.13
12/23/2020 8:30:00 AM 0.28 32.504 0.111 7.17 2.9 14.33
12/23/2020 8:45:00 AM 0.31 32.558 0.111 7.2 2.83 14.5
12/23/2020 9:00:00 AM 0.32 32.576 0.111 7.24 2.8 14.65
12/23/2020 9:15:00 AM 0.32 32.576 0.111 7.27 2.82 14.74
12/23/2020 9:30:00 AM 0.35 32.63 0.111 7.3 2.82 14.85
12/23/2020 9:45:00 AM 0.4 32.72 0.111 7.34 3.31 14.97
12/23/2020 10:00:00 AM 0.46 32.828 0.111 7.38 2.8 15.1
12/23/2020 10:15:00 AM 0.51 32.918 0.111 7.42 2.8 15.2
12/23/2020 10:30:00 AM 0.56 33.008 0.111 7.46 2.87 15.29
12/23/2020 10:45:00 AM 0.65 33.17 0.11 7.51 2.81 15.37
12/23/2020 11:00:00 AM 0.72 33.296 0.11 7.54 2.79 15.4
12/23/2020 11:15:00 AM 0.78 33.404 0.11 7.57 2.82 15.4
12/23/2020 11:30:00 AM 0.83 33.494 0.11 7.59 2.82 15.41
12/23/2020 11:45:00 AM 0.88 33.584 0.111 7.61 2.82 15.43
12/23/2020 12:00:00 PM 0.91 33.638 0.111 7.62 2.82 15.42
12/23/2020 12:15:00 PM 0.95 33.71 0.11 7.65 2.8 15.42
12/23/2020 12:30:00 PM 1.02 33.836 0.11 7.66 2.8 15.42
12/23/2020 12:45:00 PM 1.1 33.98 0.11 7.69 2.79 15.4
12/23/2020 1:00:00 PM 1.16 34.088 0.109 7.71 2.78 15.39
12/23/2020 1:15:00 PM 1.22 34.196 0.11 7.73 2.79 15.36
12/23/2020 1:30:00 PM 1.26 34.268 0.11 7.74 2.84 15.34
12/23/2020 1:45:00 PM 1.31 34.358 0.109 7.76 2.83 15.32
12/23/2020 2:00:00 PM 1.36 34.448 0.109 7.77 2.82 15.3
12/23/2020 2:15:00 PM 1.38 34.484 0.109 7.78 2.83 15.27
12/23/2020 2:30:00 PM 1.38 34.484 0.109 7.77 2.82 15.23
12/23/2020 2:45:00 PM 1.38 34.484 0.109 7.76 2.8 15.19
12/23/2020 3:00:00 PM 1.32 34.376 0.109 7.76 2.78 15.17
12/23/2020 3:15:00 PM 1.28 34.304 0.109 7.75 2.86 15.13
12/23/2020 3:30:00 PM 1.28 34.304 0.109 7.73 2.82 15.08
12/23/2020 3:45:00 PM 1.26 34.268 0.109 7.7 2.96 15.01
12/23/2020 4:00:00 PM 1.22 34.196 0.109 7.66 3.08 14.92
12/23/2020 4:15:00 PM 1.18 34.124 0.109 7.6 3.09 14.82
12/23/2020 4:30:00 PM 1.15 34.07 0.11 7.52 3.22 14.65
12/23/2020 4:45:00 PM 1.12 34.016 0.109 7.47 3.21 14.51
12/23/2020 5:00:00 PM 1.08 33.944 0.11 7.38 3.16 14.29
12/23/2020 5:15:00 PM 1.04 33.872 0.11 7.32 3.2 14.13
12/23/2020 5:30:00 PM 1.01 33.818 0.11 7.28 3.09 14
12/23/2020 5:45:00 PM 0.98 33.764 0.11 7.24 3.13 13.91
12/23/2020 6:00:00 PM 0.96 33.728 0.11 7.22 3.12 13.84
12/23/2020 6:15:00 PM 0.95 33.71 0.11 7.2 3.03 13.77
12/23/2020 6:30:00 PM 0.93 33.674 0.111 7.18 3.08 13.73
12/23/2020 6:45:00 PM 0.91 33.638 0.111 7.17 2.98 13.7
12/23/2020 7:00:00 PM 0.9 33.62 0.111 7.15 2.96 13.67
12/23/2020 7:15:00 PM 0.9 33.62 0.111 7.15 2.94 13.65
12/23/2020 7:30:00 PM 0.89 33.602 0.111 7.14 3.01 13.64
12/23/2020 7:45:00 PM 0.89 33.602 0.111 7.13 2.95 13.63
12/23/2020 8:00:00 PM 0.88 33.584 0.111 7.13 2.96 13.62
12/23/2020 8:15:00 PM 0.88 33.584 0.111 7.12 2.86 13.61
12/23/2020 8:30:00 PM 0.89 33.602 0.111 7.12 2.87 13.6
12/23/2020 8:45:00 PM 0.88 33.584 0.111 7.12 2.88 13.6
12/23/2020 9:00:00 PM 0.89 33.602 0.111 7.11 2.94 13.6
12/23/2020 9:15:00 PM 0.9 33.62 0.111 7.11 2.78 13.58
12/23/2020 9:30:00 PM 0.9 33.62 0.111 7.11 2.87 13.58
12/23/2020 9:45:00 PM 0.91 33.638 0.111 7.11 2.83 13.57
12/23/2020 10:00:00 PM 0.92 33.656 0.111 7.11 2.87 13.57
12/23/2020 10:15:00 PM 0.93 33.674 0.112 7.11 2.82 13.56
12/23/2020 10:30:00 PM 0.93 33.674 0.112 7.1 2.81 13.55
12/23/2020 10:45:00 PM 0.92 33.656 0.111 7.1 2.81 13.56
12/23/2020 11:00:00 PM 0.92 33.656 0.112 7.1 2.81 13.56
12/23/2020 11:15:00 PM 0.93 33.674 0.112 7.1 2.85 13.56
12/23/2020 11:30:00 PM 0.94 33.692 0.111 7.1 2.77 13.56
12/23/2020 11:45:00 PM 0.94 33.692 0.112 7.1 2.71 13.54
12/24/2020 12:00:00 AM 0.95 33.71 0.111 7.1 2.86 13.54
12/24/2020 12:15:00 AM 0.96 33.728 0.112 7.1 2.79 13.54
12/24/2020 12:30:00 AM 0.97 33.746 0.112 7.1 2.79 13.53
12/24/2020 12:45:00 AM 0.97 33.746 0.111 7.1 2.79 13.53
12/24/2020 1:00:00 AM 0.98 33.764 0.112 7.1 2.79 13.53
12/24/2020 1:15:00 AM 0.98 33.764 0.111 7.1 2.79 13.52
12/24/2020 1:30:00 AM 0.98 33.764 0.112 7.1 2.82 13.52
12/24/2020 1:45:00 AM 0.97 33.746 0.111 7.1 2.81 13.5
12/24/2020 2:00:00 AM 0.97 33.746 0.111 7.1 2.78 13.51
12/24/2020 2:15:00 AM 0.97 33.746 0.112 7.1 2.72 13.51
12/24/2020 2:30:00 AM 0.97 33.746 0.112 7.1 2.8 13.52
12/24/2020 2:45:00 AM 0.96 33.728 0.112 7.1 2.84 13.51
12/24/2020 3:00:00 AM 0.95 33.71 0.111 7.1 2.75 13.51
12/24/2020 3:15:00 AM 0.95 33.71 0.112 7.1 2.75 13.5
12/24/2020 3:30:00 AM 0.98 33.764 0.112 7.1 2.78 13.5
12/24/2020 3:45:00 AM 1.01 33.818 0.112 7.1 2.76 13.5
12/24/2020 4:00:00 AM 1.03 33.854 0.112 7.09 2.83 13.49
12/24/2020 4:15:00 AM 1.05 33.89 0.112 7.09 2.98 13.48
12/24/2020 4:30:00 AM 1.08 33.944 0.112 7.1 2.87 13.48
12/24/2020 4:45:00 AM 1.09 33.962 0.112 7.1 2.91 13.47
12/24/2020 5:00:00 AM 1.11 33.998 0.112 7.1 2.91 13.46
12/24/2020 5:15:00 AM 1.14 34.052 0.112 7.09 2.89 13.45
12/24/2020 5:30:00 AM 1.14 34.052 0.112 7.1 2.89 13.44
12/24/2020 5:45:00 AM 1.17 34.106 0.112 7.1 2.93 13.43
12/24/2020 6:00:00 AM 1.2 34.16 0.112 7.1 2.78 13.42
12/24/2020 6:15:00 AM 1.22 34.196 0.112 7.1 2.89 13.41
12/24/2020 6:30:00 AM 1.25 34.25 0.112 7.1 2.85 13.4
12/24/2020 6:45:00 AM 1.26 34.268 0.112 7.1 2.87 13.39
12/24/2020 7:00:00 AM 1.26 34.268 0.112 7.1 2.95 13.39
12/24/2020 7:15:00 AM 1.29 34.322 0.112 7.1 2.93 13.37
12/24/2020 7:30:00 AM 1.34 34.412 0.112 7.1 2.86 13.36
12/24/2020 7:45:00 AM 1.38 34.484 0.112 7.1 3.06 13.36
12/24/2020 8:00:00 AM 1.4 34.52 0.112 7.11 3.04 13.37
12/24/2020 8:15:00 AM 1.43 34.574 0.112 7.12 3.08 13.4
12/24/2020 8:30:00 AM 1.44 34.592 0.112 7.12 3.31 13.43
12/24/2020 8:45:00 AM 1.47 34.646 0.112 7.14 3.75 13.49
12/24/2020 9:00:00 AM 1.49 34.682 0.112 7.15 4.06 13.58
12/24/2020 9:15:00 AM 1.5 34.7 0.112 7.17 4.22 13.65
12/24/2020 9:30:00 AM 1.51 34.718 0.111 7.19 4.76 13.74
12/24/2020 9:45:00 AM 1.52 34.736 0.111 7.23 4.48 13.91
12/24/2020 10:00:00 AM 1.57 34.826 0.111 7.29 6.05 14.12
12/24/2020 10:15:00 AM 1.6 34.88 0.111 7.33 6.48 14.24
12/24/2020 10:30:00 AM 1.61 34.898 0.11 7.37 6.96 14.36
12/24/2020 10:45:00 AM 1.63 34.934 0.11 7.42 7.79 14.47
12/24/2020 11:00:00 AM 1.65 34.97 0.11 7.46 7.78 14.55
12/24/2020 11:15:00 AM 1.65 34.97 0.109 7.5 8.7 14.62
12/24/2020 11:30:00 AM 1.67 35.006 0.109 7.52 9.13 14.62
12/24/2020 11:45:00 AM 1.66 34.988 0.108 7.54 9.53 14.62
12/24/2020 12:00:00 PM 1.62 34.916 0.108 7.57 14.12 14.63
12/24/2020 12:15:00 PM 1.58 34.844 0.108 7.58 16.65 14.61
12/24/2020 12:30:00 PM 1.54 34.772 0.108 7.58 23.46 14.57
12/24/2020 12:45:00 PM 1.5 34.7 0.107 7.58 25.95 14.54
12/24/2020 1:00:00 PM 1.43 34.574 0.107 7.57 30.89 14.49
12/24/2020 1:15:00 PM 1.35 34.43 0.106 7.55 34.52 14.42
12/24/2020 1:30:00 PM 1.28 34.304 0.105 7.52 39.43 14.35
12/24/2020 1:45:00 PM 1.2 34.16 0.104 7.48 47.73 14.26
12/24/2020 2:00:00 PM 1.1 33.98 0.103 7.43 64.05 14.15
12/24/2020 2:15:00 PM 0.97 33.746 0.102 7.38 64.61 14.06
12/24/2020 2:30:00 PM 0.86 33.548 0.101 7.35 161.89 14
12/24/2020 2:45:00 PM 0.73 33.314 0.101 7.32 91.27 13.95
12/24/2020 3:00:00 PM 0.6 33.08 0.1 7.28 106.81 13.92
12/24/2020 3:15:00 PM 0.47 32.846 0.098 7.24 180.84 13.89
12/24/2020 3:30:00 PM 0.4 32.72 0.096 7.22 159.62 13.89
12/24/2020 3:45:00 PM 0.29 32.522 0.093 7.17 207.09 13.9
12/24/2020 4:00:00 PM 0.17 32.306 0.091 7.13 242.66 13.93
12/24/2020 4:15:00 PM 0.06 32.108 0.089 7.04 320.28 13.96
12/24/2020 4:30:00 PM 0.1 32.18 0.087 7.01 358.09 13.99
12/24/2020 4:45:00 PM 0.08 32.144 0.085 6.93 315.28 14
12/24/2020 5:00:00 PM 0.06 32.108 0.081 6.85 369.71 14.03
12/24/2020 5:15:00 PM 0.1 32.18 0.079 6.85 400.56 14.03
12/24/2020 5:30:00 PM 0.12 32.216 0.077 6.8 360.89 14.05
12/24/2020 5:45:00 PM 0.17 32.306 0.072 6.81 361.58 14.06
12/24/2020 6:00:00 PM 0.17 32.306 0.07 6.76 399.66 14.05
12/24/2020 6:15:00 PM 0.2 32.36 0.068 6.78 422.86 14.05
12/24/2020 6:30:00 PM 0.25 32.45 0.067 6.79 497.56 14.05
12/24/2020 6:45:00 PM 0.28 32.504 0.064 6.78 455.49 14.04
12/24/2020 7:00:00 PM 0.34 32.612 0.062 6.77 408.04 14.02
12/24/2020 7:15:00 PM 0.38 32.684 0.06 6.76 422.21 14
12/24/2020 7:30:00 PM 0.45 32.81 0.057 6.77 421.91 13.98
12/24/2020 7:45:00 PM 0.51 32.918 0.057 6.76 388.82 13.96
12/24/2020 8:00:00 PM 0.54 32.972 0.056 6.71 330.74 13.95
12/24/2020 8:15:00 PM 0.58 33.044 0.055 6.71 550.27 13.93
12/24/2020 8:30:00 PM 0.62 33.116 0.054 6.68 550.41 13.92
12/24/2020 8:45:00 PM 0.65 33.17 0.053 6.69 490.38 13.9
12/24/2020 9:00:00 PM 0.69 33.242 0.051 6.67 478.24 13.89
12/24/2020 9:15:00 PM 0.75 33.35 0.05 6.66 709.51 13.88
12/24/2020 9:30:00 PM 0.81 33.458 0.05 6.67 426.81 13.86
12/24/2020 9:45:00 PM 0.86 33.548 0.05 6.66 445.71 13.84
12/24/2020 10:00:00 PM 0.93 33.674 0.049 6.67 365.42 13.82
12/24/2020 10:15:00 PM 1.01 33.818 0.049 6.65 385.65 13.79
12/24/2020 10:30:00 PM 1.09 33.962 0.049 6.67 380.39 13.76
12/24/2020 10:45:00 PM 1.2 34.16 0.049 6.69 320.47 13.72
12/24/2020 11:00:00 PM 1.31 34.358 0.049 6.66 372.74 13.68
12/24/2020 11:15:00 PM 1.41 34.538 0.048 6.67 304.25 13.64
12/24/2020 11:30:00 PM 1.49 34.682 0.049 6.65 342.31 13.6
12/24/2020 11:45:00 PM 1.55 34.79 0.048 6.62 427.55 13.57
12/25/2020 12:00:00 AM 1.58 34.844 0.048 6.6 431.1 13.54
12/25/2020 12:15:00 AM 1.62 34.916 0.047 6.55 727.91 13.53
12/25/2020 12:30:00 AM 1.63 34.934 0.047 6.62 555.09 13.52
12/25/2020 12:45:00 AM 1.66 34.988 0.046 6.55 495.08 13.51
12/25/2020 1:00:00 AM 1.71 35.078 0.046 6.57 1168.9 13.49
12/25/2020 1:15:00 AM 1.78 35.204 0.046 6.67 592.14 13.46
12/25/2020 1:30:00 AM 1.87 35.366 0.045 6.6 452.02 13.43
12/25/2020 1:45:00 AM 1.98 35.564 0.045 6.59 429.82 13.39
12/25/2020 2:00:00 AM 2.09 35.762 0.046 6.64 394.48 13.35
12/25/2020 2:15:00 AM 2.22 35.996 0.046 6.68 367.78 13.3
12/25/2020 2:30:00 AM 2.36 36.248 0.046 6.69 319.63 13.26
12/25/2020 2:45:00 AM 2.58 36.644 0.046 6.67 327.67 13.19
12/25/2020 3:00:00 AM 2.75 36.95 0.047 6.65 342.84 13.13
12/25/2020 3:15:00 AM 2.88 37.184 0.046 6.62 553.12 13.08
12/25/2020 3:30:00 AM 2.87 37.166 0.044 6.69 752.97 13.07
12/25/2020 3:45:00 AM 2.76 36.968 0.042 6.63 1083.44 13.03
12/25/2020 4:00:00 AM 2.66 36.788 0.042 6.6 1045.93 13.09
12/25/2020 4:15:00 AM 2.55 36.59 0.041 6.6 1265.15 13.15
12/25/2020 4:30:00 AM 2.52 36.536 0.04 6.6 1034.54 13.18
12/25/2020 4:45:00 AM 2.57 36.626 0.041 6.58 834.92 13.18
12/25/2020 5:00:00 AM 2.65 36.77 0.041 6.56 935.08 13.14
12/25/2020 5:15:00 AM 2.74 36.932 0.038 6.56 30.58 13.12
12/25/2020 5:30:00 AM 2.85 37.13 0.033 6.61 22.71 13.09
12/25/2020 5:45:00 AM 2.94 37.292 0.035 6.61 131.49 12.99
12/25/2020 6:00:00 AM 3.04 37.472 0.038 6.54 254.99 13.03
12/25/2020 6:15:00 AM 3.12 37.616 0.036 6.56 649.69 13
12/25/2020 6:30:00 AM 3.2 37.76 0.03 6.55 3698.99 12.98
12/25/2020 6:45:00 AM 3.26 37.868 0.044 6.55 2896.82 12.96
12/25/2020 7:00:00 AM 3.32 37.976 0.044 6.55 1120.94 12.93
12/25/2020 7:15:00 AM 3.39 38.102 0.045 6.55 351.69 12.91
12/25/2020 7:30:00 AM 3.44 38.192 0.045 6.57 331.58 12.89
12/25/2020 7:45:00 AM 3.49 38.282 0.046 6.57 428.91 12.87
12/25/2020 8:00:00 AM 3.52 38.336 0.046 6.61 250.34 12.86
12/25/2020 8:15:00 AM 3.54 38.372 0.046 6.62 477.51 12.86
12/25/2020 8:30:00 AM 3.55 38.39 0.047 6.61 313.3 12.85
12/25/2020 8:45:00 AM 3.56 38.408 0.047 6.59 212.24 12.84
12/25/2020 9:00:00 AM 3.56 38.408 0.048 6.62 287.14 12.85
12/25/2020 9:15:00 AM 3.56 38.408 0.048 6.65 240.04 12.86
12/25/2020 9:30:00 AM 3.56 38.408 0.03 6.6 272.13 12.86
12/25/2020 9:45:00 AM 3.56 38.408 0.032 6.59 195.12 12.85
12/25/2020 10:00:00 AM 3.56 38.408 0.03 6.66 202.55 12.86
12/25/2020 10:15:00 AM 3.56 38.408 0.049 6.59 309.73 12.86
12/25/2020 10:30:00 AM 3.55 38.39 0.049 6.6 213.72 12.85
12/25/2020 10:45:00 AM 3.52 38.336 0.05 6.64 154.01 12.86
12/25/2020 11:00:00 AM 3.49 38.282 0.05 6.61 373.95 12.87
12/25/2020 11:15:00 AM 3.46 38.228 0.05 6.68 199.68 12.87
12/25/2020 11:30:00 AM 3.44 38.192 0.051 6.64 177.35 12.89
12/25/2020 11:45:00 AM 3.42 38.156 0.051 6.65 125.75 12.9
12/25/2020 12:00:00 PM 3.4 38.12 0.051 6.7 199.37 12.9
12/25/2020 12:15:00 PM 3.4 38.12 0.051 6.66 232.46 12.9
12/25/2020 12:30:00 PM 3.4 38.12 0.051 6.65 599.75 12.9
12/25/2020 12:45:00 PM 3.4 38.12 0.051 6.67 167.19 12.9
12/25/2020 1:00:00 PM 3.4 38.12 0.051 6.67 111.96 12.89
12/25/2020 1:15:00 PM 3.4 38.12 0.051 6.68 130.35 12.9
12/25/2020 1:30:00 PM 3.4 38.12 0.052 6.68 128.4 12.89
12/25/2020 1:45:00 PM 3.4 38.12 0.052 6.68 123.43 12.89
12/25/2020 2:00:00 PM 3.4 38.12 0.052 6.68 114.05 12.89
12/25/2020 2:15:00 PM 3.41 38.138 0.052 6.7 114.25 12.88
12/25/2020 2:30:00 PM 3.41 38.138 0.053 6.71 121.11 12.88
12/25/2020 2:45:00 PM 3.41 38.138 0.053 6.71 129.16 12.89
12/25/2020 3:00:00 PM 3.42 38.156 0.053 6.7 116.92 12.89
12/25/2020 3:15:00 PM 3.4 38.12 0.054 6.7 147.69 12.88
12/25/2020 3:30:00 PM 3.39 38.102 0.054 6.69 114.48 12.89
12/25/2020 3:45:00 PM 3.38 38.084 0.054 6.7 119.05 12.88
12/25/2020 4:00:00 PM 3.36 38.048 0.055 6.71 67.16 12.89
12/25/2020 4:15:00 PM 3.34 38.012 0.055 6.69 86.59 12.9
12/25/2020 4:30:00 PM 3.32 37.976 0.056 6.69 91.32 12.9
12/25/2020 4:45:00 PM 3.3 37.94 0.056 6.68 82.1 12.91
12/25/2020 5:00:00 PM 3.28 37.904 0.056 6.7 75.38 12.92
12/25/2020 5:15:00 PM 3.26 37.868 0.056 6.71 86.04 12.93
12/25/2020 5:30:00 PM 3.23 37.814 0.056 6.7 125.74 12.94
12/25/2020 5:45:00 PM 3.21 37.778 0.057 6.72 94.66 12.95
12/25/2020 6:00:00 PM 3.19 37.742 0.057 6.72 59.85 12.96
12/25/2020 6:15:00 PM 3.17 37.706 0.057 6.71 96.98 12.96
12/25/2020 6:30:00 PM 3.14 37.652 0.057 6.71 76.26 12.97
12/25/2020 6:45:00 PM 3.12 37.616 0.058 6.72 73.76 12.98
12/25/2020 7:00:00 PM 3.1 37.58 0.058 6.71 64.93 12.99
12/25/2020 7:15:00 PM 3.07 37.526 0.058 6.72 86.76 13
12/25/2020 7:30:00 PM 3.04 37.472 0.059 6.72 75.63 13
12/25/2020 7:45:00 PM 3.01 37.418 0.059 6.73 63.1 13.02
12/25/2020 8:00:00 PM 2.97 37.346 0.059 6.73 107.57 13.03
12/25/2020 8:15:00 PM 2.93 37.274 0.059 6.73 67.96 13.05
12/25/2020 8:30:00 PM 2.89 37.202 0.059 6.74 65.58 13.07
12/25/2020 8:45:00 PM 2.84 37.112 0.059 6.75 71.24 13.08
12/25/2020 9:00:00 PM 2.8 37.04 0.059 6.75 45.96 13.1
12/25/2020 9:15:00 PM 2.74 36.932 0.06 6.74 53.13 13.12
12/25/2020 9:30:00 PM 2.7 36.86 0.06 6.75 82.93 13.14
12/25/2020 9:45:00 PM 2.65 36.77 0.06 6.75 44.01 13.16
12/25/2020 10:00:00 PM 2.61 36.698 0.06 6.75 61.17 13.17
12/25/2020 10:15:00 PM 2.57 36.626 0.06 6.76 50.57 13.19
12/25/2020 10:30:00 PM 2.54 36.572 0.061 6.75 106.09 13.21
12/25/2020 10:45:00 PM 2.51 36.518 0.061 6.76 44.21 13.22
12/25/2020 11:00:00 PM 2.47 36.446 0.061 6.76 53.15 13.23
12/25/2020 11:15:00 PM 2.44 36.392 0.061 6.76 33.97 13.25
12/25/2020 11:30:00 PM 2.41 36.338 0.061 6.76 66.92 13.26
12/25/2020 11:45:00 PM 2.38 36.284 0.061 6.76 73.31 13.27
12/26/2020 12:00:00 AM 2.36 36.248 0.061 6.76 42.04 13.27
12/26/2020 12:15:00 AM 2.32 36.176 0.062 6.77 33.51 13.28
12/26/2020 12:30:00 AM 2.29 36.122 0.062 6.77 56.35 13.3
12/26/2020 12:45:00 AM 2.26 36.068 0.062 6.77 41.82 13.31
12/26/2020 1:00:00 AM 2.21 35.978 0.062 6.76 47.77 13.31
12/26/2020 1:15:00 AM 2.17 35.906 0.062 6.77 37.01 13.34
12/26/2020 1:30:00 AM 2.13 35.834 0.062 6.77 69.61 13.35
12/26/2020 1:45:00 AM 2.09 35.762 0.063 6.77 41.72 13.37
12/26/2020 2:00:00 AM 2.05 35.69 0.063 6.77 51.18 13.38
12/26/2020 2:15:00 AM 2.01 35.618 0.063 6.77 42.17 13.4
12/26/2020 2:30:00 AM 1.97 35.546 0.063 6.78 38.17 13.41
12/26/2020 2:45:00 AM 1.93 35.474 0.063 6.79 35.07 13.42
12/26/2020 3:00:00 AM 1.9 35.42 0.063 6.77 35.34 13.44
12/26/2020 3:15:00 AM 1.87 35.366 0.063 6.77 45.99 13.46
12/26/2020 3:30:00 AM 1.84 35.312 0.064 6.78 52.61 13.47
12/26/2020 3:45:00 AM 1.81 35.258 0.064 6.79 33.07 13.48
12/26/2020 4:00:00 AM 1.78 35.204 0.064 6.78 41.42 13.49
12/26/2020 4:15:00 AM 1.75 35.15 0.064 6.8 40.61 13.5
12/26/2020 4:30:00 AM 1.73 35.114 0.064 6.81 68.88 13.51
12/26/2020 4:45:00 AM 1.7 35.06 0.064 6.8 33.83 13.52
12/26/2020 5:00:00 AM 1.68 35.024 0.064 6.79 39.53 13.54
12/26/2020 5:15:00 AM 1.65 34.97 0.065 6.8 36.46 13.54
12/26/2020 5:30:00 AM 1.62 34.916 0.065 6.8 37.12 13.55
12/26/2020 5:45:00 AM 1.59 34.862 0.065 6.81 42.92 13.56
12/26/2020 6:00:00 AM 1.57 34.826 0.065 6.8 24.91 13.57
12/26/2020 6:15:00 AM 1.54 34.772 0.065 6.8 25.22 13.58
12/26/2020 6:30:00 AM 1.51 34.718 0.066 6.8 50.53 13.6
12/26/2020 6:45:00 AM 1.49 34.682 0.066 6.81 37.12 13.61
12/26/2020 7:00:00 AM 1.46 34.628 0.066 6.8 61.47 13.62
12/26/2020 7:15:00 AM 1.43 34.574 0.066 6.81 55.33 13.63
12/26/2020 7:30:00 AM 1.41 34.538 0.066 6.81 32.02 13.64
12/26/2020 7:45:00 AM 1.38 34.484 0.066 6.81 40.49 13.65
12/26/2020 8:00:00 AM 1.36 34.448 0.066 6.81 43.82 13.66
12/26/2020 8:15:00 AM 1.34 34.412 0.066 6.81 30.29 13.67
12/26/2020 8:30:00 AM 1.31 34.358 0.067 6.82 19.56 13.68
12/26/2020 8:45:00 AM 1.29 34.322 0.067 6.81 21.51 13.69
12/26/2020 9:00:00 AM 1.28 34.304 0.067 6.82 27.22 13.7
12/26/2020 9:15:00 AM 1.28 34.304 0.067 6.82 48.63 13.71
12/26/2020 9:30:00 AM 1.28 34.304 0.067 6.82 23.85 13.72
12/26/2020 9:45:00 AM 1.3 34.34 0.067 6.82 31.4 13.72
12/26/2020 10:00:00 AM 1.33 34.394 0.067 6.82 43.13 13.71
12/26/2020 10:15:00 AM 1.36 34.448 0.067 6.83 39.95 13.71
12/26/2020 10:30:00 AM 1.41 34.538 0.067 6.83 23.54 13.7
12/26/2020 10:45:00 AM 1.44 34.592 0.068 6.83 58.49 13.68
12/26/2020 11:00:00 AM 1.49 34.682 0.067 6.83 31.79 13.67
12/26/2020 11:15:00 AM 1.53 34.754 0.068 6.84 31.49 13.66
12/26/2020 11:30:00 AM 1.56 34.808 0.068 6.83 46.05 13.64
12/26/2020 11:45:00 AM 1.59 34.862 0.067 6.83 41.85 13.63
12/26/2020 12:00:00 PM 1.64 34.952 0.067 6.84 35.32 13.62
12/26/2020 12:15:00 PM 1.68 35.024 0.068 6.85 34.02 13.6
12/26/2020 12:30:00 PM 1.7 35.06 0.068 6.83 46.53 13.59
12/26/2020 12:45:00 PM 1.74 35.132 0.068 6.84 39.16 13.57
12/26/2020 1:00:00 PM 1.77 35.186 0.068 6.84 34.15 13.56
12/26/2020 1:15:00 PM 1.78 35.204 0.068 6.84 28.82 13.55
12/26/2020 1:30:00 PM 1.79 35.222 0.068 6.84 32.21 13.54
12/26/2020 1:45:00 PM 1.8 35.24 0.069 6.84 48.74 13.54
12/26/2020 2:00:00 PM 1.81 35.258 0.068 6.84 19.77 13.53
12/26/2020 2:15:00 PM 1.81 35.258 0.068 6.85 28.36 13.53
12/26/2020 2:30:00 PM 1.82 35.276 0.068 6.84 23.32 13.52
12/26/2020 2:45:00 PM 1.82 35.276 0.069 6.84 24.36 13.52
12/26/2020 3:00:00 PM 1.82 35.276 0.069 6.84 46.49 13.52
12/26/2020 3:15:00 PM 1.81 35.258 0.069 6.84 41.7 13.52
12/26/2020 3:30:00 PM 1.8 35.24 0.069 6.84 28.63 13.52
12/26/2020 3:45:00 PM 1.78 35.204 0.07 6.85 31.48 13.52
12/26/2020 4:00:00 PM 1.76 35.168 0.07 6.85 27.79 13.53
12/26/2020 4:15:00 PM 1.74 35.132 0.071 6.85 29.3 13.54
12/26/2020 4:30:00 PM 1.71 35.078 0.072 6.85 35.41 13.55
12/26/2020 4:45:00 PM 1.69 35.042 0.074 6.87 26.07 13.56
12/26/2020 5:00:00 PM 1.65 34.97 0.074 6.86 30.53 13.57
12/26/2020 5:15:00 PM 1.62 34.916 0.072 6.87 22.57 13.59
12/26/2020 5:30:00 PM 1.59 34.862 0.07 6.86 18.52 13.59
12/26/2020 5:45:00 PM 1.58 34.844 0.069 6.86 18.22 13.6
12/26/2020 6:00:00 PM 1.57 34.826 0.069 6.85 23.16 13.61
12/26/2020 6:15:00 PM 1.55 34.79 0.069 6.86 27.01 13.61
12/26/2020 6:30:00 PM 1.53 34.754 0.069 6.86 29.22 13.62
12/26/2020 6:45:00 PM 1.51 34.718 0.069 6.85 43.85 13.63
12/26/2020 7:00:00 PM 1.48 34.664 0.069 6.85 21.33 13.64
12/26/2020 7:15:00 PM 1.46 34.628 0.069 6.85 48.59 13.65
12/26/2020 7:30:00 PM 1.43 34.574 0.069 6.85 27.8 13.66
12/26/2020 7:45:00 PM 1.41 34.538 0.069 6.84 41.17 13.68
12/26/2020 8:00:00 PM 1.38 34.484 0.069 6.85 42.97 13.69
12/26/2020 8:15:00 PM 1.34 34.412 0.069 6.85 26.54 13.7
12/26/2020 8:30:00 PM 1.3 34.34 0.069 6.84 23.99 13.71
12/26/2020 8:45:00 PM 1.27 34.286 0.069 6.84 23.44 13.73
12/26/2020 9:00:00 PM 1.24 34.232 0.069 6.83 24.84 13.74
12/26/2020 9:15:00 PM 1.21 34.178 0.069 6.84 45.88 13.75
12/26/2020 9:30:00 PM 1.19 34.142 0.069 6.83 29.24 13.77
12/26/2020 9:45:00 PM 1.17 34.106 0.069 6.83 35.72 13.78
12/26/2020 10:00:00 PM 1.15 34.07 0.07 6.83 24.24 13.79
12/26/2020 10:15:00 PM 1.12 34.016 0.07 6.82 26.59 13.8
12/26/2020 10:30:00 PM 1.1 33.98 0.07 6.82 33.6 13.8
12/26/2020 10:45:00 PM 1.08 33.944 0.07 6.81 27.21 13.82
12/26/2020 11:00:00 PM 1.06 33.908 0.07 6.83 23.05 13.82
12/26/2020 11:15:00 PM 1.05 33.89 0.07 6.82 56.15 13.83
12/26/2020 11:30:00 PM 1.04 33.872 0.07 6.82 23.53 13.84
12/26/2020 11:45:00 PM 1.02 33.836 0.07 6.82 31.1 13.85
12/27/2020 12:00:00 AM 1 33.8 0.07 6.82 37.29 13.86
12/27/2020 12:15:00 AM 0.99 33.782 0.071 6.81 35.53 13.86
12/27/2020 12:30:00 AM 0.97 33.746 0.07 6.83 28.9 13.87
12/27/2020 12:45:00 AM 0.96 33.728 0.071 6.83 28.85 13.88
12/27/2020 1:00:00 AM 0.95 33.71 0.071 6.83 18.86 13.88
12/27/2020 1:15:00 AM 0.94 33.692 0.071 6.84 19 13.88
12/27/2020 1:30:00 AM 0.93 33.674 0.071 6.83 24.86 13.89
12/27/2020 1:45:00 AM 0.93 33.674 0.071 6.84 41.97 13.9
12/27/2020 2:00:00 AM 0.93 33.674 0.071 6.83 14.23 13.89
12/27/2020 2:15:00 AM 0.93 33.674 0.071 6.83 26.74 13.89
12/27/2020 2:30:00 AM 0.93 33.674 0.072 6.84 29.06 13.89
12/27/2020 2:45:00 AM 0.93 33.674 0.072 6.84 19.86 13.9
12/27/2020 3:00:00 AM 0.94 33.692 0.072 6.84 29.71 13.91
12/27/2020 3:15:00 AM 0.94 33.692 0.071 6.83 22.14 13.91
12/27/2020 3:30:00 AM 0.94 33.692 0.071 6.83 21.66 13.91
12/27/2020 3:45:00 AM 0.95 33.71 0.072 6.83 19.63 13.91
12/27/2020 4:00:00 AM 0.96 33.728 0.071 6.83 32.49 13.9
12/27/2020 4:15:00 AM 0.96 33.728 0.072 6.83 23.97 13.91
12/27/2020 4:30:00 AM 0.97 33.746 0.072 6.83 22.97 13.9
12/27/2020 4:45:00 AM 0.98 33.764 0.072 6.84 30.79 13.9
12/27/2020 5:00:00 AM 0.98 33.764 0.072 6.83 16.15 13.91
12/27/2020 5:15:00 AM 0.99 33.782 0.071 6.84 19.82 13.9
12/27/2020 5:30:00 AM 1 33.8 0.072 6.83 22.81 13.91
12/27/2020 5:45:00 AM 1 33.8 0.072 6.83 17.03 13.91
12/27/2020 6:00:00 AM 1.01 33.818 0.072 6.83 24.65 13.9
12/27/2020 6:15:00 AM 1.02 33.836 0.072 6.83 21.43 13.91
12/27/2020 6:30:00 AM 1.03 33.854 0.072 6.84 29.53 13.9
12/27/2020 6:45:00 AM 1.04 33.872 0.072 6.84 16.55 13.91
12/27/2020 7:00:00 AM 1.04 33.872 0.072 6.83 20.42 13.9
12/27/2020 7:15:00 AM 1.05 33.89 0.072 6.85 19.47 13.9
12/27/2020 7:30:00 AM 1.05 33.89 0.072 6.85 17.41 13.9
12/27/2020 7:45:00 AM 1.06 33.908 0.072 6.85 19.06 13.9
12/27/2020 8:00:00 AM 1.07 33.926 0.072 6.84 22.32 13.91
12/27/2020 8:15:00 AM 1.07 33.926 0.073 6.86 49.16 13.91
12/27/2020 8:30:00 AM 1.08 33.944 0.072 6.85 33.28 13.9
12/27/2020 8:45:00 AM 1.09 33.962 0.073 6.85 17.89 13.91
12/27/2020 9:00:00 AM 1.11 33.998 0.073 6.85 17.67 13.9
12/27/2020 9:15:00 AM 1.13 34.034 0.073 6.84 18.38 13.9
12/27/2020 9:30:00 AM 1.15 34.07 0.073 6.84 26.03 13.9
12/27/2020 9:45:00 AM 1.17 34.106 0.073 6.85 16.78 13.9
12/27/2020 10:00:00 AM 1.19 34.142 0.074 6.84 13.67 13.9
12/27/2020 10:15:00 AM 1.22 34.196 0.074 6.85 23.6 13.89
12/27/2020 10:30:00 AM 1.26 34.268 0.073 6.85 27.07 13.88
12/27/2020 10:45:00 AM 1.3 34.34 0.073 6.85 22.92 13.88
12/27/2020 11:00:00 AM 1.35 34.43 0.073 6.85 20.68 13.86
12/27/2020 11:15:00 AM 1.4 34.52 0.074 6.85 27.52 13.85
12/27/2020 11:30:00 AM 1.46 34.628 0.074 6.86 20.17 13.83
12/27/2020 11:45:00 AM 1.52 34.736 0.074 6.86 30.26 13.81
12/27/2020 12:00:00 PM 1.58 34.844 0.074 6.86 28.59 13.79
12/27/2020 12:15:00 PM 1.66 34.988 0.074 6.86 19.18 13.76
12/27/2020 12:30:00 PM 1.73 35.114 0.073 6.86 18.42 13.74
12/27/2020 12:45:00 PM 1.8 35.24 0.074 6.87 19.22 13.71
12/27/2020 1:00:00 PM 1.86 35.348 0.074 6.88 18.55 13.68
12/27/2020 1:15:00 PM 1.92 35.456 0.074 6.9 19.15 13.65
12/27/2020 1:30:00 PM 1.98 35.564 0.073 6.9 16.28 13.63
12/27/2020 1:45:00 PM 2.04 35.672 0.074 6.91 18.18 13.6
12/27/2020 2:00:00 PM 2.1 35.78 0.074 6.91 14.57 13.58
12/27/2020 2:15:00 PM 2.14 35.852 0.074 6.92 15.06 13.56
12/27/2020 2:30:00 PM 2.15 35.87 0.074 6.92 23.55 13.55
12/27/2020 2:45:00 PM 2.16 35.888 0.074 6.91 32.83 13.54
12/27/2020 3:00:00 PM 2.16 35.888 0.074 6.91 21.86 13.54
12/27/2020 3:15:00 PM 2.15 35.87 0.074 6.91 17.36 13.53
12/27/2020 3:30:00 PM 2.13 35.834 0.074 6.92 15.45 13.53
12/27/2020 3:45:00 PM 2.09 35.762 0.074 6.92 21.91 13.53
12/27/2020 4:00:00 PM 2.06 35.708 0.074 6.92 17.71 13.54
12/27/2020 4:15:00 PM 2.03 35.654 0.074 6.91 14.69 13.53
12/27/2020 4:30:00 PM 2 35.6 0.074 6.92 25.87 13.54
12/27/2020 4:45:00 PM 1.98 35.564 0.074 6.92 19.61 13.55
12/27/2020 5:00:00 PM 1.95 35.51 0.074 6.92 27.57 13.55
12/27/2020 5:15:00 PM 1.92 35.456 0.074 6.92 13.92 13.57
12/27/2020 5:30:00 PM 1.89 35.402 0.074 6.91 18.78 13.58
12/27/2020 5:45:00 PM 1.86 35.348 0.074 6.91 19.84 13.59
12/27/2020 6:00:00 PM 1.83 35.294 0.074 6.91 20.21 13.6
12/27/2020 6:15:00 PM 1.8 35.24 0.074 6.91 20.62 13.61
12/27/2020 6:30:00 PM 1.76 35.168 0.074 6.91 19.76 13.62
12/27/2020 6:45:00 PM 1.73 35.114 0.074 6.91 17.22 13.63
12/27/2020 7:00:00 PM 1.7 35.06 0.074 6.91 14.69 13.63
12/27/2020 7:15:00 PM 1.66 34.988 0.074 6.9 19.07 13.65
12/27/2020 7:30:00 PM 1.63 34.934 0.074 6.91 15.28 13.67
12/27/2020 7:45:00 PM 1.6 34.88 0.074 6.9 12.61 13.68
12/27/2020 8:00:00 PM 1.58 34.844 0.074 6.91 17.5 13.69
12/27/2020 8:15:00 PM 1.56 34.808 0.074 6.91 15.14 13.69
12/27/2020 8:30:00 PM 1.53 34.754 0.075 6.9 20.39 13.7
12/27/2020 8:45:00 PM 1.51 34.718 0.075 6.9 28.07 13.72
12/27/2020 9:00:00 PM 1.48 34.664 0.075 6.91 16.3 13.72
12/27/2020 9:15:00 PM 1.46 34.628 0.075 6.9 21.92 13.73
12/27/2020 9:30:00 PM 1.44 34.592 0.075 6.91 15.34 13.74
12/27/2020 9:45:00 PM 1.42 34.556 0.075 6.9 16.4 13.74
12/27/2020 10:00:00 PM 1.4 34.52 0.075 6.91 13.9 13.75
12/27/2020 10:15:00 PM 1.38 34.484 0.076 6.91 11.42 13.76
12/27/2020 10:30:00 PM 1.37 34.466 0.075 6.91 18.58 13.76
12/27/2020 10:45:00 PM 1.36 34.448 0.076 6.91 16.57 13.76
12/27/2020 11:00:00 PM 1.35 34.43 0.076 6.91 15.08 13.77
12/27/2020 11:15:00 PM 1.34 34.412 0.076 6.91 17.52 13.77
12/27/2020 11:30:00 PM 1.33 34.394 0.076 6.91 16.96 13.77
12/27/2020 11:45:00 PM 1.33 34.394 0.076 6.91 14.82 13.77
12/28/2020 12:00:00 AM 1.32 34.376 0.076 6.91 28.33 13.77
12/28/2020 12:15:00 AM 1.31 34.358 0.076 6.91 15.9 13.78
12/28/2020 12:30:00 AM 1.31 34.358 0.076 6.91 14.69 13.77
12/28/2020 12:45:00 AM 1.3 34.34 0.076 6.91 23.65 13.77
12/28/2020 1:00:00 AM 1.29 34.322 0.076 6.91 24.89 13.77
12/28/2020 1:15:00 AM 1.29 34.322 0.076 6.91 25.8 13.77
12/28/2020 1:30:00 AM 1.28 34.304 0.076 6.92 15.83 13.77
12/28/2020 1:45:00 AM 1.28 34.304 0.076 6.91 18.67 13.77
12/28/2020 2:00:00 AM 1.27 34.286 0.076 6.91 13.22 13.77
12/28/2020 2:15:00 AM 1.27 34.286 0.076 6.92 10.94 13.77
12/28/2020 2:30:00 AM 1.26 34.268 0.076 6.92 11.61 13.77
12/28/2020 2:45:00 AM 1.26 34.268 0.076 6.91 14.49 13.78
12/28/2020 3:00:00 AM 1.26 34.268 0.075 6.91 13.47 13.77
12/28/2020 3:15:00 AM 1.25 34.25 0.076 6.92 12.91 13.77
12/28/2020 3:30:00 AM 1.25 34.25 0.076 6.91 14.7 13.77
12/28/2020 3:45:00 AM 1.25 34.25 0.076 6.91 20.52 13.76
12/28/2020 4:00:00 AM 1.25 34.25 0.075 6.92 10.17 13.76
12/28/2020 4:15:00 AM 1.26 34.268 0.075 6.92 14.96 13.75
12/28/2020 4:30:00 AM 1.26 34.268 0.075 6.91 29.66 13.75
12/28/2020 4:45:00 AM 1.27 34.286 0.076 6.92 23.04 13.75
12/28/2020 5:00:00 AM 1.27 34.286 0.076 6.92 10.69 13.74
12/28/2020 5:15:00 AM 1.28 34.304 0.075 6.92 12.93 13.74
12/28/2020 5:30:00 AM 1.29 34.322 0.076 6.92 21.17 13.73
12/28/2020 5:45:00 AM 1.3 34.34 0.076 6.92 15.61 13.73
12/28/2020 6:00:00 AM 1.32 34.376 0.075 6.92 25.75 13.72
12/28/2020 6:15:00 AM 1.34 34.412 0.075 6.92 14.24 13.72
12/28/2020 6:30:00 AM 1.35 34.43 0.075 6.92 24.85 13.71
12/28/2020 6:45:00 AM 1.36 34.448 0.075 6.92 13.25 13.71
12/28/2020 7:00:00 AM 1.31 34.358 0.075 6.92 14.55 13.7
12/28/2020 7:15:00 AM 1.3 34.34 0.075 6.92 13.51 13.7
12/28/2020 7:30:00 AM 1.3 34.34 0.075 6.92 13.32 13.7
12/28/2020 7:45:00 AM 1.31 34.358 0.075 6.92 14.3 13.7
12/28/2020 8:00:00 AM 1.33 34.394 0.075 6.92 14.43 13.7
12/28/2020 8:15:00 AM 1.36 34.448 0.075 6.92 16.18 13.7
12/28/2020 8:30:00 AM 1.39 34.502 0.075 6.93 11.37 13.7
12/28/2020 8:45:00 AM 1.43 34.574 0.075 6.93 10.93 13.68
12/28/2020 9:00:00 AM 1.46 34.628 0.075 6.93 12.76 13.68
12/28/2020 9:15:00 AM 1.49 34.